<?xml version="1.0" encoding="UTF-8" standalone="no" ?>
<gpx xmlns="http://www.topografix.com/GPX/1/1" xmlns:xsi="http://www.w3.org/2001/XMLSchema-instance" xsi:schemaLocation="http://www.topografix.com/GPX/1/1 http://www.topografix.com/GPX/1/1/gpx.xsd" version="1.1" creator="VisuGPX - https://www.visugpx.com">
  <metadata>
    <name>Balade environs de Poncins</name>
    <desc><![CDATA[Balade dans les environs de Poncins, sans difficulté ]]></desc>
  </metadata>
  <trk>
    <name><![CDATA[20181112192257-8pjA1]]></name>
    <trkseg>
      <trkpt lat="45.72854" lon="4.16175">
        <ele>406.518</ele>
        <time>2018-11-12T13:12:14Z</time>
      </trkpt>
      <trkpt lat="45.72853" lon="4.1617">
        <ele>403.726</ele>
        <time>2018-11-12T13:12:19Z</time>
      </trkpt>
      <trkpt lat="45.72852" lon="4.16162">
        <ele>389.433</ele>
        <time>2018-11-12T13:12:25Z</time>
      </trkpt>
      <trkpt lat="45.72856" lon="4.16156">
        <ele>392.949</ele>
        <time>2018-11-12T13:12:31Z</time>
      </trkpt>
      <trkpt lat="45.72861" lon="4.16151">
        <ele>391.791</ele>
        <time>2018-11-12T13:12:37Z</time>
      </trkpt>
      <trkpt lat="45.72868" lon="4.16139">
        <ele>393.295</ele>
        <time>2018-11-12T13:12:42Z</time>
      </trkpt>
      <trkpt lat="45.72868" lon="4.16139">
        <ele>394.565</ele>
        <time>2018-11-12T13:12:48Z</time>
      </trkpt>
      <trkpt lat="45.72875" lon="4.16124">
        <ele>394.51</ele>
        <time>2018-11-12T13:12:53Z</time>
      </trkpt>
      <trkpt lat="45.72873" lon="4.16117">
        <ele>394.007</ele>
        <time>2018-11-12T13:12:59Z</time>
      </trkpt>
      <trkpt lat="45.72872" lon="4.16112">
        <ele>393.643</ele>
        <time>2018-11-12T13:13:04Z</time>
      </trkpt>
      <trkpt lat="45.72871" lon="4.16102">
        <ele>393.203</ele>
        <time>2018-11-12T13:13:09Z</time>
      </trkpt>
      <trkpt lat="45.7287" lon="4.16093">
        <ele>392.586</ele>
        <time>2018-11-12T13:13:14Z</time>
      </trkpt>
      <trkpt lat="45.72868" lon="4.16085">
        <ele>392.232</ele>
        <time>2018-11-12T13:13:20Z</time>
      </trkpt>
      <trkpt lat="45.72865" lon="4.16075">
        <ele>392.355</ele>
        <time>2018-11-12T13:13:26Z</time>
      </trkpt>
      <trkpt lat="45.72861" lon="4.16068">
        <ele>392.178</ele>
        <time>2018-11-12T13:13:31Z</time>
      </trkpt>
      <trkpt lat="45.72858" lon="4.16064">
        <ele>391.641</ele>
        <time>2018-11-12T13:13:36Z</time>
      </trkpt>
      <trkpt lat="45.72853" lon="4.16058">
        <ele>390.959</ele>
        <time>2018-11-12T13:13:42Z</time>
      </trkpt>
      <trkpt lat="45.72848" lon="4.16057">
        <ele>390.262</ele>
        <time>2018-11-12T13:13:47Z</time>
      </trkpt>
      <trkpt lat="45.72843" lon="4.16056">
        <ele>389.552</ele>
        <time>2018-11-12T13:13:52Z</time>
      </trkpt>
      <trkpt lat="45.72836" lon="4.16057">
        <ele>389.076</ele>
        <time>2018-11-12T13:13:58Z</time>
      </trkpt>
      <trkpt lat="45.72829" lon="4.16059">
        <ele>388.635</ele>
        <time>2018-11-12T13:14:04Z</time>
      </trkpt>
      <trkpt lat="45.72823" lon="4.16059">
        <ele>388.57</ele>
        <time>2018-11-12T13:14:10Z</time>
      </trkpt>
      <trkpt lat="45.72817" lon="4.16059">
        <ele>388.654</ele>
        <time>2018-11-12T13:14:15Z</time>
      </trkpt>
      <trkpt lat="45.72814" lon="4.1606">
        <ele>388.648</ele>
        <time>2018-11-12T13:14:20Z</time>
      </trkpt>
      <trkpt lat="45.72808" lon="4.16065">
        <ele>388.993</ele>
        <time>2018-11-12T13:14:26Z</time>
      </trkpt>
      <trkpt lat="45.72802" lon="4.16069">
        <ele>388.864</ele>
        <time>2018-11-12T13:14:32Z</time>
      </trkpt>
      <trkpt lat="45.72797" lon="4.16071">
        <ele>388.801</ele>
        <time>2018-11-12T13:14:38Z</time>
      </trkpt>
      <trkpt lat="45.72791" lon="4.16074">
        <ele>388.587</ele>
        <time>2018-11-12T13:14:44Z</time>
      </trkpt>
      <trkpt lat="45.72787" lon="4.16076">
        <ele>388.179</ele>
        <time>2018-11-12T13:14:49Z</time>
      </trkpt>
      <trkpt lat="45.72779" lon="4.16077">
        <ele>388.099</ele>
        <time>2018-11-12T13:14:55Z</time>
      </trkpt>
      <trkpt lat="45.72774" lon="4.16079">
        <ele>388.149</ele>
        <time>2018-11-12T13:15:00Z</time>
      </trkpt>
      <trkpt lat="45.72767" lon="4.16081">
        <ele>388.098</ele>
        <time>2018-11-12T13:15:06Z</time>
      </trkpt>
      <trkpt lat="45.72759" lon="4.16086">
        <ele>388.071</ele>
        <time>2018-11-12T13:15:12Z</time>
      </trkpt>
      <trkpt lat="45.72755" lon="4.16087">
        <ele>388.261</ele>
        <time>2018-11-12T13:15:17Z</time>
      </trkpt>
      <trkpt lat="45.72748" lon="4.1609">
        <ele>388.707</ele>
        <time>2018-11-12T13:15:23Z</time>
      </trkpt>
      <trkpt lat="45.72741" lon="4.16095">
        <ele>388.913</ele>
        <time>2018-11-12T13:15:28Z</time>
      </trkpt>
      <trkpt lat="45.72737" lon="4.16098">
        <ele>388.794</ele>
        <time>2018-11-12T13:15:34Z</time>
      </trkpt>
      <trkpt lat="45.7273" lon="4.161">
        <ele>389.089</ele>
        <time>2018-11-12T13:15:39Z</time>
      </trkpt>
      <trkpt lat="45.72723" lon="4.16103">
        <ele>389.561</ele>
        <time>2018-11-12T13:15:45Z</time>
      </trkpt>
      <trkpt lat="45.72715" lon="4.16104">
        <ele>389.758</ele>
        <time>2018-11-12T13:15:51Z</time>
      </trkpt>
      <trkpt lat="45.72709" lon="4.16101">
        <ele>389.524</ele>
        <time>2018-11-12T13:15:57Z</time>
      </trkpt>
      <trkpt lat="45.72705" lon="4.16095">
        <ele>389.559</ele>
        <time>2018-11-12T13:16:02Z</time>
      </trkpt>
      <trkpt lat="45.72704" lon="4.16088">
        <ele>389.631</ele>
        <time>2018-11-12T13:16:08Z</time>
      </trkpt>
      <trkpt lat="45.72699" lon="4.1608">
        <ele>389.15</ele>
        <time>2018-11-12T13:16:13Z</time>
      </trkpt>
      <trkpt lat="45.72696" lon="4.16072">
        <ele>388.43</ele>
        <time>2018-11-12T13:16:19Z</time>
      </trkpt>
      <trkpt lat="45.72693" lon="4.16065">
        <ele>388.073</ele>
        <time>2018-11-12T13:16:25Z</time>
      </trkpt>
      <trkpt lat="45.72688" lon="4.16057">
        <ele>388.123</ele>
        <time>2018-11-12T13:16:31Z</time>
      </trkpt>
      <trkpt lat="45.72685" lon="4.16052">
        <ele>387.936</ele>
        <time>2018-11-12T13:16:37Z</time>
      </trkpt>
      <trkpt lat="45.72683" lon="4.16048">
        <ele>387.882</ele>
        <time>2018-11-12T13:16:43Z</time>
      </trkpt>
      <trkpt lat="45.72679" lon="4.16037">
        <ele>387.65</ele>
        <time>2018-11-12T13:16:48Z</time>
      </trkpt>
      <trkpt lat="45.72672" lon="4.16028">
        <ele>387.104</ele>
        <time>2018-11-12T13:16:54Z</time>
      </trkpt>
      <trkpt lat="45.72668" lon="4.16019">
        <ele>386.462</ele>
        <time>2018-11-12T13:16:59Z</time>
      </trkpt>
      <trkpt lat="45.72664" lon="4.16011">
        <ele>385.99</ele>
        <time>2018-11-12T13:17:05Z</time>
      </trkpt>
      <trkpt lat="45.72659" lon="4.16007">
        <ele>385.9</ele>
        <time>2018-11-12T13:17:10Z</time>
      </trkpt>
      <trkpt lat="45.72653" lon="4.15999">
        <ele>385.983</ele>
        <time>2018-11-12T13:17:16Z</time>
      </trkpt>
      <trkpt lat="45.72649" lon="4.15989">
        <ele>386.314</ele>
        <time>2018-11-12T13:17:22Z</time>
      </trkpt>
      <trkpt lat="45.72646" lon="4.15981">
        <ele>386.829</ele>
        <time>2018-11-12T13:17:27Z</time>
      </trkpt>
      <trkpt lat="45.72642" lon="4.1597">
        <ele>387.147</ele>
        <time>2018-11-12T13:17:33Z</time>
      </trkpt>
      <trkpt lat="45.7264" lon="4.15964">
        <ele>387.501</ele>
        <time>2018-11-12T13:17:38Z</time>
      </trkpt>
      <trkpt lat="45.72638" lon="4.15956">
        <ele>387.955</ele>
        <time>2018-11-12T13:17:44Z</time>
      </trkpt>
      <trkpt lat="45.72634" lon="4.15945">
        <ele>387.915</ele>
        <time>2018-11-12T13:17:50Z</time>
      </trkpt>
      <trkpt lat="45.72632" lon="4.15936">
        <ele>387.8</ele>
        <time>2018-11-12T13:17:56Z</time>
      </trkpt>
      <trkpt lat="45.7263" lon="4.15927">
        <ele>387.485</ele>
        <time>2018-11-12T13:18:01Z</time>
      </trkpt>
      <trkpt lat="45.72628" lon="4.15917">
        <ele>387.17</ele>
        <time>2018-11-12T13:18:07Z</time>
      </trkpt>
      <trkpt lat="45.72626" lon="4.15908">
        <ele>387.424</ele>
        <time>2018-11-12T13:18:13Z</time>
      </trkpt>
      <trkpt lat="45.72621" lon="4.15897">
        <ele>387.855</ele>
        <time>2018-11-12T13:18:19Z</time>
      </trkpt>
      <trkpt lat="45.72617" lon="4.1589">
        <ele>387.906</ele>
        <time>2018-11-12T13:18:25Z</time>
      </trkpt>
      <trkpt lat="45.72615" lon="4.1588">
        <ele>388.357</ele>
        <time>2018-11-12T13:18:31Z</time>
      </trkpt>
      <trkpt lat="45.72612" lon="4.1587">
        <ele>389.831</ele>
        <time>2018-11-12T13:18:37Z</time>
      </trkpt>
      <trkpt lat="45.7261" lon="4.15863">
        <ele>391.014</ele>
        <time>2018-11-12T13:18:42Z</time>
      </trkpt>
      <trkpt lat="45.72609" lon="4.15855">
        <ele>392.07</ele>
        <time>2018-11-12T13:18:48Z</time>
      </trkpt>
      <trkpt lat="45.72607" lon="4.15849">
        <ele>392.686</ele>
        <time>2018-11-12T13:18:53Z</time>
      </trkpt>
      <trkpt lat="45.72604" lon="4.15837">
        <ele>393.599</ele>
        <time>2018-11-12T13:18:59Z</time>
      </trkpt>
      <trkpt lat="45.72603" lon="4.15827">
        <ele>394.191</ele>
        <time>2018-11-12T13:19:05Z</time>
      </trkpt>
      <trkpt lat="45.72601" lon="4.15818">
        <ele>394.62</ele>
        <time>2018-11-12T13:19:11Z</time>
      </trkpt>
      <trkpt lat="45.72598" lon="4.15811">
        <ele>395.039</ele>
        <time>2018-11-12T13:19:16Z</time>
      </trkpt>
      <trkpt lat="45.72593" lon="4.15801">
        <ele>395.954</ele>
        <time>2018-11-12T13:19:22Z</time>
      </trkpt>
      <trkpt lat="45.7259" lon="4.15793">
        <ele>396.659</ele>
        <time>2018-11-12T13:19:27Z</time>
      </trkpt>
      <trkpt lat="45.72588" lon="4.15784">
        <ele>397.333</ele>
        <time>2018-11-12T13:19:33Z</time>
      </trkpt>
      <trkpt lat="45.72584" lon="4.15778">
        <ele>397.749</ele>
        <time>2018-11-12T13:19:38Z</time>
      </trkpt>
      <trkpt lat="45.72582" lon="4.15772">
        <ele>397.844</ele>
        <time>2018-11-12T13:19:43Z</time>
      </trkpt>
      <trkpt lat="45.72578" lon="4.15763">
        <ele>398.134</ele>
        <time>2018-11-12T13:19:49Z</time>
      </trkpt>
      <trkpt lat="45.72575" lon="4.15752">
        <ele>398.44</ele>
        <time>2018-11-12T13:19:55Z</time>
      </trkpt>
      <trkpt lat="45.72574" lon="4.15746">
        <ele>398.488</ele>
        <time>2018-11-12T13:20:00Z</time>
      </trkpt>
      <trkpt lat="45.72574" lon="4.15734">
        <ele>398.498</ele>
        <time>2018-11-12T13:20:06Z</time>
      </trkpt>
      <trkpt lat="45.72572" lon="4.15723">
        <ele>398.459</ele>
        <time>2018-11-12T13:20:12Z</time>
      </trkpt>
      <trkpt lat="45.72569" lon="4.15716">
        <ele>398.41</ele>
        <time>2018-11-12T13:20:17Z</time>
      </trkpt>
      <trkpt lat="45.72565" lon="4.15708">
        <ele>398.202</ele>
        <time>2018-11-12T13:20:23Z</time>
      </trkpt>
      <trkpt lat="45.72561" lon="4.15699">
        <ele>397.764</ele>
        <time>2018-11-12T13:20:29Z</time>
      </trkpt>
      <trkpt lat="45.72557" lon="4.15688">
        <ele>397.483</ele>
        <time>2018-11-12T13:20:35Z</time>
      </trkpt>
      <trkpt lat="45.72553" lon="4.15678">
        <ele>397.359</ele>
        <time>2018-11-12T13:20:41Z</time>
      </trkpt>
      <trkpt lat="45.7255" lon="4.15667">
        <ele>397.027</ele>
        <time>2018-11-12T13:20:46Z</time>
      </trkpt>
      <trkpt lat="45.72547" lon="4.15659">
        <ele>396.482</ele>
        <time>2018-11-12T13:20:52Z</time>
      </trkpt>
      <trkpt lat="45.72545" lon="4.15652">
        <ele>396.126</ele>
        <time>2018-11-12T13:20:58Z</time>
      </trkpt>
      <trkpt lat="45.72541" lon="4.15642">
        <ele>395.933</ele>
        <time>2018-11-12T13:21:04Z</time>
      </trkpt>
      <trkpt lat="45.72539" lon="4.15634">
        <ele>395.765</ele>
        <time>2018-11-12T13:21:09Z</time>
      </trkpt>
      <trkpt lat="45.72536" lon="4.15626">
        <ele>395.239</ele>
        <time>2018-11-12T13:21:15Z</time>
      </trkpt>
      <trkpt lat="45.72533" lon="4.15618">
        <ele>394.504</ele>
        <time>2018-11-12T13:21:20Z</time>
      </trkpt>
      <trkpt lat="45.7253" lon="4.15609">
        <ele>393.741</ele>
        <time>2018-11-12T13:21:26Z</time>
      </trkpt>
      <trkpt lat="45.72525" lon="4.15597">
        <ele>393.375</ele>
        <time>2018-11-12T13:21:32Z</time>
      </trkpt>
      <trkpt lat="45.72523" lon="4.1559">
        <ele>393.065</ele>
        <time>2018-11-12T13:21:37Z</time>
      </trkpt>
      <trkpt lat="45.72518" lon="4.15581">
        <ele>392.57</ele>
        <time>2018-11-12T13:21:43Z</time>
      </trkpt>
      <trkpt lat="45.72515" lon="4.15572">
        <ele>392.234</ele>
        <time>2018-11-12T13:21:49Z</time>
      </trkpt>
      <trkpt lat="45.72511" lon="4.15562">
        <ele>391.915</ele>
        <time>2018-11-12T13:21:54Z</time>
      </trkpt>
      <trkpt lat="45.72508" lon="4.15548">
        <ele>391.823</ele>
        <time>2018-11-12T13:22:00Z</time>
      </trkpt>
      <trkpt lat="45.72506" lon="4.15538">
        <ele>391.368</ele>
        <time>2018-11-12T13:22:06Z</time>
      </trkpt>
      <trkpt lat="45.72502" lon="4.15528">
        <ele>390.545</ele>
        <time>2018-11-12T13:22:12Z</time>
      </trkpt>
      <trkpt lat="45.72499" lon="4.15517">
        <ele>390.208</ele>
        <time>2018-11-12T13:22:18Z</time>
      </trkpt>
      <trkpt lat="45.72496" lon="4.15508">
        <ele>389.514</ele>
        <time>2018-11-12T13:22:23Z</time>
      </trkpt>
      <trkpt lat="45.72494" lon="4.15499">
        <ele>388.987</ele>
        <time>2018-11-12T13:22:29Z</time>
      </trkpt>
      <trkpt lat="45.7249" lon="4.15491">
        <ele>388.228</ele>
        <time>2018-11-12T13:22:34Z</time>
      </trkpt>
      <trkpt lat="45.72486" lon="4.15481">
        <ele>387.671</ele>
        <time>2018-11-12T13:22:40Z</time>
      </trkpt>
      <trkpt lat="45.72483" lon="4.15475">
        <ele>387.419</ele>
        <time>2018-11-12T13:22:45Z</time>
      </trkpt>
      <trkpt lat="45.72479" lon="4.15467">
        <ele>387.478</ele>
        <time>2018-11-12T13:22:51Z</time>
      </trkpt>
      <trkpt lat="45.72475" lon="4.1546">
        <ele>387.382</ele>
        <time>2018-11-12T13:22:56Z</time>
      </trkpt>
      <trkpt lat="45.72472" lon="4.15454">
        <ele>387.279</ele>
        <time>2018-11-12T13:23:01Z</time>
      </trkpt>
      <trkpt lat="45.72467" lon="4.15445">
        <ele>387.479</ele>
        <time>2018-11-12T13:23:07Z</time>
      </trkpt>
      <trkpt lat="45.72464" lon="4.15438">
        <ele>387.766</ele>
        <time>2018-11-12T13:23:13Z</time>
      </trkpt>
      <trkpt lat="45.72461" lon="4.15431">
        <ele>387.925</ele>
        <time>2018-11-12T13:23:18Z</time>
      </trkpt>
      <trkpt lat="45.72457" lon="4.15424">
        <ele>387.954</ele>
        <time>2018-11-12T13:23:23Z</time>
      </trkpt>
      <trkpt lat="45.72453" lon="4.15414">
        <ele>388.202</ele>
        <time>2018-11-12T13:23:29Z</time>
      </trkpt>
      <trkpt lat="45.7245" lon="4.15405">
        <ele>388.446</ele>
        <time>2018-11-12T13:23:35Z</time>
      </trkpt>
      <trkpt lat="45.72444" lon="4.15394">
        <ele>387.831</ele>
        <time>2018-11-12T13:23:41Z</time>
      </trkpt>
      <trkpt lat="45.7244" lon="4.15383">
        <ele>387.419</ele>
        <time>2018-11-12T13:23:47Z</time>
      </trkpt>
      <trkpt lat="45.72438" lon="4.15378">
        <ele>386.823</ele>
        <time>2018-11-12T13:23:52Z</time>
      </trkpt>
      <trkpt lat="45.72433" lon="4.15366">
        <ele>386.314</ele>
        <time>2018-11-12T13:23:58Z</time>
      </trkpt>
      <trkpt lat="45.72431" lon="4.15357">
        <ele>386.158</ele>
        <time>2018-11-12T13:24:04Z</time>
      </trkpt>
      <trkpt lat="45.72428" lon="4.15349">
        <ele>386.023</ele>
        <time>2018-11-12T13:24:09Z</time>
      </trkpt>
      <trkpt lat="45.72425" lon="4.15341">
        <ele>385.951</ele>
        <time>2018-11-12T13:24:14Z</time>
      </trkpt>
      <trkpt lat="45.72422" lon="4.15333">
        <ele>386.059</ele>
        <time>2018-11-12T13:24:19Z</time>
      </trkpt>
      <trkpt lat="45.72419" lon="4.15324">
        <ele>386.496</ele>
        <time>2018-11-12T13:24:25Z</time>
      </trkpt>
      <trkpt lat="45.72419" lon="4.15313">
        <ele>386.727</ele>
        <time>2018-11-12T13:24:31Z</time>
      </trkpt>
      <trkpt lat="45.72421" lon="4.15304">
        <ele>386.911</ele>
        <time>2018-11-12T13:24:36Z</time>
      </trkpt>
      <trkpt lat="45.72424" lon="4.15295">
        <ele>386.826</ele>
        <time>2018-11-12T13:24:42Z</time>
      </trkpt>
      <trkpt lat="45.72428" lon="4.15282">
        <ele>386.769</ele>
        <time>2018-11-12T13:24:48Z</time>
      </trkpt>
      <trkpt lat="45.72432" lon="4.15271">
        <ele>386.713</ele>
        <time>2018-11-12T13:24:54Z</time>
      </trkpt>
      <trkpt lat="45.72435" lon="4.15261">
        <ele>386.169</ele>
        <time>2018-11-12T13:25:00Z</time>
      </trkpt>
      <trkpt lat="45.72437" lon="4.15252">
        <ele>385.484</ele>
        <time>2018-11-12T13:25:06Z</time>
      </trkpt>
      <trkpt lat="45.72438" lon="4.15237">
        <ele>385.367</ele>
        <time>2018-11-12T13:25:12Z</time>
      </trkpt>
      <trkpt lat="45.72441" lon="4.15228">
        <ele>385.212</ele>
        <time>2018-11-12T13:25:17Z</time>
      </trkpt>
      <trkpt lat="45.72442" lon="4.15218">
        <ele>385.621</ele>
        <time>2018-11-12T13:25:23Z</time>
      </trkpt>
      <trkpt lat="45.72441" lon="4.15206">
        <ele>386.195</ele>
        <time>2018-11-12T13:25:29Z</time>
      </trkpt>
      <trkpt lat="45.72442" lon="4.15196">
        <ele>386.09</ele>
        <time>2018-11-12T13:25:35Z</time>
      </trkpt>
      <trkpt lat="45.72442" lon="4.15191">
        <ele>385.915</ele>
        <time>2018-11-12T13:25:40Z</time>
      </trkpt>
      <trkpt lat="45.72442" lon="4.15182">
        <ele>386.383</ele>
        <time>2018-11-12T13:25:46Z</time>
      </trkpt>
      <trkpt lat="45.72442" lon="4.15171">
        <ele>386.857</ele>
        <time>2018-11-12T13:25:51Z</time>
      </trkpt>
      <trkpt lat="45.7244" lon="4.15164">
        <ele>387.385</ele>
        <time>2018-11-12T13:25:57Z</time>
      </trkpt>
      <trkpt lat="45.72441" lon="4.15149">
        <ele>387.539</ele>
        <time>2018-11-12T13:26:03Z</time>
      </trkpt>
      <trkpt lat="45.72443" lon="4.15145">
        <ele>387.625</ele>
        <time>2018-11-12T13:26:08Z</time>
      </trkpt>
      <trkpt lat="45.72447" lon="4.15145">
        <ele>387.287</ele>
        <time>2018-11-12T13:26:13Z</time>
      </trkpt>
      <trkpt lat="45.7245" lon="4.15144">
        <ele>387.235</ele>
        <time>2018-11-12T13:26:19Z</time>
      </trkpt>
      <trkpt lat="45.72455" lon="4.15144">
        <ele>387.977</ele>
        <time>2018-11-12T13:26:25Z</time>
      </trkpt>
      <trkpt lat="45.72461" lon="4.15142">
        <ele>388.295</ele>
        <time>2018-11-12T13:26:31Z</time>
      </trkpt>
      <trkpt lat="45.72471" lon="4.15137">
        <ele>388.245</ele>
        <time>2018-11-12T13:26:36Z</time>
      </trkpt>
      <trkpt lat="45.72476" lon="4.15131">
        <ele>387.976</ele>
        <time>2018-11-12T13:26:42Z</time>
      </trkpt>
      <trkpt lat="45.72482" lon="4.15129">
        <ele>388.1</ele>
        <time>2018-11-12T13:26:48Z</time>
      </trkpt>
      <trkpt lat="45.72488" lon="4.15128">
        <ele>388.595</ele>
        <time>2018-11-12T13:26:54Z</time>
      </trkpt>
      <trkpt lat="45.72494" lon="4.15127">
        <ele>389.118</ele>
        <time>2018-11-12T13:27:00Z</time>
      </trkpt>
      <trkpt lat="45.725" lon="4.15123">
        <ele>389.011</ele>
        <time>2018-11-12T13:27:06Z</time>
      </trkpt>
      <trkpt lat="45.72504" lon="4.15118">
        <ele>388.771</ele>
        <time>2018-11-12T13:27:12Z</time>
      </trkpt>
      <trkpt lat="45.72507" lon="4.15111">
        <ele>388.298</ele>
        <time>2018-11-12T13:27:18Z</time>
      </trkpt>
      <trkpt lat="45.7251" lon="4.15102">
        <ele>388.074</ele>
        <time>2018-11-12T13:27:24Z</time>
      </trkpt>
      <trkpt lat="45.72509" lon="4.15093">
        <ele>388.047</ele>
        <time>2018-11-12T13:27:29Z</time>
      </trkpt>
      <trkpt lat="45.72508" lon="4.15083">
        <ele>388.187</ele>
        <time>2018-11-12T13:27:35Z</time>
      </trkpt>
      <trkpt lat="45.72506" lon="4.15075">
        <ele>388.008</ele>
        <time>2018-11-12T13:27:41Z</time>
      </trkpt>
      <trkpt lat="45.72504" lon="4.15068">
        <ele>387.877</ele>
        <time>2018-11-12T13:27:46Z</time>
      </trkpt>
      <trkpt lat="45.72504" lon="4.15058">
        <ele>387.803</ele>
        <time>2018-11-12T13:27:52Z</time>
      </trkpt>
      <trkpt lat="45.72505" lon="4.15054">
        <ele>387.749</ele>
        <time>2018-11-12T13:27:57Z</time>
      </trkpt>
      <trkpt lat="45.72502" lon="4.15042">
        <ele>387.73</ele>
        <time>2018-11-12T13:28:03Z</time>
      </trkpt>
      <trkpt lat="45.72503" lon="4.15034">
        <ele>388.087</ele>
        <time>2018-11-12T13:28:09Z</time>
      </trkpt>
      <trkpt lat="45.72503" lon="4.15022">
        <ele>388.228</ele>
        <time>2018-11-12T13:28:15Z</time>
      </trkpt>
      <trkpt lat="45.72503" lon="4.15014">
        <ele>388.854</ele>
        <time>2018-11-12T13:28:20Z</time>
      </trkpt>
      <trkpt lat="45.72498" lon="4.15001">
        <ele>389.298</ele>
        <time>2018-11-12T13:28:26Z</time>
      </trkpt>
      <trkpt lat="45.72497" lon="4.14994">
        <ele>389.522</ele>
        <time>2018-11-12T13:28:31Z</time>
      </trkpt>
      <trkpt lat="45.72496" lon="4.14987">
        <ele>390.02</ele>
        <time>2018-11-12T13:28:37Z</time>
      </trkpt>
      <trkpt lat="45.72495" lon="4.14978">
        <ele>390.595</ele>
        <time>2018-11-12T13:28:42Z</time>
      </trkpt>
      <trkpt lat="45.7249" lon="4.14968">
        <ele>390.853</ele>
        <time>2018-11-12T13:28:48Z</time>
      </trkpt>
      <trkpt lat="45.72486" lon="4.14961">
        <ele>390.963</ele>
        <time>2018-11-12T13:28:54Z</time>
      </trkpt>
      <trkpt lat="45.72483" lon="4.14955">
        <ele>391.157</ele>
        <time>2018-11-12T13:28:59Z</time>
      </trkpt>
      <trkpt lat="45.72479" lon="4.14945">
        <ele>391.05</ele>
        <time>2018-11-12T13:29:05Z</time>
      </trkpt>
      <trkpt lat="45.72476" lon="4.14937">
        <ele>391.071</ele>
        <time>2018-11-12T13:29:10Z</time>
      </trkpt>
      <trkpt lat="45.72472" lon="4.14929">
        <ele>390.907</ele>
        <time>2018-11-12T13:29:15Z</time>
      </trkpt>
      <trkpt lat="45.72466" lon="4.14918">
        <ele>390.797</ele>
        <time>2018-11-12T13:29:21Z</time>
      </trkpt>
      <trkpt lat="45.72462" lon="4.14913">
        <ele>390.672</ele>
        <time>2018-11-12T13:29:27Z</time>
      </trkpt>
      <trkpt lat="45.72456" lon="4.14905">
        <ele>390.549</ele>
        <time>2018-11-12T13:29:33Z</time>
      </trkpt>
      <trkpt lat="45.72453" lon="4.14899">
        <ele>390.443</ele>
        <time>2018-11-12T13:29:39Z</time>
      </trkpt>
      <trkpt lat="45.7245" lon="4.14888">
        <ele>390.073</ele>
        <time>2018-11-12T13:29:45Z</time>
      </trkpt>
      <trkpt lat="45.72445" lon="4.14879">
        <ele>389.722</ele>
        <time>2018-11-12T13:29:51Z</time>
      </trkpt>
      <trkpt lat="45.72441" lon="4.14873">
        <ele>389.549</ele>
        <time>2018-11-12T13:29:56Z</time>
      </trkpt>
      <trkpt lat="45.72437" lon="4.14867">
        <ele>389.343</ele>
        <time>2018-11-12T13:30:02Z</time>
      </trkpt>
      <trkpt lat="45.72434" lon="4.14861">
        <ele>389.147</ele>
        <time>2018-11-12T13:30:07Z</time>
      </trkpt>
      <trkpt lat="45.7243" lon="4.14856">
        <ele>388.638</ele>
        <time>2018-11-12T13:30:12Z</time>
      </trkpt>
      <trkpt lat="45.72426" lon="4.14846">
        <ele>388.289</ele>
        <time>2018-11-12T13:30:18Z</time>
      </trkpt>
      <trkpt lat="45.72423" lon="4.14837">
        <ele>388.253</ele>
        <time>2018-11-12T13:30:23Z</time>
      </trkpt>
      <trkpt lat="45.72419" lon="4.14832">
        <ele>388.138</ele>
        <time>2018-11-12T13:30:28Z</time>
      </trkpt>
      <trkpt lat="45.72414" lon="4.14823">
        <ele>388.278</ele>
        <time>2018-11-12T13:30:34Z</time>
      </trkpt>
      <trkpt lat="45.72411" lon="4.14814">
        <ele>388.623</ele>
        <time>2018-11-12T13:30:39Z</time>
      </trkpt>
      <trkpt lat="45.72406" lon="4.14807">
        <ele>389.297</ele>
        <time>2018-11-12T13:30:45Z</time>
      </trkpt>
      <trkpt lat="45.72403" lon="4.14801">
        <ele>389.86</ele>
        <time>2018-11-12T13:30:50Z</time>
      </trkpt>
      <trkpt lat="45.72398" lon="4.14793">
        <ele>390.161</ele>
        <time>2018-11-12T13:30:55Z</time>
      </trkpt>
      <trkpt lat="45.72393" lon="4.14784">
        <ele>390.45</ele>
        <time>2018-11-12T13:31:00Z</time>
      </trkpt>
      <trkpt lat="45.72389" lon="4.14777">
        <ele>390.845</ele>
        <time>2018-11-12T13:31:06Z</time>
      </trkpt>
      <trkpt lat="45.72387" lon="4.14768">
        <ele>391.244</ele>
        <time>2018-11-12T13:31:11Z</time>
      </trkpt>
      <trkpt lat="45.72382" lon="4.14759">
        <ele>391.148</ele>
        <time>2018-11-12T13:31:17Z</time>
      </trkpt>
      <trkpt lat="45.72376" lon="4.1475">
        <ele>390.86</ele>
        <time>2018-11-12T13:31:23Z</time>
      </trkpt>
      <trkpt lat="45.72372" lon="4.14744">
        <ele>390.848</ele>
        <time>2018-11-12T13:31:29Z</time>
      </trkpt>
      <trkpt lat="45.72366" lon="4.14735">
        <ele>391.151</ele>
        <time>2018-11-12T13:31:35Z</time>
      </trkpt>
      <trkpt lat="45.72361" lon="4.14728">
        <ele>391.066</ele>
        <time>2018-11-12T13:31:41Z</time>
      </trkpt>
      <trkpt lat="45.72356" lon="4.1472">
        <ele>390.763</ele>
        <time>2018-11-12T13:31:46Z</time>
      </trkpt>
      <trkpt lat="45.7235" lon="4.14713">
        <ele>390.898</ele>
        <time>2018-11-12T13:31:52Z</time>
      </trkpt>
      <trkpt lat="45.72346" lon="4.14706">
        <ele>391.202</ele>
        <time>2018-11-12T13:31:57Z</time>
      </trkpt>
      <trkpt lat="45.72342" lon="4.14699">
        <ele>391.312</ele>
        <time>2018-11-12T13:32:03Z</time>
      </trkpt>
      <trkpt lat="45.72338" lon="4.14689">
        <ele>391.514</ele>
        <time>2018-11-12T13:32:09Z</time>
      </trkpt>
      <trkpt lat="45.72335" lon="4.14683">
        <ele>391.466</ele>
        <time>2018-11-12T13:32:14Z</time>
      </trkpt>
      <trkpt lat="45.7233" lon="4.14677">
        <ele>391.51</ele>
        <time>2018-11-12T13:32:20Z</time>
      </trkpt>
      <trkpt lat="45.72325" lon="4.1467">
        <ele>391.66</ele>
        <time>2018-11-12T13:32:25Z</time>
      </trkpt>
      <trkpt lat="45.7232" lon="4.14662">
        <ele>391.487</ele>
        <time>2018-11-12T13:32:31Z</time>
      </trkpt>
      <trkpt lat="45.72313" lon="4.14657">
        <ele>391.308</ele>
        <time>2018-11-12T13:32:37Z</time>
      </trkpt>
      <trkpt lat="45.72308" lon="4.1465">
        <ele>391.188</ele>
        <time>2018-11-12T13:32:43Z</time>
      </trkpt>
      <trkpt lat="45.72302" lon="4.14641">
        <ele>391.066</ele>
        <time>2018-11-12T13:32:49Z</time>
      </trkpt>
      <trkpt lat="45.72298" lon="4.14635">
        <ele>391.139</ele>
        <time>2018-11-12T13:32:54Z</time>
      </trkpt>
      <trkpt lat="45.72293" lon="4.14627">
        <ele>391.136</ele>
        <time>2018-11-12T13:32:59Z</time>
      </trkpt>
      <trkpt lat="45.72288" lon="4.1462">
        <ele>391.083</ele>
        <time>2018-11-12T13:33:05Z</time>
      </trkpt>
      <trkpt lat="45.72284" lon="4.14617">
        <ele>391.047</ele>
        <time>2018-11-12T13:33:11Z</time>
      </trkpt>
      <trkpt lat="45.72279" lon="4.1461">
        <ele>391.218</ele>
        <time>2018-11-12T13:33:16Z</time>
      </trkpt>
      <trkpt lat="45.72273" lon="4.14598">
        <ele>390.971</ele>
        <time>2018-11-12T13:33:22Z</time>
      </trkpt>
      <trkpt lat="45.7227" lon="4.14593">
        <ele>390.657</ele>
        <time>2018-11-12T13:33:27Z</time>
      </trkpt>
      <trkpt lat="45.72265" lon="4.14585">
        <ele>390.825</ele>
        <time>2018-11-12T13:33:33Z</time>
      </trkpt>
      <trkpt lat="45.72261" lon="4.14579">
        <ele>391.039</ele>
        <time>2018-11-12T13:33:38Z</time>
      </trkpt>
      <trkpt lat="45.72257" lon="4.14573">
        <ele>391.422</ele>
        <time>2018-11-12T13:33:44Z</time>
      </trkpt>
      <trkpt lat="45.72251" lon="4.14561">
        <ele>392.056</ele>
        <time>2018-11-12T13:33:50Z</time>
      </trkpt>
      <trkpt lat="45.72249" lon="4.14554">
        <ele>392.385</ele>
        <time>2018-11-12T13:33:55Z</time>
      </trkpt>
      <trkpt lat="45.72246" lon="4.14545">
        <ele>392.77</ele>
        <time>2018-11-12T13:34:00Z</time>
      </trkpt>
      <trkpt lat="45.72242" lon="4.14536">
        <ele>393.092</ele>
        <time>2018-11-12T13:34:06Z</time>
      </trkpt>
      <trkpt lat="45.72239" lon="4.14529">
        <ele>392.987</ele>
        <time>2018-11-12T13:34:11Z</time>
      </trkpt>
      <trkpt lat="45.72237" lon="4.14522">
        <ele>392.584</ele>
        <time>2018-11-12T13:34:16Z</time>
      </trkpt>
      <trkpt lat="45.7223" lon="4.14513">
        <ele>392.305</ele>
        <time>2018-11-12T13:34:22Z</time>
      </trkpt>
      <trkpt lat="45.72227" lon="4.14507">
        <ele>392.112</ele>
        <time>2018-11-12T13:34:27Z</time>
      </trkpt>
      <trkpt lat="45.72222" lon="4.14498">
        <ele>391.896</ele>
        <time>2018-11-12T13:34:33Z</time>
      </trkpt>
      <trkpt lat="45.7222" lon="4.1449">
        <ele>391.958</ele>
        <time>2018-11-12T13:34:38Z</time>
      </trkpt>
      <trkpt lat="45.72216" lon="4.14477">
        <ele>392.137</ele>
        <time>2018-11-12T13:34:44Z</time>
      </trkpt>
      <trkpt lat="45.72214" lon="4.14469">
        <ele>391.956</ele>
        <time>2018-11-12T13:34:49Z</time>
      </trkpt>
      <trkpt lat="45.72211" lon="4.14461">
        <ele>392.023</ele>
        <time>2018-11-12T13:34:55Z</time>
      </trkpt>
      <trkpt lat="45.72209" lon="4.14454">
        <ele>392.117</ele>
        <time>2018-11-12T13:35:00Z</time>
      </trkpt>
      <trkpt lat="45.72207" lon="4.14445">
        <ele>391.893</ele>
        <time>2018-11-12T13:35:06Z</time>
      </trkpt>
      <trkpt lat="45.72204" lon="4.14434">
        <ele>391.85</ele>
        <time>2018-11-12T13:35:12Z</time>
      </trkpt>
      <trkpt lat="45.72202" lon="4.14426">
        <ele>391.85</ele>
        <time>2018-11-12T13:35:17Z</time>
      </trkpt>
      <trkpt lat="45.72199" lon="4.14417">
        <ele>391.679</ele>
        <time>2018-11-12T13:35:23Z</time>
      </trkpt>
      <trkpt lat="45.72196" lon="4.1441">
        <ele>391.638</ele>
        <time>2018-11-12T13:35:29Z</time>
      </trkpt>
      <trkpt lat="45.72194" lon="4.14399">
        <ele>391.788</ele>
        <time>2018-11-12T13:35:34Z</time>
      </trkpt>
      <trkpt lat="45.72192" lon="4.14392">
        <ele>391.783</ele>
        <time>2018-11-12T13:35:40Z</time>
      </trkpt>
      <trkpt lat="45.72188" lon="4.14382">
        <ele>391.841</ele>
        <time>2018-11-12T13:35:46Z</time>
      </trkpt>
      <trkpt lat="45.72186" lon="4.14374">
        <ele>391.758</ele>
        <time>2018-11-12T13:35:52Z</time>
      </trkpt>
      <trkpt lat="45.72185" lon="4.14366">
        <ele>391.385</ele>
        <time>2018-11-12T13:35:57Z</time>
      </trkpt>
      <trkpt lat="45.72183" lon="4.14355">
        <ele>391.242</ele>
        <time>2018-11-12T13:36:03Z</time>
      </trkpt>
      <trkpt lat="45.7218" lon="4.14348">
        <ele>391.304</ele>
        <time>2018-11-12T13:36:08Z</time>
      </trkpt>
      <trkpt lat="45.72177" lon="4.1434">
        <ele>391.152</ele>
        <time>2018-11-12T13:36:14Z</time>
      </trkpt>
      <trkpt lat="45.72174" lon="4.14331">
        <ele>391.122</ele>
        <time>2018-11-12T13:36:19Z</time>
      </trkpt>
      <trkpt lat="45.72174" lon="4.14326">
        <ele>391.184</ele>
        <time>2018-11-12T13:36:24Z</time>
      </trkpt>
      <trkpt lat="45.72172" lon="4.14315">
        <ele>391.513</ele>
        <time>2018-11-12T13:36:29Z</time>
      </trkpt>
      <trkpt lat="45.7217" lon="4.14306">
        <ele>391.716</ele>
        <time>2018-11-12T13:36:35Z</time>
      </trkpt>
      <trkpt lat="45.72169" lon="4.14295">
        <ele>392.034</ele>
        <time>2018-11-12T13:36:41Z</time>
      </trkpt>
      <trkpt lat="45.72167" lon="4.14286">
        <ele>392.292</ele>
        <time>2018-11-12T13:36:46Z</time>
      </trkpt>
      <trkpt lat="45.72166" lon="4.14277">
        <ele>392.116</ele>
        <time>2018-11-12T13:36:52Z</time>
      </trkpt>
      <trkpt lat="45.72162" lon="4.14271">
        <ele>392.038</ele>
        <time>2018-11-12T13:36:57Z</time>
      </trkpt>
      <trkpt lat="45.72158" lon="4.14261">
        <ele>391.774</ele>
        <time>2018-11-12T13:37:03Z</time>
      </trkpt>
      <trkpt lat="45.72154" lon="4.14254">
        <ele>391.549</ele>
        <time>2018-11-12T13:37:08Z</time>
      </trkpt>
      <trkpt lat="45.72149" lon="4.14245">
        <ele>391.273</ele>
        <time>2018-11-12T13:37:14Z</time>
      </trkpt>
      <trkpt lat="45.72145" lon="4.14236">
        <ele>391.155</ele>
        <time>2018-11-12T13:37:20Z</time>
      </trkpt>
      <trkpt lat="45.72141" lon="4.14229">
        <ele>391.326</ele>
        <time>2018-11-12T13:37:26Z</time>
      </trkpt>
      <trkpt lat="45.72135" lon="4.1422">
        <ele>391.523</ele>
        <time>2018-11-12T13:37:32Z</time>
      </trkpt>
      <trkpt lat="45.72133" lon="4.14214">
        <ele>391.268</ele>
        <time>2018-11-12T13:37:38Z</time>
      </trkpt>
      <trkpt lat="45.72128" lon="4.14207">
        <ele>391.246</ele>
        <time>2018-11-12T13:37:44Z</time>
      </trkpt>
      <trkpt lat="45.72124" lon="4.142">
        <ele>391.469</ele>
        <time>2018-11-12T13:37:49Z</time>
      </trkpt>
      <trkpt lat="45.7212" lon="4.14192">
        <ele>391.586</ele>
        <time>2018-11-12T13:37:55Z</time>
      </trkpt>
      <trkpt lat="45.72117" lon="4.14186">
        <ele>391.595</ele>
        <time>2018-11-12T13:38:00Z</time>
      </trkpt>
      <trkpt lat="45.72112" lon="4.14175">
        <ele>391.685</ele>
        <time>2018-11-12T13:38:06Z</time>
      </trkpt>
      <trkpt lat="45.72108" lon="4.14163">
        <ele>391.753</ele>
        <time>2018-11-12T13:38:12Z</time>
      </trkpt>
      <trkpt lat="45.72107" lon="4.14157">
        <ele>391.818</ele>
        <time>2018-11-12T13:38:18Z</time>
      </trkpt>
      <trkpt lat="45.72103" lon="4.14148">
        <ele>391.954</ele>
        <time>2018-11-12T13:38:23Z</time>
      </trkpt>
      <trkpt lat="45.72099" lon="4.14141">
        <ele>392.127</ele>
        <time>2018-11-12T13:38:29Z</time>
      </trkpt>
      <trkpt lat="45.72095" lon="4.14133">
        <ele>392.487</ele>
        <time>2018-11-12T13:38:35Z</time>
      </trkpt>
      <trkpt lat="45.72093" lon="4.14124">
        <ele>392.755</ele>
        <time>2018-11-12T13:38:40Z</time>
      </trkpt>
      <trkpt lat="45.72089" lon="4.14113">
        <ele>392.583</ele>
        <time>2018-11-12T13:38:46Z</time>
      </trkpt>
      <trkpt lat="45.72086" lon="4.14103">
        <ele>392.622</ele>
        <time>2018-11-12T13:38:52Z</time>
      </trkpt>
      <trkpt lat="45.72082" lon="4.14097">
        <ele>392.701</ele>
        <time>2018-11-12T13:38:58Z</time>
      </trkpt>
      <trkpt lat="45.72077" lon="4.14087">
        <ele>393.221</ele>
        <time>2018-11-12T13:39:04Z</time>
      </trkpt>
      <trkpt lat="45.72074" lon="4.1408">
        <ele>393.462</ele>
        <time>2018-11-12T13:39:09Z</time>
      </trkpt>
      <trkpt lat="45.72072" lon="4.14075">
        <ele>394.021</ele>
        <time>2018-11-12T13:39:15Z</time>
      </trkpt>
      <trkpt lat="45.72071" lon="4.14068">
        <ele>394.558</ele>
        <time>2018-11-12T13:39:21Z</time>
      </trkpt>
      <trkpt lat="45.72069" lon="4.1406">
        <ele>394.838</ele>
        <time>2018-11-12T13:39:26Z</time>
      </trkpt>
      <trkpt lat="45.72068" lon="4.14061">
        <ele>395.205</ele>
        <time>2018-11-12T13:39:32Z</time>
      </trkpt>
      <trkpt lat="45.72067" lon="4.14061">
        <ele>395.377</ele>
        <time>2018-11-12T13:39:38Z</time>
      </trkpt>
      <trkpt lat="45.72068" lon="4.14061">
        <ele>395.746</ele>
        <time>2018-11-12T13:39:43Z</time>
      </trkpt>
      <trkpt lat="45.7207" lon="4.14059">
        <ele>396.281</ele>
        <time>2018-11-12T13:39:49Z</time>
      </trkpt>
      <trkpt lat="45.7207" lon="4.14058">
        <ele>396.415</ele>
        <time>2018-11-12T13:39:54Z</time>
      </trkpt>
      <trkpt lat="45.7207" lon="4.14059">
        <ele>396.922</ele>
        <time>2018-11-12T13:40:00Z</time>
      </trkpt>
      <trkpt lat="45.7207" lon="4.1406">
        <ele>397.149</ele>
        <time>2018-11-12T13:40:06Z</time>
      </trkpt>
      <trkpt lat="45.7207" lon="4.14059">
        <ele>397.275</ele>
        <time>2018-11-12T13:40:11Z</time>
      </trkpt>
      <trkpt lat="45.72068" lon="4.14054">
        <ele>396.951</ele>
        <time>2018-11-12T13:40:16Z</time>
      </trkpt>
      <trkpt lat="45.72065" lon="4.14044">
        <ele>396.625</ele>
        <time>2018-11-12T13:40:21Z</time>
      </trkpt>
      <trkpt lat="45.72066" lon="4.14042">
        <ele>396.47</ele>
        <time>2018-11-12T13:40:27Z</time>
      </trkpt>
      <trkpt lat="45.72065" lon="4.14042">
        <ele>396.633</ele>
        <time>2018-11-12T13:40:33Z</time>
      </trkpt>
      <trkpt lat="45.72066" lon="4.14042">
        <ele>396.852</ele>
        <time>2018-11-12T13:40:39Z</time>
      </trkpt>
      <trkpt lat="45.72066" lon="4.14041">
        <ele>397.075</ele>
        <time>2018-11-12T13:40:45Z</time>
      </trkpt>
      <trkpt lat="45.72062" lon="4.14036">
        <ele>396.758</ele>
        <time>2018-11-12T13:40:51Z</time>
      </trkpt>
      <trkpt lat="45.72063" lon="4.14034">
        <ele>396.659</ele>
        <time>2018-11-12T13:40:56Z</time>
      </trkpt>
      <trkpt lat="45.72062" lon="4.14027">
        <ele>396.16</ele>
        <time>2018-11-12T13:41:02Z</time>
      </trkpt>
      <trkpt lat="45.7206" lon="4.14021">
        <ele>396.096</ele>
        <time>2018-11-12T13:41:08Z</time>
      </trkpt>
      <trkpt lat="45.72058" lon="4.14016">
        <ele>396.129</ele>
        <time>2018-11-12T13:41:13Z</time>
      </trkpt>
      <trkpt lat="45.72059" lon="4.14015">
        <ele>395.925</ele>
        <time>2018-11-12T13:41:19Z</time>
      </trkpt>
      <trkpt lat="45.72059" lon="4.14016">
        <ele>396.207</ele>
        <time>2018-11-12T13:41:24Z</time>
      </trkpt>
      <trkpt lat="45.72059" lon="4.14014">
        <ele>397.339</ele>
        <time>2018-11-12T13:41:30Z</time>
      </trkpt>
      <trkpt lat="45.72059" lon="4.14015">
        <ele>397.797</ele>
        <time>2018-11-12T13:41:36Z</time>
      </trkpt>
      <trkpt lat="45.72059" lon="4.14015">
        <ele>397.864</ele>
        <time>2018-11-12T13:41:41Z</time>
      </trkpt>
      <trkpt lat="45.72058" lon="4.14016">
        <ele>398.122</ele>
        <time>2018-11-12T13:41:47Z</time>
      </trkpt>
      <trkpt lat="45.72056" lon="4.14014">
        <ele>398.329</ele>
        <time>2018-11-12T13:41:52Z</time>
      </trkpt>
      <trkpt lat="45.72057" lon="4.14015">
        <ele>397.997</ele>
        <time>2018-11-12T13:41:58Z</time>
      </trkpt>
      <trkpt lat="45.72057" lon="4.14015">
        <ele>398.284</ele>
        <time>2018-11-12T13:42:03Z</time>
      </trkpt>
      <trkpt lat="45.72059" lon="4.14016">
        <ele>398.42</ele>
        <time>2018-11-12T13:42:08Z</time>
      </trkpt>
      <trkpt lat="45.72059" lon="4.14015">
        <ele>398.796</ele>
        <time>2018-11-12T13:42:14Z</time>
      </trkpt>
      <trkpt lat="45.72057" lon="4.14015">
        <ele>398.874</ele>
        <time>2018-11-12T13:42:20Z</time>
      </trkpt>
      <trkpt lat="45.72056" lon="4.14013">
        <ele>398.968</ele>
        <time>2018-11-12T13:42:26Z</time>
      </trkpt>
      <trkpt lat="45.72056" lon="4.14011">
        <ele>398.923</ele>
        <time>2018-11-12T13:42:32Z</time>
      </trkpt>
      <trkpt lat="45.72057" lon="4.14009">
        <ele>399.034</ele>
        <time>2018-11-12T13:42:37Z</time>
      </trkpt>
      <trkpt lat="45.72054" lon="4.14003">
        <ele>399.239</ele>
        <time>2018-11-12T13:42:43Z</time>
      </trkpt>
      <trkpt lat="45.72055" lon="4.14001">
        <ele>399.145</ele>
        <time>2018-11-12T13:42:48Z</time>
      </trkpt>
      <trkpt lat="45.72055" lon="4.14">
        <ele>398.837</ele>
        <time>2018-11-12T13:42:54Z</time>
      </trkpt>
      <trkpt lat="45.72055" lon="4.13999">
        <ele>398.29</ele>
        <time>2018-11-12T13:43:00Z</time>
      </trkpt>
      <trkpt lat="45.72053" lon="4.13993">
        <ele>398.095</ele>
        <time>2018-11-12T13:43:06Z</time>
      </trkpt>
      <trkpt lat="45.72051" lon="4.13983">
        <ele>398.075</ele>
        <time>2018-11-12T13:43:11Z</time>
      </trkpt>
      <trkpt lat="45.72047" lon="4.13974">
        <ele>397.903</ele>
        <time>2018-11-12T13:43:17Z</time>
      </trkpt>
      <trkpt lat="45.72043" lon="4.13967">
        <ele>397.318</ele>
        <time>2018-11-12T13:43:23Z</time>
      </trkpt>
      <trkpt lat="45.72041" lon="4.13959">
        <ele>396.763</ele>
        <time>2018-11-12T13:43:29Z</time>
      </trkpt>
      <trkpt lat="45.72037" lon="4.13951">
        <ele>396.299</ele>
        <time>2018-11-12T13:43:34Z</time>
      </trkpt>
      <trkpt lat="45.72033" lon="4.13942">
        <ele>396.169</ele>
        <time>2018-11-12T13:43:40Z</time>
      </trkpt>
      <trkpt lat="45.7203" lon="4.13935">
        <ele>395.935</ele>
        <time>2018-11-12T13:43:45Z</time>
      </trkpt>
      <trkpt lat="45.72025" lon="4.13927">
        <ele>395.998</ele>
        <time>2018-11-12T13:43:51Z</time>
      </trkpt>
      <trkpt lat="45.72021" lon="4.13917">
        <ele>396.026</ele>
        <time>2018-11-12T13:43:57Z</time>
      </trkpt>
      <trkpt lat="45.72019" lon="4.13908">
        <ele>396.106</ele>
        <time>2018-11-12T13:44:03Z</time>
      </trkpt>
      <trkpt lat="45.72017" lon="4.13901">
        <ele>396.233</ele>
        <time>2018-11-12T13:44:08Z</time>
      </trkpt>
      <trkpt lat="45.72013" lon="4.13894">
        <ele>396.169</ele>
        <time>2018-11-12T13:44:14Z</time>
      </trkpt>
      <trkpt lat="45.72009" lon="4.13887">
        <ele>396.187</ele>
        <time>2018-11-12T13:44:20Z</time>
      </trkpt>
      <trkpt lat="45.72006" lon="4.13877">
        <ele>396.318</ele>
        <time>2018-11-12T13:44:26Z</time>
      </trkpt>
      <trkpt lat="45.72002" lon="4.13871">
        <ele>396.13</ele>
        <time>2018-11-12T13:44:32Z</time>
      </trkpt>
      <trkpt lat="45.71997" lon="4.13861">
        <ele>396.056</ele>
        <time>2018-11-12T13:44:38Z</time>
      </trkpt>
      <trkpt lat="45.71993" lon="4.13853">
        <ele>395.68</ele>
        <time>2018-11-12T13:44:43Z</time>
      </trkpt>
      <trkpt lat="45.71989" lon="4.13846">
        <ele>395.018</ele>
        <time>2018-11-12T13:44:49Z</time>
      </trkpt>
      <trkpt lat="45.71985" lon="4.1384">
        <ele>394.747</ele>
        <time>2018-11-12T13:44:54Z</time>
      </trkpt>
      <trkpt lat="45.71977" lon="4.13835">
        <ele>394.407</ele>
        <time>2018-11-12T13:45:00Z</time>
      </trkpt>
      <trkpt lat="45.71972" lon="4.13828">
        <ele>394.763</ele>
        <time>2018-11-12T13:45:06Z</time>
      </trkpt>
      <trkpt lat="45.71968" lon="4.13822">
        <ele>394.785</ele>
        <time>2018-11-12T13:45:12Z</time>
      </trkpt>
      <trkpt lat="45.71964" lon="4.13816">
        <ele>395.029</ele>
        <time>2018-11-12T13:45:17Z</time>
      </trkpt>
      <trkpt lat="45.71959" lon="4.13811">
        <ele>395.369</ele>
        <time>2018-11-12T13:45:23Z</time>
      </trkpt>
      <trkpt lat="45.71954" lon="4.13804">
        <ele>395.881</ele>
        <time>2018-11-12T13:45:28Z</time>
      </trkpt>
      <trkpt lat="45.71951" lon="4.13798">
        <ele>396.507</ele>
        <time>2018-11-12T13:45:34Z</time>
      </trkpt>
      <trkpt lat="45.71947" lon="4.13793">
        <ele>397.179</ele>
        <time>2018-11-12T13:45:39Z</time>
      </trkpt>
      <trkpt lat="45.71942" lon="4.13788">
        <ele>397.637</ele>
        <time>2018-11-12T13:45:44Z</time>
      </trkpt>
      <trkpt lat="45.71933" lon="4.13775">
        <ele>397.475</ele>
        <time>2018-11-12T13:45:50Z</time>
      </trkpt>
      <trkpt lat="45.71928" lon="4.13771">
        <ele>397.023</ele>
        <time>2018-11-12T13:45:55Z</time>
      </trkpt>
      <trkpt lat="45.71923" lon="4.13767">
        <ele>396.767</ele>
        <time>2018-11-12T13:46:00Z</time>
      </trkpt>
      <trkpt lat="45.71918" lon="4.13761">
        <ele>396.816</ele>
        <time>2018-11-12T13:46:05Z</time>
      </trkpt>
      <trkpt lat="45.71912" lon="4.13755">
        <ele>396.888</ele>
        <time>2018-11-12T13:46:11Z</time>
      </trkpt>
      <trkpt lat="45.71908" lon="4.13751">
        <ele>396.985</ele>
        <time>2018-11-12T13:46:16Z</time>
      </trkpt>
      <trkpt lat="45.71903" lon="4.13744">
        <ele>397.239</ele>
        <time>2018-11-12T13:46:22Z</time>
      </trkpt>
      <trkpt lat="45.71899" lon="4.13741">
        <ele>397.559</ele>
        <time>2018-11-12T13:46:27Z</time>
      </trkpt>
      <trkpt lat="45.7189" lon="4.13733">
        <ele>397.581</ele>
        <time>2018-11-12T13:46:33Z</time>
      </trkpt>
      <trkpt lat="45.71883" lon="4.13723">
        <ele>397.9</ele>
        <time>2018-11-12T13:46:39Z</time>
      </trkpt>
      <trkpt lat="45.71878" lon="4.13719">
        <ele>398.261</ele>
        <time>2018-11-12T13:46:44Z</time>
      </trkpt>
      <trkpt lat="45.71871" lon="4.13711">
        <ele>398.77</ele>
        <time>2018-11-12T13:46:50Z</time>
      </trkpt>
      <trkpt lat="45.71866" lon="4.13706">
        <ele>399.378</ele>
        <time>2018-11-12T13:46:55Z</time>
      </trkpt>
      <trkpt lat="45.7186" lon="4.13703">
        <ele>399.611</ele>
        <time>2018-11-12T13:47:00Z</time>
      </trkpt>
      <trkpt lat="45.71856" lon="4.13699">
        <ele>400.137</ele>
        <time>2018-11-12T13:47:06Z</time>
      </trkpt>
      <trkpt lat="45.71851" lon="4.13691">
        <ele>400.28</ele>
        <time>2018-11-12T13:47:11Z</time>
      </trkpt>
      <trkpt lat="45.71848" lon="4.13686">
        <ele>400.2</ele>
        <time>2018-11-12T13:47:16Z</time>
      </trkpt>
      <trkpt lat="45.71842" lon="4.1368">
        <ele>400.142</ele>
        <time>2018-11-12T13:47:22Z</time>
      </trkpt>
      <trkpt lat="45.71835" lon="4.13673">
        <ele>400.556</ele>
        <time>2018-11-12T13:47:27Z</time>
      </trkpt>
      <trkpt lat="45.71829" lon="4.13669">
        <ele>400.089</ele>
        <time>2018-11-12T13:47:33Z</time>
      </trkpt>
      <trkpt lat="45.71825" lon="4.13665">
        <ele>400.044</ele>
        <time>2018-11-12T13:47:38Z</time>
      </trkpt>
      <trkpt lat="45.71819" lon="4.13659">
        <ele>400.111</ele>
        <time>2018-11-12T13:47:44Z</time>
      </trkpt>
      <trkpt lat="45.71811" lon="4.13652">
        <ele>400.264</ele>
        <time>2018-11-12T13:47:50Z</time>
      </trkpt>
      <trkpt lat="45.71807" lon="4.13648">
        <ele>400.405</ele>
        <time>2018-11-12T13:47:55Z</time>
      </trkpt>
      <trkpt lat="45.71803" lon="4.13643">
        <ele>400.58</ele>
        <time>2018-11-12T13:48:00Z</time>
      </trkpt>
      <trkpt lat="45.71797" lon="4.13636">
        <ele>400.801</ele>
        <time>2018-11-12T13:48:05Z</time>
      </trkpt>
      <trkpt lat="45.71793" lon="4.13631">
        <ele>401.044</ele>
        <time>2018-11-12T13:48:11Z</time>
      </trkpt>
      <trkpt lat="45.71785" lon="4.13626">
        <ele>401.097</ele>
        <time>2018-11-12T13:48:16Z</time>
      </trkpt>
      <trkpt lat="45.71781" lon="4.13623">
        <ele>401.322</ele>
        <time>2018-11-12T13:48:22Z</time>
      </trkpt>
      <trkpt lat="45.71775" lon="4.13616">
        <ele>401.117</ele>
        <time>2018-11-12T13:48:27Z</time>
      </trkpt>
      <trkpt lat="45.7177" lon="4.1361">
        <ele>400.759</ele>
        <time>2018-11-12T13:48:32Z</time>
      </trkpt>
      <trkpt lat="45.71764" lon="4.13604">
        <ele>400.783</ele>
        <time>2018-11-12T13:48:37Z</time>
      </trkpt>
      <trkpt lat="45.71758" lon="4.13599">
        <ele>401.224</ele>
        <time>2018-11-12T13:48:43Z</time>
      </trkpt>
      <trkpt lat="45.71754" lon="4.13596">
        <ele>401.491</ele>
        <time>2018-11-12T13:48:49Z</time>
      </trkpt>
      <trkpt lat="45.7175" lon="4.1359">
        <ele>401.147</ele>
        <time>2018-11-12T13:48:54Z</time>
      </trkpt>
      <trkpt lat="45.71742" lon="4.13583">
        <ele>401.046</ele>
        <time>2018-11-12T13:49:00Z</time>
      </trkpt>
      <trkpt lat="45.71737" lon="4.13578">
        <ele>401.265</ele>
        <time>2018-11-12T13:49:05Z</time>
      </trkpt>
      <trkpt lat="45.71731" lon="4.13572">
        <ele>401.235</ele>
        <time>2018-11-12T13:49:11Z</time>
      </trkpt>
      <trkpt lat="45.71725" lon="4.13565">
        <ele>400.996</ele>
        <time>2018-11-12T13:49:17Z</time>
      </trkpt>
      <trkpt lat="45.71718" lon="4.13561">
        <ele>399.766</ele>
        <time>2018-11-12T13:49:23Z</time>
      </trkpt>
      <trkpt lat="45.71712" lon="4.13553">
        <ele>399.168</ele>
        <time>2018-11-12T13:49:29Z</time>
      </trkpt>
      <trkpt lat="45.71707" lon="4.13545">
        <ele>399.224</ele>
        <time>2018-11-12T13:49:35Z</time>
      </trkpt>
      <trkpt lat="45.71703" lon="4.13541">
        <ele>399.225</ele>
        <time>2018-11-12T13:49:40Z</time>
      </trkpt>
      <trkpt lat="45.71697" lon="4.13534">
        <ele>399.628</ele>
        <time>2018-11-12T13:49:46Z</time>
      </trkpt>
      <trkpt lat="45.7169" lon="4.1353">
        <ele>400.208</ele>
        <time>2018-11-12T13:49:51Z</time>
      </trkpt>
      <trkpt lat="45.71683" lon="4.13524">
        <ele>400.193</ele>
        <time>2018-11-12T13:49:57Z</time>
      </trkpt>
      <trkpt lat="45.71679" lon="4.13521">
        <ele>400.455</ele>
        <time>2018-11-12T13:50:02Z</time>
      </trkpt>
      <trkpt lat="45.71672" lon="4.13513">
        <ele>400.568</ele>
        <time>2018-11-12T13:50:08Z</time>
      </trkpt>
      <trkpt lat="45.71666" lon="4.13506">
        <ele>400.533</ele>
        <time>2018-11-12T13:50:13Z</time>
      </trkpt>
      <trkpt lat="45.71662" lon="4.135">
        <ele>399.896</ele>
        <time>2018-11-12T13:50:19Z</time>
      </trkpt>
      <trkpt lat="45.71659" lon="4.13496">
        <ele>399.536</ele>
        <time>2018-11-12T13:50:25Z</time>
      </trkpt>
      <trkpt lat="45.71657" lon="4.13495">
        <ele>399.678</ele>
        <time>2018-11-12T13:50:31Z</time>
      </trkpt>
      <trkpt lat="45.71656" lon="4.13494">
        <ele>399.988</ele>
        <time>2018-11-12T13:50:37Z</time>
      </trkpt>
      <trkpt lat="45.71656" lon="4.13493">
        <ele>400.292</ele>
        <time>2018-11-12T13:50:42Z</time>
      </trkpt>
      <trkpt lat="45.71657" lon="4.13493">
        <ele>400.249</ele>
        <time>2018-11-12T13:50:48Z</time>
      </trkpt>
      <trkpt lat="45.71658" lon="4.13494">
        <ele>400.233</ele>
        <time>2018-11-12T13:50:54Z</time>
      </trkpt>
      <trkpt lat="45.71661" lon="4.13493">
        <ele>401.207</ele>
        <time>2018-11-12T13:51:00Z</time>
      </trkpt>
      <trkpt lat="45.7166" lon="4.13492">
        <ele>401.941</ele>
        <time>2018-11-12T13:51:05Z</time>
      </trkpt>
      <trkpt lat="45.71655" lon="4.13493">
        <ele>401.568</ele>
        <time>2018-11-12T13:51:11Z</time>
      </trkpt>
      <trkpt lat="45.71652" lon="4.13489">
        <ele>401.6</ele>
        <time>2018-11-12T13:51:16Z</time>
      </trkpt>
      <trkpt lat="45.7165" lon="4.13486">
        <ele>401.079</ele>
        <time>2018-11-12T13:51:22Z</time>
      </trkpt>
      <trkpt lat="45.71649" lon="4.13487">
        <ele>400.445</ele>
        <time>2018-11-12T13:51:27Z</time>
      </trkpt>
      <trkpt lat="45.71649" lon="4.1349">
        <ele>400.276</ele>
        <time>2018-11-12T13:51:33Z</time>
      </trkpt>
      <trkpt lat="45.71649" lon="4.13491">
        <ele>399.89</ele>
        <time>2018-11-12T13:51:38Z</time>
      </trkpt>
      <trkpt lat="45.71648" lon="4.13492">
        <ele>399.934</ele>
        <time>2018-11-12T13:51:44Z</time>
      </trkpt>
      <trkpt lat="45.71647" lon="4.13492">
        <ele>399.981</ele>
        <time>2018-11-12T13:51:49Z</time>
      </trkpt>
      <trkpt lat="45.71647" lon="4.13492">
        <ele>400.049</ele>
        <time>2018-11-12T13:51:54Z</time>
      </trkpt>
      <trkpt lat="45.71647" lon="4.13492">
        <ele>400.096</ele>
        <time>2018-11-12T13:52:00Z</time>
      </trkpt>
      <trkpt lat="45.71647" lon="4.13492">
        <ele>400.107</ele>
        <time>2018-11-12T13:52:05Z</time>
      </trkpt>
      <trkpt lat="45.71647" lon="4.13492">
        <ele>400.107</ele>
        <time>2018-11-12T13:52:11Z</time>
      </trkpt>
      <trkpt lat="45.71647" lon="4.13492">
        <ele>400.179</ele>
        <time>2018-11-12T13:52:16Z</time>
      </trkpt>
      <trkpt lat="45.71647" lon="4.13492">
        <ele>400.268</ele>
        <time>2018-11-12T13:52:22Z</time>
      </trkpt>
      <trkpt lat="45.71647" lon="4.13492">
        <ele>400.493</ele>
        <time>2018-11-12T13:52:28Z</time>
      </trkpt>
      <trkpt lat="45.71647" lon="4.13492">
        <ele>400.386</ele>
        <time>2018-11-12T13:52:34Z</time>
      </trkpt>
      <trkpt lat="45.71647" lon="4.13492">
        <ele>400.362</ele>
        <time>2018-11-12T13:52:39Z</time>
      </trkpt>
      <trkpt lat="45.71647" lon="4.13492">
        <ele>400.355</ele>
        <time>2018-11-12T13:52:45Z</time>
      </trkpt>
      <trkpt lat="45.71647" lon="4.13493">
        <ele>400.251</ele>
        <time>2018-11-12T13:52:50Z</time>
      </trkpt>
      <trkpt lat="45.71647" lon="4.13493">
        <ele>400.354</ele>
        <time>2018-11-12T13:52:56Z</time>
      </trkpt>
      <trkpt lat="45.71647" lon="4.13493">
        <ele>400.423</ele>
        <time>2018-11-12T13:53:01Z</time>
      </trkpt>
      <trkpt lat="45.71647" lon="4.13493">
        <ele>400.417</ele>
        <time>2018-11-12T13:53:07Z</time>
      </trkpt>
      <trkpt lat="45.71647" lon="4.13493">
        <ele>400.313</ele>
        <time>2018-11-12T13:53:13Z</time>
      </trkpt>
      <trkpt lat="45.71647" lon="4.13493">
        <ele>400.289</ele>
        <time>2018-11-12T13:53:19Z</time>
      </trkpt>
      <trkpt lat="45.71647" lon="4.13493">
        <ele>400.363</ele>
        <time>2018-11-12T13:53:25Z</time>
      </trkpt>
      <trkpt lat="45.71647" lon="4.13493">
        <ele>400.426</ele>
        <time>2018-11-12T13:53:30Z</time>
      </trkpt>
      <trkpt lat="45.71647" lon="4.13493">
        <ele>400.477</ele>
        <time>2018-11-12T13:53:35Z</time>
      </trkpt>
      <trkpt lat="45.71647" lon="4.13493">
        <ele>400.783</ele>
        <time>2018-11-12T13:53:41Z</time>
      </trkpt>
      <trkpt lat="45.71648" lon="4.13493">
        <ele>400.052</ele>
        <time>2018-11-12T13:53:47Z</time>
      </trkpt>
      <trkpt lat="45.71648" lon="4.13494">
        <ele>398.878</ele>
        <time>2018-11-12T13:53:53Z</time>
      </trkpt>
      <trkpt lat="45.71648" lon="4.13494">
        <ele>398.79</ele>
        <time>2018-11-12T13:53:58Z</time>
      </trkpt>
      <trkpt lat="45.71648" lon="4.13494">
        <ele>398.701</ele>
        <time>2018-11-12T13:54:04Z</time>
      </trkpt>
      <trkpt lat="45.71649" lon="4.13495">
        <ele>398.525</ele>
        <time>2018-11-12T13:54:10Z</time>
      </trkpt>
      <trkpt lat="45.71649" lon="4.13497">
        <ele>398.467</ele>
        <time>2018-11-12T13:54:15Z</time>
      </trkpt>
      <trkpt lat="45.71649" lon="4.13497">
        <ele>398.508</ele>
        <time>2018-11-12T13:54:20Z</time>
      </trkpt>
      <trkpt lat="45.71649" lon="4.13497">
        <ele>398.627</ele>
        <time>2018-11-12T13:54:26Z</time>
      </trkpt>
      <trkpt lat="45.71649" lon="4.13497">
        <ele>398.706</ele>
        <time>2018-11-12T13:54:31Z</time>
      </trkpt>
      <trkpt lat="45.71649" lon="4.13497">
        <ele>398.824</ele>
        <time>2018-11-12T13:54:37Z</time>
      </trkpt>
      <trkpt lat="45.71649" lon="4.13497">
        <ele>398.997</ele>
        <time>2018-11-12T13:54:43Z</time>
      </trkpt>
      <trkpt lat="45.71649" lon="4.13497">
        <ele>399.206</ele>
        <time>2018-11-12T13:54:48Z</time>
      </trkpt>
      <trkpt lat="45.71649" lon="4.13497">
        <ele>399.463</ele>
        <time>2018-11-12T13:54:54Z</time>
      </trkpt>
      <trkpt lat="45.71649" lon="4.13497">
        <ele>399.579</ele>
        <time>2018-11-12T13:54:59Z</time>
      </trkpt>
      <trkpt lat="45.71649" lon="4.13497">
        <ele>399.648</ele>
        <time>2018-11-12T13:55:05Z</time>
      </trkpt>
      <trkpt lat="45.71649" lon="4.13498">
        <ele>399.772</ele>
        <time>2018-11-12T13:55:10Z</time>
      </trkpt>
      <trkpt lat="45.71646" lon="4.13502">
        <ele>400.022</ele>
        <time>2018-11-12T13:55:16Z</time>
      </trkpt>
      <trkpt lat="45.71642" lon="4.13506">
        <ele>400.061</ele>
        <time>2018-11-12T13:55:22Z</time>
      </trkpt>
      <trkpt lat="45.71638" lon="4.13509">
        <ele>400.103</ele>
        <time>2018-11-12T13:55:27Z</time>
      </trkpt>
      <trkpt lat="45.71633" lon="4.13514">
        <ele>400.263</ele>
        <time>2018-11-12T13:55:33Z</time>
      </trkpt>
      <trkpt lat="45.71627" lon="4.1352">
        <ele>400.242</ele>
        <time>2018-11-12T13:55:38Z</time>
      </trkpt>
      <trkpt lat="45.71621" lon="4.13523">
        <ele>400.381</ele>
        <time>2018-11-12T13:55:43Z</time>
      </trkpt>
      <trkpt lat="45.71616" lon="4.13524">
        <ele>401</ele>
        <time>2018-11-12T13:55:49Z</time>
      </trkpt>
      <trkpt lat="45.71612" lon="4.13526">
        <ele>401.991</ele>
        <time>2018-11-12T13:55:54Z</time>
      </trkpt>
      <trkpt lat="45.71604" lon="4.1353">
        <ele>402.89</ele>
        <time>2018-11-12T13:56:00Z</time>
      </trkpt>
      <trkpt lat="45.71598" lon="4.13534">
        <ele>403.418</ele>
        <time>2018-11-12T13:56:05Z</time>
      </trkpt>
      <trkpt lat="45.71593" lon="4.13535">
        <ele>403.522</ele>
        <time>2018-11-12T13:56:11Z</time>
      </trkpt>
      <trkpt lat="45.71588" lon="4.13539">
        <ele>403.192</ele>
        <time>2018-11-12T13:56:16Z</time>
      </trkpt>
      <trkpt lat="45.71581" lon="4.13542">
        <ele>402.466</ele>
        <time>2018-11-12T13:56:21Z</time>
      </trkpt>
      <trkpt lat="45.71576" lon="4.13545">
        <ele>401.72</ele>
        <time>2018-11-12T13:56:26Z</time>
      </trkpt>
      <trkpt lat="45.7157" lon="4.13549">
        <ele>401.094</ele>
        <time>2018-11-12T13:56:32Z</time>
      </trkpt>
      <trkpt lat="45.71566" lon="4.13552">
        <ele>400.876</ele>
        <time>2018-11-12T13:56:37Z</time>
      </trkpt>
      <trkpt lat="45.71559" lon="4.13556">
        <ele>400.905</ele>
        <time>2018-11-12T13:56:43Z</time>
      </trkpt>
      <trkpt lat="45.71553" lon="4.13559">
        <ele>400.816</ele>
        <time>2018-11-12T13:56:48Z</time>
      </trkpt>
      <trkpt lat="45.71546" lon="4.13561">
        <ele>400.766</ele>
        <time>2018-11-12T13:56:54Z</time>
      </trkpt>
      <trkpt lat="45.71538" lon="4.13567">
        <ele>400.849</ele>
        <time>2018-11-12T13:57:00Z</time>
      </trkpt>
      <trkpt lat="45.71533" lon="4.13571">
        <ele>400.563</ele>
        <time>2018-11-12T13:57:06Z</time>
      </trkpt>
      <trkpt lat="45.71527" lon="4.13573">
        <ele>400.281</ele>
        <time>2018-11-12T13:57:11Z</time>
      </trkpt>
      <trkpt lat="45.7152" lon="4.13575">
        <ele>400.136</ele>
        <time>2018-11-12T13:57:16Z</time>
      </trkpt>
      <trkpt lat="45.71513" lon="4.13575">
        <ele>400.157</ele>
        <time>2018-11-12T13:57:22Z</time>
      </trkpt>
      <trkpt lat="45.71505" lon="4.13575">
        <ele>399.94</ele>
        <time>2018-11-12T13:57:27Z</time>
      </trkpt>
      <trkpt lat="45.71499" lon="4.13578">
        <ele>399.19</ele>
        <time>2018-11-12T13:57:33Z</time>
      </trkpt>
      <trkpt lat="45.71493" lon="4.13578">
        <ele>398.426</ele>
        <time>2018-11-12T13:57:38Z</time>
      </trkpt>
      <trkpt lat="45.71485" lon="4.1358">
        <ele>398.474</ele>
        <time>2018-11-12T13:57:44Z</time>
      </trkpt>
      <trkpt lat="45.71479" lon="4.13581">
        <ele>398.401</ele>
        <time>2018-11-12T13:57:49Z</time>
      </trkpt>
      <trkpt lat="45.71474" lon="4.13583">
        <ele>398.31</ele>
        <time>2018-11-12T13:57:55Z</time>
      </trkpt>
      <trkpt lat="45.71467" lon="4.13584">
        <ele>398.798</ele>
        <time>2018-11-12T13:58:00Z</time>
      </trkpt>
      <trkpt lat="45.71459" lon="4.13586">
        <ele>399.268</ele>
        <time>2018-11-12T13:58:06Z</time>
      </trkpt>
      <trkpt lat="45.71453" lon="4.13589">
        <ele>399.223</ele>
        <time>2018-11-12T13:58:11Z</time>
      </trkpt>
      <trkpt lat="45.71446" lon="4.13591">
        <ele>399.251</ele>
        <time>2018-11-12T13:58:16Z</time>
      </trkpt>
      <trkpt lat="45.71438" lon="4.13593">
        <ele>398.801</ele>
        <time>2018-11-12T13:58:22Z</time>
      </trkpt>
      <trkpt lat="45.71431" lon="4.13593">
        <ele>398.683</ele>
        <time>2018-11-12T13:58:27Z</time>
      </trkpt>
      <trkpt lat="45.71423" lon="4.13594">
        <ele>398.653</ele>
        <time>2018-11-12T13:58:33Z</time>
      </trkpt>
      <trkpt lat="45.71418" lon="4.13595">
        <ele>398.294</ele>
        <time>2018-11-12T13:58:38Z</time>
      </trkpt>
      <trkpt lat="45.71414" lon="4.13596">
        <ele>397.798</ele>
        <time>2018-11-12T13:58:43Z</time>
      </trkpt>
      <trkpt lat="45.71407" lon="4.13597">
        <ele>396.928</ele>
        <time>2018-11-12T13:58:48Z</time>
      </trkpt>
      <trkpt lat="45.714" lon="4.136">
        <ele>396.838</ele>
        <time>2018-11-12T13:58:54Z</time>
      </trkpt>
      <trkpt lat="45.71393" lon="4.13603">
        <ele>396.603</ele>
        <time>2018-11-12T13:58:59Z</time>
      </trkpt>
      <trkpt lat="45.71385" lon="4.13606">
        <ele>396.558</ele>
        <time>2018-11-12T13:59:05Z</time>
      </trkpt>
      <trkpt lat="45.71377" lon="4.13606">
        <ele>396.959</ele>
        <time>2018-11-12T13:59:10Z</time>
      </trkpt>
      <trkpt lat="45.71371" lon="4.13606">
        <ele>396.705</ele>
        <time>2018-11-12T13:59:16Z</time>
      </trkpt>
      <trkpt lat="45.71365" lon="4.13606">
        <ele>395.927</ele>
        <time>2018-11-12T13:59:21Z</time>
      </trkpt>
      <trkpt lat="45.71356" lon="4.13605">
        <ele>395.472</ele>
        <time>2018-11-12T13:59:27Z</time>
      </trkpt>
      <trkpt lat="45.71351" lon="4.13604">
        <ele>395.124</ele>
        <time>2018-11-12T13:59:32Z</time>
      </trkpt>
      <trkpt lat="45.71346" lon="4.13601">
        <ele>394.619</ele>
        <time>2018-11-12T13:59:38Z</time>
      </trkpt>
      <trkpt lat="45.71338" lon="4.13599">
        <ele>395.16</ele>
        <time>2018-11-12T13:59:44Z</time>
      </trkpt>
      <trkpt lat="45.71335" lon="4.13601">
        <ele>395.599</ele>
        <time>2018-11-12T13:59:50Z</time>
      </trkpt>
      <trkpt lat="45.71328" lon="4.13603">
        <ele>395.902</ele>
        <time>2018-11-12T13:59:55Z</time>
      </trkpt>
      <trkpt lat="45.7132" lon="4.13604">
        <ele>395.795</ele>
        <time>2018-11-12T14:00:00Z</time>
      </trkpt>
      <trkpt lat="45.71308" lon="4.13606">
        <ele>395.601</ele>
        <time>2018-11-12T14:00:05Z</time>
      </trkpt>
      <trkpt lat="45.713" lon="4.13605">
        <ele>395.145</ele>
        <time>2018-11-12T14:00:11Z</time>
      </trkpt>
      <trkpt lat="45.71296" lon="4.13604">
        <ele>395.07</ele>
        <time>2018-11-12T14:00:16Z</time>
      </trkpt>
      <trkpt lat="45.7129" lon="4.13602">
        <ele>394.859</ele>
        <time>2018-11-12T14:00:21Z</time>
      </trkpt>
      <trkpt lat="45.71284" lon="4.13603">
        <ele>395.235</ele>
        <time>2018-11-12T14:00:27Z</time>
      </trkpt>
      <trkpt lat="45.71277" lon="4.13601">
        <ele>395.46</ele>
        <time>2018-11-12T14:00:33Z</time>
      </trkpt>
      <trkpt lat="45.7127" lon="4.13602">
        <ele>395.632</ele>
        <time>2018-11-12T14:00:39Z</time>
      </trkpt>
      <trkpt lat="45.71267" lon="4.13602">
        <ele>395.338</ele>
        <time>2018-11-12T14:00:45Z</time>
      </trkpt>
      <trkpt lat="45.71259" lon="4.13603">
        <ele>394.905</ele>
        <time>2018-11-12T14:00:50Z</time>
      </trkpt>
      <trkpt lat="45.71255" lon="4.13605">
        <ele>394.661</ele>
        <time>2018-11-12T14:00:56Z</time>
      </trkpt>
      <trkpt lat="45.71248" lon="4.13602">
        <ele>395.085</ele>
        <time>2018-11-12T14:01:02Z</time>
      </trkpt>
      <trkpt lat="45.71234" lon="4.13599">
        <ele>395.291</ele>
        <time>2018-11-12T14:01:07Z</time>
      </trkpt>
      <trkpt lat="45.71227" lon="4.13598">
        <ele>394.83</ele>
        <time>2018-11-12T14:01:13Z</time>
      </trkpt>
      <trkpt lat="45.71221" lon="4.13601">
        <ele>394.362</ele>
        <time>2018-11-12T14:01:18Z</time>
      </trkpt>
      <trkpt lat="45.71214" lon="4.13603">
        <ele>394.004</ele>
        <time>2018-11-12T14:01:23Z</time>
      </trkpt>
      <trkpt lat="45.71209" lon="4.13601">
        <ele>394.477</ele>
        <time>2018-11-12T14:01:29Z</time>
      </trkpt>
      <trkpt lat="45.71202" lon="4.13601">
        <ele>394.855</ele>
        <time>2018-11-12T14:01:35Z</time>
      </trkpt>
      <trkpt lat="45.71195" lon="4.13599">
        <ele>394.348</ele>
        <time>2018-11-12T14:01:41Z</time>
      </trkpt>
      <trkpt lat="45.71188" lon="4.13597">
        <ele>393.511</ele>
        <time>2018-11-12T14:01:46Z</time>
      </trkpt>
      <trkpt lat="45.71181" lon="4.13596">
        <ele>392.144</ele>
        <time>2018-11-12T14:01:51Z</time>
      </trkpt>
      <trkpt lat="45.71174" lon="4.13597">
        <ele>390.693</ele>
        <time>2018-11-12T14:01:57Z</time>
      </trkpt>
      <trkpt lat="45.71164" lon="4.13596">
        <ele>389.554</ele>
        <time>2018-11-12T14:02:03Z</time>
      </trkpt>
      <trkpt lat="45.71157" lon="4.13596">
        <ele>389.521</ele>
        <time>2018-11-12T14:02:08Z</time>
      </trkpt>
      <trkpt lat="45.71154" lon="4.13595">
        <ele>389.284</ele>
        <time>2018-11-12T14:02:14Z</time>
      </trkpt>
      <trkpt lat="45.71144" lon="4.13595">
        <ele>388.92</ele>
        <time>2018-11-12T14:02:19Z</time>
      </trkpt>
      <trkpt lat="45.71139" lon="4.13595">
        <ele>388.681</ele>
        <time>2018-11-12T14:02:24Z</time>
      </trkpt>
      <trkpt lat="45.71134" lon="4.13594">
        <ele>388.196</ele>
        <time>2018-11-12T14:02:29Z</time>
      </trkpt>
      <trkpt lat="45.71125" lon="4.13594">
        <ele>387.445</ele>
        <time>2018-11-12T14:02:35Z</time>
      </trkpt>
      <trkpt lat="45.71118" lon="4.13593">
        <ele>386.019</ele>
        <time>2018-11-12T14:02:40Z</time>
      </trkpt>
      <trkpt lat="45.71111" lon="4.13593">
        <ele>385.108</ele>
        <time>2018-11-12T14:02:46Z</time>
      </trkpt>
      <trkpt lat="45.71103" lon="4.13592">
        <ele>384.612</ele>
        <time>2018-11-12T14:02:51Z</time>
      </trkpt>
      <trkpt lat="45.71098" lon="4.13591">
        <ele>384.067</ele>
        <time>2018-11-12T14:02:57Z</time>
      </trkpt>
      <trkpt lat="45.71091" lon="4.13593">
        <ele>383.41</ele>
        <time>2018-11-12T14:03:03Z</time>
      </trkpt>
      <trkpt lat="45.71085" lon="4.13591">
        <ele>383.089</ele>
        <time>2018-11-12T14:03:09Z</time>
      </trkpt>
      <trkpt lat="45.71078" lon="4.13591">
        <ele>382.768</ele>
        <time>2018-11-12T14:03:15Z</time>
      </trkpt>
      <trkpt lat="45.71069" lon="4.13587">
        <ele>383.354</ele>
        <time>2018-11-12T14:03:21Z</time>
      </trkpt>
      <trkpt lat="45.71063" lon="4.13586">
        <ele>383.828</ele>
        <time>2018-11-12T14:03:27Z</time>
      </trkpt>
      <trkpt lat="45.71059" lon="4.13586">
        <ele>383.418</ele>
        <time>2018-11-12T14:03:32Z</time>
      </trkpt>
      <trkpt lat="45.71052" lon="4.13587">
        <ele>383.768</ele>
        <time>2018-11-12T14:03:38Z</time>
      </trkpt>
      <trkpt lat="45.71046" lon="4.13591">
        <ele>384.372</ele>
        <time>2018-11-12T14:03:43Z</time>
      </trkpt>
      <trkpt lat="45.71036" lon="4.13596">
        <ele>384.784</ele>
        <time>2018-11-12T14:03:49Z</time>
      </trkpt>
      <trkpt lat="45.7103" lon="4.13596">
        <ele>385.41</ele>
        <time>2018-11-12T14:03:55Z</time>
      </trkpt>
      <trkpt lat="45.71025" lon="4.13595">
        <ele>385.938</ele>
        <time>2018-11-12T14:04:00Z</time>
      </trkpt>
      <trkpt lat="45.71022" lon="4.13593">
        <ele>386.305</ele>
        <time>2018-11-12T14:04:06Z</time>
      </trkpt>
      <trkpt lat="45.7102" lon="4.13595">
        <ele>386.444</ele>
        <time>2018-11-12T14:04:11Z</time>
      </trkpt>
      <trkpt lat="45.71012" lon="4.13597">
        <ele>386.425</ele>
        <time>2018-11-12T14:04:17Z</time>
      </trkpt>
      <trkpt lat="45.71007" lon="4.13596">
        <ele>386.788</ele>
        <time>2018-11-12T14:04:22Z</time>
      </trkpt>
      <trkpt lat="45.71001" lon="4.13598">
        <ele>386.571</ele>
        <time>2018-11-12T14:04:27Z</time>
      </trkpt>
      <trkpt lat="45.70993" lon="4.13598">
        <ele>386.504</ele>
        <time>2018-11-12T14:04:33Z</time>
      </trkpt>
      <trkpt lat="45.70982" lon="4.13593">
        <ele>386.733</ele>
        <time>2018-11-12T14:04:39Z</time>
      </trkpt>
      <trkpt lat="45.70976" lon="4.13591">
        <ele>387.081</ele>
        <time>2018-11-12T14:04:45Z</time>
      </trkpt>
      <trkpt lat="45.70969" lon="4.13585">
        <ele>387.375</ele>
        <time>2018-11-12T14:04:51Z</time>
      </trkpt>
      <trkpt lat="45.70965" lon="4.13581">
        <ele>387.942</ele>
        <time>2018-11-12T14:04:57Z</time>
      </trkpt>
      <trkpt lat="45.7096" lon="4.13578">
        <ele>389.081</ele>
        <time>2018-11-12T14:05:02Z</time>
      </trkpt>
      <trkpt lat="45.70956" lon="4.13574">
        <ele>389.735</ele>
        <time>2018-11-12T14:05:07Z</time>
      </trkpt>
      <trkpt lat="45.7095" lon="4.13566">
        <ele>390.67</ele>
        <time>2018-11-12T14:05:13Z</time>
      </trkpt>
      <trkpt lat="45.70946" lon="4.1356">
        <ele>391.569</ele>
        <time>2018-11-12T14:05:19Z</time>
      </trkpt>
      <trkpt lat="45.7094" lon="4.13555">
        <ele>392.476</ele>
        <time>2018-11-12T14:05:25Z</time>
      </trkpt>
      <trkpt lat="45.70935" lon="4.13553">
        <ele>393.231</ele>
        <time>2018-11-12T14:05:31Z</time>
      </trkpt>
      <trkpt lat="45.70927" lon="4.13548">
        <ele>394.305</ele>
        <time>2018-11-12T14:05:36Z</time>
      </trkpt>
      <trkpt lat="45.70919" lon="4.13543">
        <ele>395.082</ele>
        <time>2018-11-12T14:05:42Z</time>
      </trkpt>
      <trkpt lat="45.70915" lon="4.13539">
        <ele>394.582</ele>
        <time>2018-11-12T14:05:47Z</time>
      </trkpt>
      <trkpt lat="45.70908" lon="4.13533">
        <ele>394.248</ele>
        <time>2018-11-12T14:05:53Z</time>
      </trkpt>
      <trkpt lat="45.70902" lon="4.13529">
        <ele>393.271</ele>
        <time>2018-11-12T14:05:59Z</time>
      </trkpt>
      <trkpt lat="45.70894" lon="4.13525">
        <ele>392.406</ele>
        <time>2018-11-12T14:06:05Z</time>
      </trkpt>
      <trkpt lat="45.70889" lon="4.13523">
        <ele>391.798</ele>
        <time>2018-11-12T14:06:10Z</time>
      </trkpt>
      <trkpt lat="45.70886" lon="4.13521">
        <ele>392.115</ele>
        <time>2018-11-12T14:06:15Z</time>
      </trkpt>
      <trkpt lat="45.70877" lon="4.13516">
        <ele>392.701</ele>
        <time>2018-11-12T14:06:20Z</time>
      </trkpt>
      <trkpt lat="45.70871" lon="4.13513">
        <ele>393.524</ele>
        <time>2018-11-12T14:06:26Z</time>
      </trkpt>
      <trkpt lat="45.70865" lon="4.13508">
        <ele>394.118</ele>
        <time>2018-11-12T14:06:31Z</time>
      </trkpt>
      <trkpt lat="45.70859" lon="4.13504">
        <ele>394.333</ele>
        <time>2018-11-12T14:06:37Z</time>
      </trkpt>
      <trkpt lat="45.70855" lon="4.13502">
        <ele>393.889</ele>
        <time>2018-11-12T14:06:42Z</time>
      </trkpt>
      <trkpt lat="45.70846" lon="4.13499">
        <ele>393.585</ele>
        <time>2018-11-12T14:06:48Z</time>
      </trkpt>
      <trkpt lat="45.70843" lon="4.13497">
        <ele>393.397</ele>
        <time>2018-11-12T14:06:53Z</time>
      </trkpt>
      <trkpt lat="45.70839" lon="4.13495">
        <ele>393.296</ele>
        <time>2018-11-12T14:06:59Z</time>
      </trkpt>
      <trkpt lat="45.70835" lon="4.13494">
        <ele>393.925</ele>
        <time>2018-11-12T14:07:05Z</time>
      </trkpt>
      <trkpt lat="45.7083" lon="4.13493">
        <ele>394.575</ele>
        <time>2018-11-12T14:07:11Z</time>
      </trkpt>
      <trkpt lat="45.70826" lon="4.13491">
        <ele>394.941</ele>
        <time>2018-11-12T14:07:17Z</time>
      </trkpt>
      <trkpt lat="45.70816" lon="4.1349">
        <ele>395.407</ele>
        <time>2018-11-12T14:07:23Z</time>
      </trkpt>
      <trkpt lat="45.70812" lon="4.13488">
        <ele>396.319</ele>
        <time>2018-11-12T14:07:28Z</time>
      </trkpt>
      <trkpt lat="45.70807" lon="4.13487">
        <ele>396.677</ele>
        <time>2018-11-12T14:07:33Z</time>
      </trkpt>
      <trkpt lat="45.70799" lon="4.13486">
        <ele>396.302</ele>
        <time>2018-11-12T14:07:39Z</time>
      </trkpt>
      <trkpt lat="45.70792" lon="4.13483">
        <ele>395.881</ele>
        <time>2018-11-12T14:07:44Z</time>
      </trkpt>
      <trkpt lat="45.70784" lon="4.13481">
        <ele>395.419</ele>
        <time>2018-11-12T14:07:50Z</time>
      </trkpt>
      <trkpt lat="45.70781" lon="4.1348">
        <ele>395.315</ele>
        <time>2018-11-12T14:07:55Z</time>
      </trkpt>
      <trkpt lat="45.70775" lon="4.13479">
        <ele>395.448</ele>
        <time>2018-11-12T14:08:01Z</time>
      </trkpt>
      <trkpt lat="45.70772" lon="4.13477">
        <ele>395.59</ele>
        <time>2018-11-12T14:08:06Z</time>
      </trkpt>
      <trkpt lat="45.70766" lon="4.13475">
        <ele>395.422</ele>
        <time>2018-11-12T14:08:12Z</time>
      </trkpt>
      <trkpt lat="45.70758" lon="4.13472">
        <ele>394.924</ele>
        <time>2018-11-12T14:08:18Z</time>
      </trkpt>
      <trkpt lat="45.70753" lon="4.1347">
        <ele>394.772</ele>
        <time>2018-11-12T14:08:23Z</time>
      </trkpt>
      <trkpt lat="45.70747" lon="4.13469">
        <ele>394.674</ele>
        <time>2018-11-12T14:08:28Z</time>
      </trkpt>
      <trkpt lat="45.70739" lon="4.13467">
        <ele>394.633</ele>
        <time>2018-11-12T14:08:34Z</time>
      </trkpt>
      <trkpt lat="45.70731" lon="4.13465">
        <ele>394.339</ele>
        <time>2018-11-12T14:08:40Z</time>
      </trkpt>
      <trkpt lat="45.70726" lon="4.13464">
        <ele>394.479</ele>
        <time>2018-11-12T14:08:45Z</time>
      </trkpt>
      <trkpt lat="45.70717" lon="4.13463">
        <ele>394.305</ele>
        <time>2018-11-12T14:08:50Z</time>
      </trkpt>
      <trkpt lat="45.70711" lon="4.13461">
        <ele>394.201</ele>
        <time>2018-11-12T14:08:56Z</time>
      </trkpt>
      <trkpt lat="45.70705" lon="4.13459">
        <ele>394.59</ele>
        <time>2018-11-12T14:09:02Z</time>
      </trkpt>
      <trkpt lat="45.70698" lon="4.13456">
        <ele>394.923</ele>
        <time>2018-11-12T14:09:08Z</time>
      </trkpt>
      <trkpt lat="45.70694" lon="4.13453">
        <ele>395.124</ele>
        <time>2018-11-12T14:09:13Z</time>
      </trkpt>
      <trkpt lat="45.70687" lon="4.13449">
        <ele>395.22</ele>
        <time>2018-11-12T14:09:19Z</time>
      </trkpt>
      <trkpt lat="45.70681" lon="4.13448">
        <ele>395.102</ele>
        <time>2018-11-12T14:09:24Z</time>
      </trkpt>
      <trkpt lat="45.70673" lon="4.1345">
        <ele>394.946</ele>
        <time>2018-11-12T14:09:30Z</time>
      </trkpt>
      <trkpt lat="45.70667" lon="4.13452">
        <ele>394.926</ele>
        <time>2018-11-12T14:09:35Z</time>
      </trkpt>
      <trkpt lat="45.70661" lon="4.13453">
        <ele>394.939</ele>
        <time>2018-11-12T14:09:41Z</time>
      </trkpt>
      <trkpt lat="45.70656" lon="4.13455">
        <ele>394.576</ele>
        <time>2018-11-12T14:09:47Z</time>
      </trkpt>
      <trkpt lat="45.70647" lon="4.13458">
        <ele>394.062</ele>
        <time>2018-11-12T14:09:53Z</time>
      </trkpt>
      <trkpt lat="45.70644" lon="4.13459">
        <ele>394.244</ele>
        <time>2018-11-12T14:09:58Z</time>
      </trkpt>
      <trkpt lat="45.70639" lon="4.1346">
        <ele>394.925</ele>
        <time>2018-11-12T14:10:04Z</time>
      </trkpt>
      <trkpt lat="45.70636" lon="4.1346">
        <ele>395.297</ele>
        <time>2018-11-12T14:10:09Z</time>
      </trkpt>
      <trkpt lat="45.70635" lon="4.1346">
        <ele>395.785</ele>
        <time>2018-11-12T14:10:15Z</time>
      </trkpt>
      <trkpt lat="45.70634" lon="4.13464">
        <ele>395.61</ele>
        <time>2018-11-12T14:10:20Z</time>
      </trkpt>
      <trkpt lat="45.70637" lon="4.13461">
        <ele>395.426</ele>
        <time>2018-11-12T14:10:26Z</time>
      </trkpt>
      <trkpt lat="45.70639" lon="4.13458">
        <ele>395.167</ele>
        <time>2018-11-12T14:10:31Z</time>
      </trkpt>
      <trkpt lat="45.70639" lon="4.13457">
        <ele>394.463</ele>
        <time>2018-11-12T14:10:37Z</time>
      </trkpt>
      <trkpt lat="45.70637" lon="4.13457">
        <ele>394.217</ele>
        <time>2018-11-12T14:10:42Z</time>
      </trkpt>
      <trkpt lat="45.70636" lon="4.13458">
        <ele>394.941</ele>
        <time>2018-11-12T14:10:48Z</time>
      </trkpt>
      <trkpt lat="45.70636" lon="4.13458">
        <ele>395.743</ele>
        <time>2018-11-12T14:10:53Z</time>
      </trkpt>
      <trkpt lat="45.70635" lon="4.13455">
        <ele>397.722</ele>
        <time>2018-11-12T14:10:58Z</time>
      </trkpt>
      <trkpt lat="45.70634" lon="4.13453">
        <ele>398.436</ele>
        <time>2018-11-12T14:11:04Z</time>
      </trkpt>
      <trkpt lat="45.70634" lon="4.13454">
        <ele>398.363</ele>
        <time>2018-11-12T14:11:09Z</time>
      </trkpt>
      <trkpt lat="45.70636" lon="4.13461">
        <ele>398.287</ele>
        <time>2018-11-12T14:11:15Z</time>
      </trkpt>
      <trkpt lat="45.70634" lon="4.13463">
        <ele>398.234</ele>
        <time>2018-11-12T14:11:21Z</time>
      </trkpt>
      <trkpt lat="45.70632" lon="4.13461">
        <ele>397.738</ele>
        <time>2018-11-12T14:11:26Z</time>
      </trkpt>
      <trkpt lat="45.70631" lon="4.13461">
        <ele>396.933</ele>
        <time>2018-11-12T14:11:31Z</time>
      </trkpt>
      <trkpt lat="45.70631" lon="4.13459">
        <ele>396.535</ele>
        <time>2018-11-12T14:11:37Z</time>
      </trkpt>
      <trkpt lat="45.7063" lon="4.13458">
        <ele>396.055</ele>
        <time>2018-11-12T14:11:42Z</time>
      </trkpt>
      <trkpt lat="45.7063" lon="4.13458">
        <ele>395.537</ele>
        <time>2018-11-12T14:11:48Z</time>
      </trkpt>
      <trkpt lat="45.70631" lon="4.13456">
        <ele>394.981</ele>
        <time>2018-11-12T14:11:54Z</time>
      </trkpt>
      <trkpt lat="45.70632" lon="4.13455">
        <ele>394.751</ele>
        <time>2018-11-12T14:12:00Z</time>
      </trkpt>
      <trkpt lat="45.70632" lon="4.13456">
        <ele>394.569</ele>
        <time>2018-11-12T14:12:06Z</time>
      </trkpt>
      <trkpt lat="45.70634" lon="4.13457">
        <ele>394.047</ele>
        <time>2018-11-12T14:12:12Z</time>
      </trkpt>
      <trkpt lat="45.70637" lon="4.13455">
        <ele>393.623</ele>
        <time>2018-11-12T14:12:18Z</time>
      </trkpt>
      <trkpt lat="45.70638" lon="4.13456">
        <ele>393.605</ele>
        <time>2018-11-12T14:12:23Z</time>
      </trkpt>
      <trkpt lat="45.70637" lon="4.13463">
        <ele>393.396</ele>
        <time>2018-11-12T14:12:29Z</time>
      </trkpt>
      <trkpt lat="45.70638" lon="4.13469">
        <ele>393.397</ele>
        <time>2018-11-12T14:12:34Z</time>
      </trkpt>
      <trkpt lat="45.7064" lon="4.13473">
        <ele>393.613</ele>
        <time>2018-11-12T14:12:40Z</time>
      </trkpt>
      <trkpt lat="45.7064" lon="4.13475">
        <ele>393.98</ele>
        <time>2018-11-12T14:12:45Z</time>
      </trkpt>
      <trkpt lat="45.70638" lon="4.13473">
        <ele>394.52</ele>
        <time>2018-11-12T14:12:51Z</time>
      </trkpt>
      <trkpt lat="45.70636" lon="4.13473">
        <ele>394.505</ele>
        <time>2018-11-12T14:12:56Z</time>
      </trkpt>
      <trkpt lat="45.70637" lon="4.13473">
        <ele>394.418</ele>
        <time>2018-11-12T14:13:02Z</time>
      </trkpt>
      <trkpt lat="45.70636" lon="4.13473">
        <ele>394.232</ele>
        <time>2018-11-12T14:13:07Z</time>
      </trkpt>
      <trkpt lat="45.70636" lon="4.13473">
        <ele>394.075</ele>
        <time>2018-11-12T14:13:12Z</time>
      </trkpt>
      <trkpt lat="45.70637" lon="4.13475">
        <ele>394</ele>
        <time>2018-11-12T14:13:18Z</time>
      </trkpt>
      <trkpt lat="45.70638" lon="4.13475">
        <ele>392.843</ele>
        <time>2018-11-12T14:13:24Z</time>
      </trkpt>
      <trkpt lat="45.70639" lon="4.1348">
        <ele>391.674</ele>
        <time>2018-11-12T14:13:29Z</time>
      </trkpt>
      <trkpt lat="45.70642" lon="4.13488">
        <ele>390.817</ele>
        <time>2018-11-12T14:13:34Z</time>
      </trkpt>
      <trkpt lat="45.70645" lon="4.13494">
        <ele>391.021</ele>
        <time>2018-11-12T14:13:40Z</time>
      </trkpt>
      <trkpt lat="45.70647" lon="4.13502">
        <ele>391.257</ele>
        <time>2018-11-12T14:13:46Z</time>
      </trkpt>
      <trkpt lat="45.70648" lon="4.13508">
        <ele>391.949</ele>
        <time>2018-11-12T14:13:51Z</time>
      </trkpt>
      <trkpt lat="45.70649" lon="4.13517">
        <ele>393.051</ele>
        <time>2018-11-12T14:13:56Z</time>
      </trkpt>
      <trkpt lat="45.7065" lon="4.13525">
        <ele>393.756</ele>
        <time>2018-11-12T14:14:02Z</time>
      </trkpt>
      <trkpt lat="45.70652" lon="4.13533">
        <ele>394.374</ele>
        <time>2018-11-12T14:14:08Z</time>
      </trkpt>
      <trkpt lat="45.70654" lon="4.1354">
        <ele>394.356</ele>
        <time>2018-11-12T14:14:13Z</time>
      </trkpt>
      <trkpt lat="45.70657" lon="4.13549">
        <ele>394.364</ele>
        <time>2018-11-12T14:14:19Z</time>
      </trkpt>
      <trkpt lat="45.70657" lon="4.13557">
        <ele>394.219</ele>
        <time>2018-11-12T14:14:24Z</time>
      </trkpt>
      <trkpt lat="45.7066" lon="4.1357">
        <ele>394.361</ele>
        <time>2018-11-12T14:14:30Z</time>
      </trkpt>
      <trkpt lat="45.70661" lon="4.13578">
        <ele>394.741</ele>
        <time>2018-11-12T14:14:36Z</time>
      </trkpt>
      <trkpt lat="45.70662" lon="4.13587">
        <ele>394.854</ele>
        <time>2018-11-12T14:14:41Z</time>
      </trkpt>
      <trkpt lat="45.70664" lon="4.13595">
        <ele>394.503</ele>
        <time>2018-11-12T14:14:46Z</time>
      </trkpt>
      <trkpt lat="45.70666" lon="4.13603">
        <ele>393.788</ele>
        <time>2018-11-12T14:14:52Z</time>
      </trkpt>
      <trkpt lat="45.70667" lon="4.13609">
        <ele>393.377</ele>
        <time>2018-11-12T14:14:57Z</time>
      </trkpt>
      <trkpt lat="45.70668" lon="4.13618">
        <ele>392.707</ele>
        <time>2018-11-12T14:15:03Z</time>
      </trkpt>
      <trkpt lat="45.70672" lon="4.13628">
        <ele>392.192</ele>
        <time>2018-11-12T14:15:09Z</time>
      </trkpt>
      <trkpt lat="45.70673" lon="4.13637">
        <ele>391.598</ele>
        <time>2018-11-12T14:15:14Z</time>
      </trkpt>
      <trkpt lat="45.70674" lon="4.13649">
        <ele>391.335</ele>
        <time>2018-11-12T14:15:20Z</time>
      </trkpt>
      <trkpt lat="45.70676" lon="4.13654">
        <ele>391.967</ele>
        <time>2018-11-12T14:15:26Z</time>
      </trkpt>
      <trkpt lat="45.70678" lon="4.13664">
        <ele>392.197</ele>
        <time>2018-11-12T14:15:32Z</time>
      </trkpt>
      <trkpt lat="45.70678" lon="4.13674">
        <ele>392.278</ele>
        <time>2018-11-12T14:15:37Z</time>
      </trkpt>
      <trkpt lat="45.70679" lon="4.13685">
        <ele>392.296</ele>
        <time>2018-11-12T14:15:43Z</time>
      </trkpt>
      <trkpt lat="45.70679" lon="4.13693">
        <ele>392.629</ele>
        <time>2018-11-12T14:15:48Z</time>
      </trkpt>
      <trkpt lat="45.70681" lon="4.13699">
        <ele>392.985</ele>
        <time>2018-11-12T14:15:53Z</time>
      </trkpt>
      <trkpt lat="45.70682" lon="4.13708">
        <ele>393.199</ele>
        <time>2018-11-12T14:15:59Z</time>
      </trkpt>
      <trkpt lat="45.70682" lon="4.13718">
        <ele>393.13</ele>
        <time>2018-11-12T14:16:04Z</time>
      </trkpt>
      <trkpt lat="45.70684" lon="4.13729">
        <ele>392.942</ele>
        <time>2018-11-12T14:16:10Z</time>
      </trkpt>
      <trkpt lat="45.70686" lon="4.13738">
        <ele>392.37</ele>
        <time>2018-11-12T14:16:16Z</time>
      </trkpt>
      <trkpt lat="45.70687" lon="4.13745">
        <ele>392.151</ele>
        <time>2018-11-12T14:16:21Z</time>
      </trkpt>
      <trkpt lat="45.70689" lon="4.13756">
        <ele>392.558</ele>
        <time>2018-11-12T14:16:27Z</time>
      </trkpt>
      <trkpt lat="45.70691" lon="4.13766">
        <ele>393.172</ele>
        <time>2018-11-12T14:16:33Z</time>
      </trkpt>
      <trkpt lat="45.70694" lon="4.13775">
        <ele>393.91</ele>
        <time>2018-11-12T14:16:39Z</time>
      </trkpt>
      <trkpt lat="45.70695" lon="4.13787">
        <ele>394.444</ele>
        <time>2018-11-12T14:16:45Z</time>
      </trkpt>
      <trkpt lat="45.70696" lon="4.13796">
        <ele>395.056</ele>
        <time>2018-11-12T14:16:51Z</time>
      </trkpt>
      <trkpt lat="45.70695" lon="4.13807">
        <ele>395.211</ele>
        <time>2018-11-12T14:16:57Z</time>
      </trkpt>
      <trkpt lat="45.70696" lon="4.13816">
        <ele>394.42</ele>
        <time>2018-11-12T14:17:03Z</time>
      </trkpt>
      <trkpt lat="45.70701" lon="4.13829">
        <ele>394.296</ele>
        <time>2018-11-12T14:17:09Z</time>
      </trkpt>
      <trkpt lat="45.70704" lon="4.13833">
        <ele>394.456</ele>
        <time>2018-11-12T14:17:14Z</time>
      </trkpt>
      <trkpt lat="45.70705" lon="4.1384">
        <ele>394.564</ele>
        <time>2018-11-12T14:17:19Z</time>
      </trkpt>
      <trkpt lat="45.70707" lon="4.1385">
        <ele>394.354</ele>
        <time>2018-11-12T14:17:24Z</time>
      </trkpt>
      <trkpt lat="45.70707" lon="4.13858">
        <ele>394.441</ele>
        <time>2018-11-12T14:17:30Z</time>
      </trkpt>
      <trkpt lat="45.70709" lon="4.13867">
        <ele>394.236</ele>
        <time>2018-11-12T14:17:36Z</time>
      </trkpt>
      <trkpt lat="45.70712" lon="4.13878">
        <ele>393.937</ele>
        <time>2018-11-12T14:17:41Z</time>
      </trkpt>
      <trkpt lat="45.70715" lon="4.13887">
        <ele>393.392</ele>
        <time>2018-11-12T14:17:46Z</time>
      </trkpt>
      <trkpt lat="45.70718" lon="4.13895">
        <ele>392.906</ele>
        <time>2018-11-12T14:17:52Z</time>
      </trkpt>
      <trkpt lat="45.70722" lon="4.13898">
        <ele>392.043</ele>
        <time>2018-11-12T14:17:58Z</time>
      </trkpt>
      <trkpt lat="45.70723" lon="4.13909">
        <ele>392.097</ele>
        <time>2018-11-12T14:18:03Z</time>
      </trkpt>
      <trkpt lat="45.70724" lon="4.13918">
        <ele>392.688</ele>
        <time>2018-11-12T14:18:08Z</time>
      </trkpt>
      <trkpt lat="45.70727" lon="4.13924">
        <ele>393.232</ele>
        <time>2018-11-12T14:18:14Z</time>
      </trkpt>
      <trkpt lat="45.70731" lon="4.13931">
        <ele>393.325</ele>
        <time>2018-11-12T14:18:20Z</time>
      </trkpt>
      <trkpt lat="45.70733" lon="4.13935">
        <ele>393.605</ele>
        <time>2018-11-12T14:18:25Z</time>
      </trkpt>
      <trkpt lat="45.70736" lon="4.1394">
        <ele>393.797</ele>
        <time>2018-11-12T14:18:31Z</time>
      </trkpt>
      <trkpt lat="45.70736" lon="4.13944">
        <ele>393.865</ele>
        <time>2018-11-12T14:18:36Z</time>
      </trkpt>
      <trkpt lat="45.70739" lon="4.1395">
        <ele>394.088</ele>
        <time>2018-11-12T14:18:42Z</time>
      </trkpt>
      <trkpt lat="45.70741" lon="4.13955">
        <ele>394.379</ele>
        <time>2018-11-12T14:18:47Z</time>
      </trkpt>
      <trkpt lat="45.70745" lon="4.13961">
        <ele>394.763</ele>
        <time>2018-11-12T14:18:53Z</time>
      </trkpt>
      <trkpt lat="45.70747" lon="4.13966">
        <ele>395.173</ele>
        <time>2018-11-12T14:18:58Z</time>
      </trkpt>
      <trkpt lat="45.70751" lon="4.13974">
        <ele>395.449</ele>
        <time>2018-11-12T14:19:04Z</time>
      </trkpt>
      <trkpt lat="45.70755" lon="4.13982">
        <ele>395.632</ele>
        <time>2018-11-12T14:19:10Z</time>
      </trkpt>
      <trkpt lat="45.70759" lon="4.13989">
        <ele>395.83</ele>
        <time>2018-11-12T14:19:16Z</time>
      </trkpt>
      <trkpt lat="45.70763" lon="4.13999">
        <ele>396.036</ele>
        <time>2018-11-12T14:19:22Z</time>
      </trkpt>
      <trkpt lat="45.70766" lon="4.14005">
        <ele>396.161</ele>
        <time>2018-11-12T14:19:27Z</time>
      </trkpt>
      <trkpt lat="45.70768" lon="4.14011">
        <ele>396.072</ele>
        <time>2018-11-12T14:19:33Z</time>
      </trkpt>
      <trkpt lat="45.70771" lon="4.14017">
        <ele>395.918</ele>
        <time>2018-11-12T14:19:38Z</time>
      </trkpt>
      <trkpt lat="45.70773" lon="4.14023">
        <ele>395.908</ele>
        <time>2018-11-12T14:19:43Z</time>
      </trkpt>
      <trkpt lat="45.70777" lon="4.14031">
        <ele>395.686</ele>
        <time>2018-11-12T14:19:49Z</time>
      </trkpt>
      <trkpt lat="45.70781" lon="4.14038">
        <ele>395.692</ele>
        <time>2018-11-12T14:19:54Z</time>
      </trkpt>
      <trkpt lat="45.70786" lon="4.14047">
        <ele>395.921</ele>
        <time>2018-11-12T14:20:00Z</time>
      </trkpt>
      <trkpt lat="45.7079" lon="4.14056">
        <ele>396.062</ele>
        <time>2018-11-12T14:20:05Z</time>
      </trkpt>
      <trkpt lat="45.70793" lon="4.1406">
        <ele>396.372</ele>
        <time>2018-11-12T14:20:10Z</time>
      </trkpt>
      <trkpt lat="45.70796" lon="4.14067">
        <ele>396.851</ele>
        <time>2018-11-12T14:20:15Z</time>
      </trkpt>
      <trkpt lat="45.70799" lon="4.14075">
        <ele>396.921</ele>
        <time>2018-11-12T14:20:20Z</time>
      </trkpt>
      <trkpt lat="45.70801" lon="4.14084">
        <ele>396.792</ele>
        <time>2018-11-12T14:20:26Z</time>
      </trkpt>
      <trkpt lat="45.70805" lon="4.14094">
        <ele>396.699</ele>
        <time>2018-11-12T14:20:32Z</time>
      </trkpt>
      <trkpt lat="45.70809" lon="4.141">
        <ele>396.382</ele>
        <time>2018-11-12T14:20:38Z</time>
      </trkpt>
      <trkpt lat="45.70813" lon="4.14109">
        <ele>396.28</ele>
        <time>2018-11-12T14:20:44Z</time>
      </trkpt>
      <trkpt lat="45.70816" lon="4.14116">
        <ele>395.966</ele>
        <time>2018-11-12T14:20:49Z</time>
      </trkpt>
      <trkpt lat="45.7082" lon="4.14124">
        <ele>395.816</ele>
        <time>2018-11-12T14:20:55Z</time>
      </trkpt>
      <trkpt lat="45.70824" lon="4.14133">
        <ele>395.227</ele>
        <time>2018-11-12T14:21:01Z</time>
      </trkpt>
      <trkpt lat="45.70828" lon="4.14143">
        <ele>394.743</ele>
        <time>2018-11-12T14:21:07Z</time>
      </trkpt>
      <trkpt lat="45.7083" lon="4.14147">
        <ele>394.818</ele>
        <time>2018-11-12T14:21:12Z</time>
      </trkpt>
      <trkpt lat="45.70831" lon="4.14154">
        <ele>395.246</ele>
        <time>2018-11-12T14:21:18Z</time>
      </trkpt>
      <trkpt lat="45.70833" lon="4.14165">
        <ele>395.824</ele>
        <time>2018-11-12T14:21:24Z</time>
      </trkpt>
      <trkpt lat="45.70835" lon="4.14174">
        <ele>396.9</ele>
        <time>2018-11-12T14:21:30Z</time>
      </trkpt>
      <trkpt lat="45.70837" lon="4.14181">
        <ele>397.684</ele>
        <time>2018-11-12T14:21:36Z</time>
      </trkpt>
      <trkpt lat="45.70842" lon="4.14191">
        <ele>398.682</ele>
        <time>2018-11-12T14:21:42Z</time>
      </trkpt>
      <trkpt lat="45.70846" lon="4.14202">
        <ele>399.229</ele>
        <time>2018-11-12T14:21:48Z</time>
      </trkpt>
      <trkpt lat="45.70853" lon="4.14214">
        <ele>399.18</ele>
        <time>2018-11-12T14:21:54Z</time>
      </trkpt>
      <trkpt lat="45.70856" lon="4.14218">
        <ele>399.428</ele>
        <time>2018-11-12T14:21:59Z</time>
      </trkpt>
      <trkpt lat="45.70859" lon="4.14223">
        <ele>399.944</ele>
        <time>2018-11-12T14:22:05Z</time>
      </trkpt>
      <trkpt lat="45.70863" lon="4.14234">
        <ele>400.513</ele>
        <time>2018-11-12T14:22:11Z</time>
      </trkpt>
      <trkpt lat="45.70866" lon="4.14239">
        <ele>400.942</ele>
        <time>2018-11-12T14:22:16Z</time>
      </trkpt>
      <trkpt lat="45.70868" lon="4.14243">
        <ele>401.436</ele>
        <time>2018-11-12T14:22:22Z</time>
      </trkpt>
      <trkpt lat="45.70871" lon="4.14249">
        <ele>401.598</ele>
        <time>2018-11-12T14:22:27Z</time>
      </trkpt>
      <trkpt lat="45.70872" lon="4.14253">
        <ele>401.374</ele>
        <time>2018-11-12T14:22:33Z</time>
      </trkpt>
      <trkpt lat="45.70873" lon="4.14252">
        <ele>400.895</ele>
        <time>2018-11-12T14:22:39Z</time>
      </trkpt>
      <trkpt lat="45.70876" lon="4.14255">
        <ele>400.426</ele>
        <time>2018-11-12T14:22:44Z</time>
      </trkpt>
      <trkpt lat="45.70882" lon="4.1426">
        <ele>400.522</ele>
        <time>2018-11-12T14:22:50Z</time>
      </trkpt>
      <trkpt lat="45.70885" lon="4.14265">
        <ele>400.73</ele>
        <time>2018-11-12T14:22:56Z</time>
      </trkpt>
      <trkpt lat="45.70887" lon="4.14271">
        <ele>401.345</ele>
        <time>2018-11-12T14:23:01Z</time>
      </trkpt>
      <trkpt lat="45.70886" lon="4.14273">
        <ele>401.878</ele>
        <time>2018-11-12T14:23:07Z</time>
      </trkpt>
      <trkpt lat="45.70885" lon="4.14276">
        <ele>401.619</ele>
        <time>2018-11-12T14:23:13Z</time>
      </trkpt>
      <trkpt lat="45.70886" lon="4.1428">
        <ele>401.642</ele>
        <time>2018-11-12T14:23:18Z</time>
      </trkpt>
      <trkpt lat="45.70891" lon="4.14284">
        <ele>401.652</ele>
        <time>2018-11-12T14:23:23Z</time>
      </trkpt>
      <trkpt lat="45.70899" lon="4.14291">
        <ele>401.535</ele>
        <time>2018-11-12T14:23:29Z</time>
      </trkpt>
      <trkpt lat="45.70901" lon="4.14297">
        <ele>401.519</ele>
        <time>2018-11-12T14:23:34Z</time>
      </trkpt>
      <trkpt lat="45.70906" lon="4.14303">
        <ele>401.661</ele>
        <time>2018-11-12T14:23:40Z</time>
      </trkpt>
      <trkpt lat="45.70908" lon="4.14307">
        <ele>401.515</ele>
        <time>2018-11-12T14:23:45Z</time>
      </trkpt>
      <trkpt lat="45.70916" lon="4.14315">
        <ele>401.461</ele>
        <time>2018-11-12T14:23:51Z</time>
      </trkpt>
      <trkpt lat="45.70922" lon="4.1432">
        <ele>401.679</ele>
        <time>2018-11-12T14:23:56Z</time>
      </trkpt>
      <trkpt lat="45.70926" lon="4.14323">
        <ele>402.008</ele>
        <time>2018-11-12T14:24:02Z</time>
      </trkpt>
      <trkpt lat="45.70931" lon="4.14326">
        <ele>401.957</ele>
        <time>2018-11-12T14:24:07Z</time>
      </trkpt>
      <trkpt lat="45.70938" lon="4.14331">
        <ele>401.939</ele>
        <time>2018-11-12T14:24:13Z</time>
      </trkpt>
      <trkpt lat="45.70942" lon="4.14337">
        <ele>401.906</ele>
        <time>2018-11-12T14:24:18Z</time>
      </trkpt>
      <trkpt lat="45.70948" lon="4.14343">
        <ele>401.915</ele>
        <time>2018-11-12T14:24:24Z</time>
      </trkpt>
      <trkpt lat="45.70953" lon="4.14346">
        <ele>401.706</ele>
        <time>2018-11-12T14:24:29Z</time>
      </trkpt>
      <trkpt lat="45.70957" lon="4.14352">
        <ele>401.513</ele>
        <time>2018-11-12T14:24:34Z</time>
      </trkpt>
      <trkpt lat="45.70964" lon="4.14358">
        <ele>401.218</ele>
        <time>2018-11-12T14:24:40Z</time>
      </trkpt>
      <trkpt lat="45.70969" lon="4.1436">
        <ele>401.087</ele>
        <time>2018-11-12T14:24:46Z</time>
      </trkpt>
      <trkpt lat="45.70976" lon="4.14364">
        <ele>400.981</ele>
        <time>2018-11-12T14:24:51Z</time>
      </trkpt>
      <trkpt lat="45.70981" lon="4.14368">
        <ele>401.248</ele>
        <time>2018-11-12T14:24:57Z</time>
      </trkpt>
      <trkpt lat="45.70987" lon="4.14372">
        <ele>401.813</ele>
        <time>2018-11-12T14:25:03Z</time>
      </trkpt>
      <trkpt lat="45.70991" lon="4.14377">
        <ele>401.693</ele>
        <time>2018-11-12T14:25:08Z</time>
      </trkpt>
      <trkpt lat="45.70999" lon="4.14384">
        <ele>401.308</ele>
        <time>2018-11-12T14:25:14Z</time>
      </trkpt>
      <trkpt lat="45.71006" lon="4.1439">
        <ele>401.187</ele>
        <time>2018-11-12T14:25:20Z</time>
      </trkpt>
      <trkpt lat="45.71011" lon="4.14392">
        <ele>401.7</ele>
        <time>2018-11-12T14:25:26Z</time>
      </trkpt>
      <trkpt lat="45.71017" lon="4.14396">
        <ele>401.81</ele>
        <time>2018-11-12T14:25:32Z</time>
      </trkpt>
      <trkpt lat="45.71023" lon="4.144">
        <ele>401.882</ele>
        <time>2018-11-12T14:25:37Z</time>
      </trkpt>
      <trkpt lat="45.71028" lon="4.14406">
        <ele>402.338</ele>
        <time>2018-11-12T14:25:43Z</time>
      </trkpt>
      <trkpt lat="45.71034" lon="4.14411">
        <ele>402.235</ele>
        <time>2018-11-12T14:25:49Z</time>
      </trkpt>
      <trkpt lat="45.71041" lon="4.14416">
        <ele>401.728</ele>
        <time>2018-11-12T14:25:55Z</time>
      </trkpt>
      <trkpt lat="45.71047" lon="4.14424">
        <ele>401.174</ele>
        <time>2018-11-12T14:26:01Z</time>
      </trkpt>
      <trkpt lat="45.71052" lon="4.1443">
        <ele>401.216</ele>
        <time>2018-11-12T14:26:06Z</time>
      </trkpt>
      <trkpt lat="45.71055" lon="4.14436">
        <ele>401.635</ele>
        <time>2018-11-12T14:26:12Z</time>
      </trkpt>
      <trkpt lat="45.71061" lon="4.14442">
        <ele>402.43</ele>
        <time>2018-11-12T14:26:18Z</time>
      </trkpt>
      <trkpt lat="45.71068" lon="4.14444">
        <ele>402.96</ele>
        <time>2018-11-12T14:26:24Z</time>
      </trkpt>
      <trkpt lat="45.71074" lon="4.14447">
        <ele>402.547</ele>
        <time>2018-11-12T14:26:29Z</time>
      </trkpt>
      <trkpt lat="45.7108" lon="4.14453">
        <ele>402.653</ele>
        <time>2018-11-12T14:26:34Z</time>
      </trkpt>
      <trkpt lat="45.71086" lon="4.14459">
        <ele>402.218</ele>
        <time>2018-11-12T14:26:40Z</time>
      </trkpt>
      <trkpt lat="45.7109" lon="4.14461">
        <ele>401.919</ele>
        <time>2018-11-12T14:26:45Z</time>
      </trkpt>
      <trkpt lat="45.71098" lon="4.14467">
        <ele>401.85</ele>
        <time>2018-11-12T14:26:51Z</time>
      </trkpt>
      <trkpt lat="45.711" lon="4.14472">
        <ele>401.501</ele>
        <time>2018-11-12T14:26:57Z</time>
      </trkpt>
      <trkpt lat="45.71108" lon="4.14475">
        <ele>401.838</ele>
        <time>2018-11-12T14:27:03Z</time>
      </trkpt>
      <trkpt lat="45.71116" lon="4.14479">
        <ele>401.738</ele>
        <time>2018-11-12T14:27:09Z</time>
      </trkpt>
      <trkpt lat="45.71123" lon="4.14484">
        <ele>401.863</ele>
        <time>2018-11-12T14:27:15Z</time>
      </trkpt>
      <trkpt lat="45.71127" lon="4.14486">
        <ele>401.5</ele>
        <time>2018-11-12T14:27:20Z</time>
      </trkpt>
      <trkpt lat="45.71131" lon="4.14488">
        <ele>401.132</ele>
        <time>2018-11-12T14:27:26Z</time>
      </trkpt>
      <trkpt lat="45.71139" lon="4.14491">
        <ele>401.114</ele>
        <time>2018-11-12T14:27:32Z</time>
      </trkpt>
      <trkpt lat="45.71145" lon="4.14494">
        <ele>401.33</ele>
        <time>2018-11-12T14:27:37Z</time>
      </trkpt>
      <trkpt lat="45.71151" lon="4.145">
        <ele>402.016</ele>
        <time>2018-11-12T14:27:43Z</time>
      </trkpt>
      <trkpt lat="45.71156" lon="4.14502">
        <ele>402.243</ele>
        <time>2018-11-12T14:27:48Z</time>
      </trkpt>
      <trkpt lat="45.71164" lon="4.14506">
        <ele>402.459</ele>
        <time>2018-11-12T14:27:54Z</time>
      </trkpt>
      <trkpt lat="45.7117" lon="4.1451">
        <ele>402.973</ele>
        <time>2018-11-12T14:28:00Z</time>
      </trkpt>
      <trkpt lat="45.71174" lon="4.14513">
        <ele>403.07</ele>
        <time>2018-11-12T14:28:05Z</time>
      </trkpt>
      <trkpt lat="45.71181" lon="4.14517">
        <ele>403.463</ele>
        <time>2018-11-12T14:28:11Z</time>
      </trkpt>
      <trkpt lat="45.71184" lon="4.14522">
        <ele>403.638</ele>
        <time>2018-11-12T14:28:16Z</time>
      </trkpt>
      <trkpt lat="45.71189" lon="4.14523">
        <ele>403.618</ele>
        <time>2018-11-12T14:28:21Z</time>
      </trkpt>
      <trkpt lat="45.71199" lon="4.1453">
        <ele>403.289</ele>
        <time>2018-11-12T14:28:27Z</time>
      </trkpt>
      <trkpt lat="45.71204" lon="4.14534">
        <ele>403.476</ele>
        <time>2018-11-12T14:28:33Z</time>
      </trkpt>
      <trkpt lat="45.71209" lon="4.14538">
        <ele>402.892</ele>
        <time>2018-11-12T14:28:38Z</time>
      </trkpt>
      <trkpt lat="45.71215" lon="4.14543">
        <ele>402.32</ele>
        <time>2018-11-12T14:28:44Z</time>
      </trkpt>
      <trkpt lat="45.7122" lon="4.14549">
        <ele>401.802</ele>
        <time>2018-11-12T14:28:49Z</time>
      </trkpt>
      <trkpt lat="45.71227" lon="4.14556">
        <ele>401.77</ele>
        <time>2018-11-12T14:28:55Z</time>
      </trkpt>
      <trkpt lat="45.71234" lon="4.1456">
        <ele>401.945</ele>
        <time>2018-11-12T14:29:01Z</time>
      </trkpt>
      <trkpt lat="45.71239" lon="4.14564">
        <ele>402.164</ele>
        <time>2018-11-12T14:29:07Z</time>
      </trkpt>
      <trkpt lat="45.71244" lon="4.1457">
        <ele>402.049</ele>
        <time>2018-11-12T14:29:12Z</time>
      </trkpt>
      <trkpt lat="45.71253" lon="4.14574">
        <ele>402.125</ele>
        <time>2018-11-12T14:29:17Z</time>
      </trkpt>
      <trkpt lat="45.71256" lon="4.14581">
        <ele>402.158</ele>
        <time>2018-11-12T14:29:23Z</time>
      </trkpt>
      <trkpt lat="45.71263" lon="4.14587">
        <ele>402.011</ele>
        <time>2018-11-12T14:29:29Z</time>
      </trkpt>
      <trkpt lat="45.71268" lon="4.14595">
        <ele>401.959</ele>
        <time>2018-11-12T14:29:35Z</time>
      </trkpt>
      <trkpt lat="45.71274" lon="4.14602">
        <ele>401.948</ele>
        <time>2018-11-12T14:29:41Z</time>
      </trkpt>
      <trkpt lat="45.71279" lon="4.14609">
        <ele>401.881</ele>
        <time>2018-11-12T14:29:47Z</time>
      </trkpt>
      <trkpt lat="45.71282" lon="4.14616">
        <ele>401.799</ele>
        <time>2018-11-12T14:29:52Z</time>
      </trkpt>
      <trkpt lat="45.71286" lon="4.14624">
        <ele>402.156</ele>
        <time>2018-11-12T14:29:57Z</time>
      </trkpt>
      <trkpt lat="45.71292" lon="4.14634">
        <ele>402.555</ele>
        <time>2018-11-12T14:30:03Z</time>
      </trkpt>
      <trkpt lat="45.71297" lon="4.14642">
        <ele>402.87</ele>
        <time>2018-11-12T14:30:09Z</time>
      </trkpt>
      <trkpt lat="45.71303" lon="4.1465">
        <ele>403.188</ele>
        <time>2018-11-12T14:30:15Z</time>
      </trkpt>
      <trkpt lat="45.71308" lon="4.14657">
        <ele>403.604</ele>
        <time>2018-11-12T14:30:20Z</time>
      </trkpt>
      <trkpt lat="45.71311" lon="4.14663">
        <ele>403.819</ele>
        <time>2018-11-12T14:30:25Z</time>
      </trkpt>
      <trkpt lat="45.71316" lon="4.14669">
        <ele>403.671</ele>
        <time>2018-11-12T14:30:31Z</time>
      </trkpt>
      <trkpt lat="45.71323" lon="4.14675">
        <ele>403.865</ele>
        <time>2018-11-12T14:30:37Z</time>
      </trkpt>
      <trkpt lat="45.71328" lon="4.1468">
        <ele>403.962</ele>
        <time>2018-11-12T14:30:42Z</time>
      </trkpt>
      <trkpt lat="45.71333" lon="4.14686">
        <ele>403.793</ele>
        <time>2018-11-12T14:30:48Z</time>
      </trkpt>
      <trkpt lat="45.71339" lon="4.14694">
        <ele>403.422</ele>
        <time>2018-11-12T14:30:53Z</time>
      </trkpt>
      <trkpt lat="45.71345" lon="4.14699">
        <ele>403.409</ele>
        <time>2018-11-12T14:30:59Z</time>
      </trkpt>
      <trkpt lat="45.71349" lon="4.14704">
        <ele>403.406</ele>
        <time>2018-11-12T14:31:04Z</time>
      </trkpt>
      <trkpt lat="45.71355" lon="4.1471">
        <ele>403.045</ele>
        <time>2018-11-12T14:31:10Z</time>
      </trkpt>
      <trkpt lat="45.71361" lon="4.14715">
        <ele>402.955</ele>
        <time>2018-11-12T14:31:15Z</time>
      </trkpt>
      <trkpt lat="45.71368" lon="4.14722">
        <ele>402.778</ele>
        <time>2018-11-12T14:31:21Z</time>
      </trkpt>
      <trkpt lat="45.71374" lon="4.14728">
        <ele>402.603</ele>
        <time>2018-11-12T14:31:26Z</time>
      </trkpt>
      <trkpt lat="45.71381" lon="4.14736">
        <ele>402.513</ele>
        <time>2018-11-12T14:31:32Z</time>
      </trkpt>
      <trkpt lat="45.71388" lon="4.14738">
        <ele>402.575</ele>
        <time>2018-11-12T14:31:37Z</time>
      </trkpt>
      <trkpt lat="45.71394" lon="4.14745">
        <ele>402.748</ele>
        <time>2018-11-12T14:31:42Z</time>
      </trkpt>
      <trkpt lat="45.714" lon="4.14753">
        <ele>402.476</ele>
        <time>2018-11-12T14:31:48Z</time>
      </trkpt>
      <trkpt lat="45.71405" lon="4.14759">
        <ele>402.414</ele>
        <time>2018-11-12T14:31:54Z</time>
      </trkpt>
      <trkpt lat="45.71411" lon="4.14762">
        <ele>402.615</ele>
        <time>2018-11-12T14:31:59Z</time>
      </trkpt>
      <trkpt lat="45.71419" lon="4.14767">
        <ele>403.061</ele>
        <time>2018-11-12T14:32:04Z</time>
      </trkpt>
      <trkpt lat="45.71425" lon="4.14776">
        <ele>403.482</ele>
        <time>2018-11-12T14:32:10Z</time>
      </trkpt>
      <trkpt lat="45.7143" lon="4.14781">
        <ele>403.65</ele>
        <time>2018-11-12T14:32:15Z</time>
      </trkpt>
      <trkpt lat="45.71436" lon="4.14786">
        <ele>403.628</ele>
        <time>2018-11-12T14:32:20Z</time>
      </trkpt>
      <trkpt lat="45.71443" lon="4.14791">
        <ele>403.323</ele>
        <time>2018-11-12T14:32:26Z</time>
      </trkpt>
      <trkpt lat="45.71449" lon="4.14799">
        <ele>403.362</ele>
        <time>2018-11-12T14:32:32Z</time>
      </trkpt>
      <trkpt lat="45.71456" lon="4.14803">
        <ele>403.364</ele>
        <time>2018-11-12T14:32:38Z</time>
      </trkpt>
      <trkpt lat="45.71462" lon="4.14807">
        <ele>403.262</ele>
        <time>2018-11-12T14:32:43Z</time>
      </trkpt>
      <trkpt lat="45.71469" lon="4.14814">
        <ele>403.204</ele>
        <time>2018-11-12T14:32:49Z</time>
      </trkpt>
      <trkpt lat="45.71474" lon="4.14819">
        <ele>402.613</ele>
        <time>2018-11-12T14:32:54Z</time>
      </trkpt>
      <trkpt lat="45.71482" lon="4.14824">
        <ele>401.938</ele>
        <time>2018-11-12T14:33:00Z</time>
      </trkpt>
      <trkpt lat="45.71488" lon="4.14827">
        <ele>401.469</ele>
        <time>2018-11-12T14:33:05Z</time>
      </trkpt>
      <trkpt lat="45.71495" lon="4.14834">
        <ele>400.974</ele>
        <time>2018-11-12T14:33:11Z</time>
      </trkpt>
      <trkpt lat="45.71501" lon="4.14838">
        <ele>400.701</ele>
        <time>2018-11-12T14:33:16Z</time>
      </trkpt>
      <trkpt lat="45.71509" lon="4.14842">
        <ele>400.25</ele>
        <time>2018-11-12T14:33:22Z</time>
      </trkpt>
      <trkpt lat="45.71515" lon="4.14848">
        <ele>400.524</ele>
        <time>2018-11-12T14:33:28Z</time>
      </trkpt>
      <trkpt lat="45.71521" lon="4.14853">
        <ele>400.946</ele>
        <time>2018-11-12T14:33:33Z</time>
      </trkpt>
      <trkpt lat="45.71527" lon="4.14855">
        <ele>401.293</ele>
        <time>2018-11-12T14:33:38Z</time>
      </trkpt>
      <trkpt lat="45.71532" lon="4.14859">
        <ele>401.108</ele>
        <time>2018-11-12T14:33:44Z</time>
      </trkpt>
      <trkpt lat="45.71539" lon="4.14863">
        <ele>401.277</ele>
        <time>2018-11-12T14:33:49Z</time>
      </trkpt>
      <trkpt lat="45.71543" lon="4.14867">
        <ele>401.426</ele>
        <time>2018-11-12T14:33:54Z</time>
      </trkpt>
      <trkpt lat="45.71553" lon="4.14872">
        <ele>401.437</ele>
        <time>2018-11-12T14:34:00Z</time>
      </trkpt>
      <trkpt lat="45.71558" lon="4.14878">
        <ele>401.435</ele>
        <time>2018-11-12T14:34:05Z</time>
      </trkpt>
      <trkpt lat="45.71563" lon="4.14881">
        <ele>401.575</ele>
        <time>2018-11-12T14:34:11Z</time>
      </trkpt>
      <trkpt lat="45.71568" lon="4.14883">
        <ele>401.366</ele>
        <time>2018-11-12T14:34:16Z</time>
      </trkpt>
      <trkpt lat="45.71575" lon="4.14886">
        <ele>400.837</ele>
        <time>2018-11-12T14:34:22Z</time>
      </trkpt>
      <trkpt lat="45.71581" lon="4.14889">
        <ele>400.708</ele>
        <time>2018-11-12T14:34:27Z</time>
      </trkpt>
      <trkpt lat="45.71584" lon="4.14891">
        <ele>400.159</ele>
        <time>2018-11-12T14:34:33Z</time>
      </trkpt>
      <trkpt lat="45.71586" lon="4.14893">
        <ele>399.947</ele>
        <time>2018-11-12T14:34:39Z</time>
      </trkpt>
      <trkpt lat="45.71589" lon="4.14896">
        <ele>399.454</ele>
        <time>2018-11-12T14:34:44Z</time>
      </trkpt>
      <trkpt lat="45.71591" lon="4.14898">
        <ele>398.971</ele>
        <time>2018-11-12T14:34:50Z</time>
      </trkpt>
      <trkpt lat="45.71593" lon="4.14904">
        <ele>399.272</ele>
        <time>2018-11-12T14:34:56Z</time>
      </trkpt>
      <trkpt lat="45.71599" lon="4.14906">
        <ele>399.25</ele>
        <time>2018-11-12T14:35:02Z</time>
      </trkpt>
      <trkpt lat="45.71603" lon="4.14908">
        <ele>399.61</ele>
        <time>2018-11-12T14:35:07Z</time>
      </trkpt>
      <trkpt lat="45.7161" lon="4.14916">
        <ele>399.478</ele>
        <time>2018-11-12T14:35:13Z</time>
      </trkpt>
      <trkpt lat="45.71616" lon="4.1492">
        <ele>399.425</ele>
        <time>2018-11-12T14:35:18Z</time>
      </trkpt>
      <trkpt lat="45.71621" lon="4.14927">
        <ele>399.55</ele>
        <time>2018-11-12T14:35:24Z</time>
      </trkpt>
      <trkpt lat="45.71627" lon="4.14936">
        <ele>399.348</ele>
        <time>2018-11-12T14:35:30Z</time>
      </trkpt>
      <trkpt lat="45.71632" lon="4.14943">
        <ele>399.709</ele>
        <time>2018-11-12T14:35:36Z</time>
      </trkpt>
      <trkpt lat="45.71634" lon="4.14947">
        <ele>400.365</ele>
        <time>2018-11-12T14:35:42Z</time>
      </trkpt>
      <trkpt lat="45.71634" lon="4.14947">
        <ele>400.587</ele>
        <time>2018-11-12T14:35:47Z</time>
      </trkpt>
      <trkpt lat="45.71634" lon="4.14948">
        <ele>401.357</ele>
        <time>2018-11-12T14:35:53Z</time>
      </trkpt>
      <trkpt lat="45.71638" lon="4.14954">
        <ele>401.378</ele>
        <time>2018-11-12T14:35:58Z</time>
      </trkpt>
      <trkpt lat="45.71646" lon="4.14963">
        <ele>401.156</ele>
        <time>2018-11-12T14:36:04Z</time>
      </trkpt>
      <trkpt lat="45.7165" lon="4.14969">
        <ele>401.149</ele>
        <time>2018-11-12T14:36:10Z</time>
      </trkpt>
      <trkpt lat="45.71654" lon="4.14974">
        <ele>401.152</ele>
        <time>2018-11-12T14:36:15Z</time>
      </trkpt>
      <trkpt lat="45.7166" lon="4.14981">
        <ele>401.226</ele>
        <time>2018-11-12T14:36:21Z</time>
      </trkpt>
      <trkpt lat="45.71665" lon="4.14989">
        <ele>400.992</ele>
        <time>2018-11-12T14:36:26Z</time>
      </trkpt>
      <trkpt lat="45.71669" lon="4.14998">
        <ele>400.147</ele>
        <time>2018-11-12T14:36:32Z</time>
      </trkpt>
      <trkpt lat="45.71676" lon="4.15006">
        <ele>399.499</ele>
        <time>2018-11-12T14:36:38Z</time>
      </trkpt>
      <trkpt lat="45.71681" lon="4.15011">
        <ele>399.472</ele>
        <time>2018-11-12T14:36:43Z</time>
      </trkpt>
      <trkpt lat="45.71685" lon="4.15016">
        <ele>399.532</ele>
        <time>2018-11-12T14:36:48Z</time>
      </trkpt>
      <trkpt lat="45.71689" lon="4.15023">
        <ele>399.445</ele>
        <time>2018-11-12T14:36:53Z</time>
      </trkpt>
      <trkpt lat="45.71697" lon="4.15033">
        <ele>398.705</ele>
        <time>2018-11-12T14:36:59Z</time>
      </trkpt>
      <trkpt lat="45.71701" lon="4.15039">
        <ele>398.27</ele>
        <time>2018-11-12T14:37:04Z</time>
      </trkpt>
      <trkpt lat="45.71706" lon="4.15045">
        <ele>397.522</ele>
        <time>2018-11-12T14:37:10Z</time>
      </trkpt>
      <trkpt lat="45.7171" lon="4.15052">
        <ele>397.21</ele>
        <time>2018-11-12T14:37:15Z</time>
      </trkpt>
      <trkpt lat="45.71715" lon="4.15058">
        <ele>397.077</ele>
        <time>2018-11-12T14:37:20Z</time>
      </trkpt>
      <trkpt lat="45.7172" lon="4.15066">
        <ele>396.936</ele>
        <time>2018-11-12T14:37:26Z</time>
      </trkpt>
      <trkpt lat="45.71726" lon="4.15073">
        <ele>396.462</ele>
        <time>2018-11-12T14:37:32Z</time>
      </trkpt>
      <trkpt lat="45.71731" lon="4.1508">
        <ele>396.396</ele>
        <time>2018-11-12T14:37:37Z</time>
      </trkpt>
      <trkpt lat="45.71736" lon="4.15089">
        <ele>396.098</ele>
        <time>2018-11-12T14:37:43Z</time>
      </trkpt>
      <trkpt lat="45.71741" lon="4.15097">
        <ele>395.946</ele>
        <time>2018-11-12T14:37:49Z</time>
      </trkpt>
      <trkpt lat="45.71746" lon="4.15101">
        <ele>395.804</ele>
        <time>2018-11-12T14:37:54Z</time>
      </trkpt>
      <trkpt lat="45.71751" lon="4.15108">
        <ele>395.886</ele>
        <time>2018-11-12T14:38:00Z</time>
      </trkpt>
      <trkpt lat="45.71757" lon="4.15116">
        <ele>396.075</ele>
        <time>2018-11-12T14:38:06Z</time>
      </trkpt>
      <trkpt lat="45.71763" lon="4.15124">
        <ele>395.591</ele>
        <time>2018-11-12T14:38:12Z</time>
      </trkpt>
      <trkpt lat="45.71769" lon="4.15131">
        <ele>395.189</ele>
        <time>2018-11-12T14:38:18Z</time>
      </trkpt>
      <trkpt lat="45.71773" lon="4.15138">
        <ele>395.159</ele>
        <time>2018-11-12T14:38:23Z</time>
      </trkpt>
      <trkpt lat="45.71779" lon="4.15142">
        <ele>394.975</ele>
        <time>2018-11-12T14:38:28Z</time>
      </trkpt>
      <trkpt lat="45.71783" lon="4.1515">
        <ele>394.759</ele>
        <time>2018-11-12T14:38:34Z</time>
      </trkpt>
      <trkpt lat="45.71788" lon="4.15157">
        <ele>395.017</ele>
        <time>2018-11-12T14:38:39Z</time>
      </trkpt>
      <trkpt lat="45.71794" lon="4.15164">
        <ele>395.122</ele>
        <time>2018-11-12T14:38:45Z</time>
      </trkpt>
      <trkpt lat="45.71797" lon="4.15174">
        <ele>394.93</ele>
        <time>2018-11-12T14:38:50Z</time>
      </trkpt>
      <trkpt lat="45.71803" lon="4.1518">
        <ele>394.674</ele>
        <time>2018-11-12T14:38:56Z</time>
      </trkpt>
      <trkpt lat="45.71807" lon="4.15189">
        <ele>394.485</ele>
        <time>2018-11-12T14:39:01Z</time>
      </trkpt>
      <trkpt lat="45.71813" lon="4.15196">
        <ele>394.529</ele>
        <time>2018-11-12T14:39:07Z</time>
      </trkpt>
      <trkpt lat="45.71818" lon="4.15205">
        <ele>394.924</ele>
        <time>2018-11-12T14:39:13Z</time>
      </trkpt>
      <trkpt lat="45.71825" lon="4.15215">
        <ele>394.884</ele>
        <time>2018-11-12T14:39:19Z</time>
      </trkpt>
      <trkpt lat="45.71829" lon="4.1522">
        <ele>394.985</ele>
        <time>2018-11-12T14:39:24Z</time>
      </trkpt>
      <trkpt lat="45.71834" lon="4.15225">
        <ele>395.097</ele>
        <time>2018-11-12T14:39:29Z</time>
      </trkpt>
      <trkpt lat="45.71841" lon="4.15233">
        <ele>395.005</ele>
        <time>2018-11-12T14:39:35Z</time>
      </trkpt>
      <trkpt lat="45.71848" lon="4.15241">
        <ele>394.775</ele>
        <time>2018-11-12T14:39:41Z</time>
      </trkpt>
      <trkpt lat="45.71855" lon="4.15247">
        <ele>394.628</ele>
        <time>2018-11-12T14:39:47Z</time>
      </trkpt>
      <trkpt lat="45.71861" lon="4.15253">
        <ele>394.513</ele>
        <time>2018-11-12T14:39:52Z</time>
      </trkpt>
      <trkpt lat="45.71867" lon="4.15258">
        <ele>394.702</ele>
        <time>2018-11-12T14:39:57Z</time>
      </trkpt>
      <trkpt lat="45.71871" lon="4.15263">
        <ele>394.3</ele>
        <time>2018-11-12T14:40:03Z</time>
      </trkpt>
      <trkpt lat="45.71878" lon="4.15267">
        <ele>393.769</ele>
        <time>2018-11-12T14:40:09Z</time>
      </trkpt>
      <trkpt lat="45.71884" lon="4.15272">
        <ele>393.133</ele>
        <time>2018-11-12T14:40:14Z</time>
      </trkpt>
      <trkpt lat="45.7189" lon="4.15274">
        <ele>392.923</ele>
        <time>2018-11-12T14:40:19Z</time>
      </trkpt>
      <trkpt lat="45.71897" lon="4.15278">
        <ele>393.043</ele>
        <time>2018-11-12T14:40:25Z</time>
      </trkpt>
      <trkpt lat="45.71902" lon="4.15281">
        <ele>393.053</ele>
        <time>2018-11-12T14:40:30Z</time>
      </trkpt>
      <trkpt lat="45.71908" lon="4.15285">
        <ele>393.02</ele>
        <time>2018-11-12T14:40:35Z</time>
      </trkpt>
      <trkpt lat="45.71915" lon="4.15293">
        <ele>392.843</ele>
        <time>2018-11-12T14:40:41Z</time>
      </trkpt>
      <trkpt lat="45.7192" lon="4.15299">
        <ele>392.292</ele>
        <time>2018-11-12T14:40:46Z</time>
      </trkpt>
      <trkpt lat="45.71927" lon="4.15303">
        <ele>391.612</ele>
        <time>2018-11-12T14:40:52Z</time>
      </trkpt>
      <trkpt lat="45.71932" lon="4.15307">
        <ele>391.462</ele>
        <time>2018-11-12T14:40:57Z</time>
      </trkpt>
      <trkpt lat="45.71939" lon="4.1531">
        <ele>391.37</ele>
        <time>2018-11-12T14:41:03Z</time>
      </trkpt>
      <trkpt lat="45.71945" lon="4.15316">
        <ele>391.484</ele>
        <time>2018-11-12T14:41:09Z</time>
      </trkpt>
      <trkpt lat="45.7195" lon="4.1532">
        <ele>391.811</ele>
        <time>2018-11-12T14:41:14Z</time>
      </trkpt>
      <trkpt lat="45.71957" lon="4.15327">
        <ele>392.293</ele>
        <time>2018-11-12T14:41:20Z</time>
      </trkpt>
      <trkpt lat="45.71962" lon="4.15334">
        <ele>392.554</ele>
        <time>2018-11-12T14:41:25Z</time>
      </trkpt>
      <trkpt lat="45.7197" lon="4.15339">
        <ele>392.926</ele>
        <time>2018-11-12T14:41:31Z</time>
      </trkpt>
      <trkpt lat="45.71975" lon="4.15345">
        <ele>393.64</ele>
        <time>2018-11-12T14:41:37Z</time>
      </trkpt>
      <trkpt lat="45.71982" lon="4.15352">
        <ele>393.911</ele>
        <time>2018-11-12T14:41:43Z</time>
      </trkpt>
      <trkpt lat="45.71989" lon="4.1536">
        <ele>394.253</ele>
        <time>2018-11-12T14:41:49Z</time>
      </trkpt>
      <trkpt lat="45.71996" lon="4.15367">
        <ele>394.224</ele>
        <time>2018-11-12T14:41:55Z</time>
      </trkpt>
      <trkpt lat="45.72003" lon="4.15374">
        <ele>393.875</ele>
        <time>2018-11-12T14:42:01Z</time>
      </trkpt>
      <trkpt lat="45.72007" lon="4.15378">
        <ele>393.575</ele>
        <time>2018-11-12T14:42:07Z</time>
      </trkpt>
      <trkpt lat="45.72013" lon="4.15384">
        <ele>393.322</ele>
        <time>2018-11-12T14:42:12Z</time>
      </trkpt>
      <trkpt lat="45.72019" lon="4.1539">
        <ele>393.728</ele>
        <time>2018-11-12T14:42:17Z</time>
      </trkpt>
      <trkpt lat="45.72026" lon="4.15394">
        <ele>394.586</ele>
        <time>2018-11-12T14:42:23Z</time>
      </trkpt>
      <trkpt lat="45.7203" lon="4.15399">
        <ele>395.408</ele>
        <time>2018-11-12T14:42:29Z</time>
      </trkpt>
      <trkpt lat="45.72032" lon="4.15403">
        <ele>395.855</ele>
        <time>2018-11-12T14:42:34Z</time>
      </trkpt>
      <trkpt lat="45.72032" lon="4.15404">
        <ele>395.993</ele>
        <time>2018-11-12T14:42:40Z</time>
      </trkpt>
      <trkpt lat="45.72032" lon="4.15404">
        <ele>396.31</ele>
        <time>2018-11-12T14:42:46Z</time>
      </trkpt>
      <trkpt lat="45.7203" lon="4.15404">
        <ele>396.646</ele>
        <time>2018-11-12T14:42:51Z</time>
      </trkpt>
      <trkpt lat="45.7203" lon="4.15404">
        <ele>396.688</ele>
        <time>2018-11-12T14:42:56Z</time>
      </trkpt>
      <trkpt lat="45.72032" lon="4.15405">
        <ele>396.752</ele>
        <time>2018-11-12T14:43:02Z</time>
      </trkpt>
      <trkpt lat="45.72035" lon="4.15409">
        <ele>397.021</ele>
        <time>2018-11-12T14:43:07Z</time>
      </trkpt>
      <trkpt lat="45.72037" lon="4.15414">
        <ele>397.156</ele>
        <time>2018-11-12T14:43:12Z</time>
      </trkpt>
      <trkpt lat="45.72039" lon="4.1542">
        <ele>397.567</ele>
        <time>2018-11-12T14:43:17Z</time>
      </trkpt>
      <trkpt lat="45.72041" lon="4.15421">
        <ele>397.31</ele>
        <time>2018-11-12T14:43:23Z</time>
      </trkpt>
      <trkpt lat="45.72042" lon="4.15421">
        <ele>397.396</ele>
        <time>2018-11-12T14:43:28Z</time>
      </trkpt>
      <trkpt lat="45.72041" lon="4.15421">
        <ele>397.301</ele>
        <time>2018-11-12T14:43:33Z</time>
      </trkpt>
      <trkpt lat="45.72042" lon="4.15422">
        <ele>397.095</ele>
        <time>2018-11-12T14:43:39Z</time>
      </trkpt>
      <trkpt lat="45.72042" lon="4.15423">
        <ele>397.44</ele>
        <time>2018-11-12T14:43:44Z</time>
      </trkpt>
      <trkpt lat="45.72042" lon="4.15423">
        <ele>398.423</ele>
        <time>2018-11-12T14:43:49Z</time>
      </trkpt>
      <trkpt lat="45.72042" lon="4.15422">
        <ele>398.53</ele>
        <time>2018-11-12T14:43:55Z</time>
      </trkpt>
      <trkpt lat="45.72043" lon="4.15423">
        <ele>398.666</ele>
        <time>2018-11-12T14:44:00Z</time>
      </trkpt>
      <trkpt lat="45.72041" lon="4.15423">
        <ele>398.952</ele>
        <time>2018-11-12T14:44:06Z</time>
      </trkpt>
      <trkpt lat="45.72041" lon="4.15422">
        <ele>398.993</ele>
        <time>2018-11-12T14:44:11Z</time>
      </trkpt>
      <trkpt lat="45.72041" lon="4.15423">
        <ele>399.57</ele>
        <time>2018-11-12T14:44:17Z</time>
      </trkpt>
      <trkpt lat="45.72042" lon="4.15423">
        <ele>399.617</ele>
        <time>2018-11-12T14:44:23Z</time>
      </trkpt>
      <trkpt lat="45.72042" lon="4.15422">
        <ele>399.416</ele>
        <time>2018-11-12T14:44:28Z</time>
      </trkpt>
      <trkpt lat="45.72042" lon="4.15423">
        <ele>399.594</ele>
        <time>2018-11-12T14:44:33Z</time>
      </trkpt>
      <trkpt lat="45.72041" lon="4.15424">
        <ele>399.912</ele>
        <time>2018-11-12T14:44:39Z</time>
      </trkpt>
      <trkpt lat="45.7204" lon="4.15425">
        <ele>400.091</ele>
        <time>2018-11-12T14:44:44Z</time>
      </trkpt>
      <trkpt lat="45.72038" lon="4.15426">
        <ele>399.92</ele>
        <time>2018-11-12T14:44:50Z</time>
      </trkpt>
      <trkpt lat="45.72037" lon="4.15426">
        <ele>399.686</ele>
        <time>2018-11-12T14:44:55Z</time>
      </trkpt>
      <trkpt lat="45.72037" lon="4.15424">
        <ele>399.571</ele>
        <time>2018-11-12T14:45:01Z</time>
      </trkpt>
      <trkpt lat="45.72037" lon="4.15423">
        <ele>399.456</ele>
        <time>2018-11-12T14:45:06Z</time>
      </trkpt>
      <trkpt lat="45.72037" lon="4.15424">
        <ele>399.629</ele>
        <time>2018-11-12T14:45:11Z</time>
      </trkpt>
      <trkpt lat="45.72036" lon="4.15424">
        <ele>399.528</ele>
        <time>2018-11-12T14:45:17Z</time>
      </trkpt>
      <trkpt lat="45.72033" lon="4.15426">
        <ele>399.618</ele>
        <time>2018-11-12T14:45:23Z</time>
      </trkpt>
      <trkpt lat="45.72034" lon="4.15427">
        <ele>399.321</ele>
        <time>2018-11-12T14:45:29Z</time>
      </trkpt>
      <trkpt lat="45.72033" lon="4.15429">
        <ele>399.353</ele>
        <time>2018-11-12T14:45:35Z</time>
      </trkpt>
      <trkpt lat="45.72032" lon="4.1543">
        <ele>399.483</ele>
        <time>2018-11-12T14:45:40Z</time>
      </trkpt>
      <trkpt lat="45.72032" lon="4.15431">
        <ele>399.433</ele>
        <time>2018-11-12T14:45:45Z</time>
      </trkpt>
      <trkpt lat="45.72032" lon="4.15433">
        <ele>398.693</ele>
        <time>2018-11-12T14:45:51Z</time>
      </trkpt>
      <trkpt lat="45.72031" lon="4.15435">
        <ele>398.147</ele>
        <time>2018-11-12T14:45:56Z</time>
      </trkpt>
      <trkpt lat="45.72029" lon="4.15437">
        <ele>398.245</ele>
        <time>2018-11-12T14:46:01Z</time>
      </trkpt>
      <trkpt lat="45.72025" lon="4.15442">
        <ele>398.392</ele>
        <time>2018-11-12T14:46:07Z</time>
      </trkpt>
      <trkpt lat="45.72023" lon="4.15445">
        <ele>398.832</ele>
        <time>2018-11-12T14:46:12Z</time>
      </trkpt>
      <trkpt lat="45.7202" lon="4.15451">
        <ele>399.276</ele>
        <time>2018-11-12T14:46:17Z</time>
      </trkpt>
      <trkpt lat="45.72018" lon="4.15458">
        <ele>399.991</ele>
        <time>2018-11-12T14:46:23Z</time>
      </trkpt>
      <trkpt lat="45.72015" lon="4.15463">
        <ele>400.363</ele>
        <time>2018-11-12T14:46:28Z</time>
      </trkpt>
      <trkpt lat="45.72012" lon="4.15469">
        <ele>400.938</ele>
        <time>2018-11-12T14:46:34Z</time>
      </trkpt>
      <trkpt lat="45.72008" lon="4.15478">
        <ele>401.194</ele>
        <time>2018-11-12T14:46:39Z</time>
      </trkpt>
      <trkpt lat="45.72006" lon="4.15485">
        <ele>401.504</ele>
        <time>2018-11-12T14:46:45Z</time>
      </trkpt>
      <trkpt lat="45.72004" lon="4.1549">
        <ele>401.932</ele>
        <time>2018-11-12T14:46:50Z</time>
      </trkpt>
      <trkpt lat="45.71999" lon="4.15498">
        <ele>402.239</ele>
        <time>2018-11-12T14:46:56Z</time>
      </trkpt>
      <trkpt lat="45.71994" lon="4.15506">
        <ele>402.652</ele>
        <time>2018-11-12T14:47:02Z</time>
      </trkpt>
      <trkpt lat="45.71989" lon="4.15511">
        <ele>402.817</ele>
        <time>2018-11-12T14:47:08Z</time>
      </trkpt>
      <trkpt lat="45.71986" lon="4.15518">
        <ele>403.344</ele>
        <time>2018-11-12T14:47:14Z</time>
      </trkpt>
      <trkpt lat="45.71981" lon="4.15526">
        <ele>403.836</ele>
        <time>2018-11-12T14:47:19Z</time>
      </trkpt>
      <trkpt lat="45.71978" lon="4.15535">
        <ele>404.373</ele>
        <time>2018-11-12T14:47:25Z</time>
      </trkpt>
      <trkpt lat="45.71974" lon="4.1554">
        <ele>404.932</ele>
        <time>2018-11-12T14:47:30Z</time>
      </trkpt>
      <trkpt lat="45.71969" lon="4.15548">
        <ele>405.344</ele>
        <time>2018-11-12T14:47:36Z</time>
      </trkpt>
      <trkpt lat="45.71963" lon="4.15555">
        <ele>405.61</ele>
        <time>2018-11-12T14:47:42Z</time>
      </trkpt>
      <trkpt lat="45.71957" lon="4.15559">
        <ele>405.691</ele>
        <time>2018-11-12T14:47:48Z</time>
      </trkpt>
      <trkpt lat="45.71951" lon="4.15563">
        <ele>405.558</ele>
        <time>2018-11-12T14:47:54Z</time>
      </trkpt>
      <trkpt lat="45.71949" lon="4.15566">
        <ele>406.033</ele>
        <time>2018-11-12T14:47:59Z</time>
      </trkpt>
      <trkpt lat="45.71941" lon="4.15564">
        <ele>406.951</ele>
        <time>2018-11-12T14:48:05Z</time>
      </trkpt>
      <trkpt lat="45.71935" lon="4.15561">
        <ele>407.905</ele>
        <time>2018-11-12T14:48:11Z</time>
      </trkpt>
      <trkpt lat="45.71928" lon="4.15559">
        <ele>408.725</ele>
        <time>2018-11-12T14:48:16Z</time>
      </trkpt>
      <trkpt lat="45.71924" lon="4.15559">
        <ele>409.214</ele>
        <time>2018-11-12T14:48:21Z</time>
      </trkpt>
      <trkpt lat="45.71919" lon="4.15561">
        <ele>409.893</ele>
        <time>2018-11-12T14:48:27Z</time>
      </trkpt>
      <trkpt lat="45.71911" lon="4.15567">
        <ele>410.722</ele>
        <time>2018-11-12T14:48:32Z</time>
      </trkpt>
      <trkpt lat="45.71903" lon="4.15567">
        <ele>411.735</ele>
        <time>2018-11-12T14:48:38Z</time>
      </trkpt>
      <trkpt lat="45.71897" lon="4.15568">
        <ele>412.398</ele>
        <time>2018-11-12T14:48:43Z</time>
      </trkpt>
      <trkpt lat="45.71892" lon="4.1557">
        <ele>413.201</ele>
        <time>2018-11-12T14:48:49Z</time>
      </trkpt>
      <trkpt lat="45.71888" lon="4.15573">
        <ele>413.734</ele>
        <time>2018-11-12T14:48:54Z</time>
      </trkpt>
      <trkpt lat="45.71882" lon="4.15575">
        <ele>414.704</ele>
        <time>2018-11-12T14:49:00Z</time>
      </trkpt>
      <trkpt lat="45.71877" lon="4.15578">
        <ele>415.651</ele>
        <time>2018-11-12T14:49:05Z</time>
      </trkpt>
      <trkpt lat="45.71869" lon="4.15582">
        <ele>416.119</ele>
        <time>2018-11-12T14:49:11Z</time>
      </trkpt>
      <trkpt lat="45.71861" lon="4.15588">
        <ele>416.395</ele>
        <time>2018-11-12T14:49:16Z</time>
      </trkpt>
      <trkpt lat="45.71857" lon="4.15593">
        <ele>416.609</ele>
        <time>2018-11-12T14:49:22Z</time>
      </trkpt>
      <trkpt lat="45.71855" lon="4.15598">
        <ele>416.909</ele>
        <time>2018-11-12T14:49:27Z</time>
      </trkpt>
      <trkpt lat="45.71853" lon="4.15605">
        <ele>417.496</ele>
        <time>2018-11-12T14:49:32Z</time>
      </trkpt>
      <trkpt lat="45.71849" lon="4.15612">
        <ele>418.325</ele>
        <time>2018-11-12T14:49:38Z</time>
      </trkpt>
      <trkpt lat="45.71844" lon="4.15619">
        <ele>418.979</ele>
        <time>2018-11-12T14:49:43Z</time>
      </trkpt>
      <trkpt lat="45.7184" lon="4.15624">
        <ele>419.581</ele>
        <time>2018-11-12T14:49:49Z</time>
      </trkpt>
      <trkpt lat="45.71836" lon="4.15629">
        <ele>420.626</ele>
        <time>2018-11-12T14:49:54Z</time>
      </trkpt>
      <trkpt lat="45.7183" lon="4.15637">
        <ele>421.777</ele>
        <time>2018-11-12T14:50:00Z</time>
      </trkpt>
      <trkpt lat="45.71827" lon="4.15644">
        <ele>422.788</ele>
        <time>2018-11-12T14:50:05Z</time>
      </trkpt>
      <trkpt lat="45.71823" lon="4.1565">
        <ele>423.365</ele>
        <time>2018-11-12T14:50:10Z</time>
      </trkpt>
      <trkpt lat="45.71816" lon="4.15658">
        <ele>423.702</ele>
        <time>2018-11-12T14:50:16Z</time>
      </trkpt>
      <trkpt lat="45.71811" lon="4.15664">
        <ele>424.032</ele>
        <time>2018-11-12T14:50:21Z</time>
      </trkpt>
      <trkpt lat="45.71808" lon="4.15671">
        <ele>424.416</ele>
        <time>2018-11-12T14:50:27Z</time>
      </trkpt>
      <trkpt lat="45.71802" lon="4.1568">
        <ele>424.568</ele>
        <time>2018-11-12T14:50:32Z</time>
      </trkpt>
      <trkpt lat="45.71796" lon="4.15683">
        <ele>424.34</ele>
        <time>2018-11-12T14:50:38Z</time>
      </trkpt>
      <trkpt lat="45.71791" lon="4.15687">
        <ele>424.234</ele>
        <time>2018-11-12T14:50:43Z</time>
      </trkpt>
      <trkpt lat="45.71786" lon="4.15698">
        <ele>423.997</ele>
        <time>2018-11-12T14:50:49Z</time>
      </trkpt>
      <trkpt lat="45.71783" lon="4.15704">
        <ele>423.932</ele>
        <time>2018-11-12T14:50:54Z</time>
      </trkpt>
      <trkpt lat="45.71779" lon="4.15711">
        <ele>424.014</ele>
        <time>2018-11-12T14:50:59Z</time>
      </trkpt>
      <trkpt lat="45.71774" lon="4.1572">
        <ele>424.256</ele>
        <time>2018-11-12T14:51:05Z</time>
      </trkpt>
      <trkpt lat="45.7177" lon="4.15728">
        <ele>424.145</ele>
        <time>2018-11-12T14:51:10Z</time>
      </trkpt>
      <trkpt lat="45.71768" lon="4.15732">
        <ele>423.833</ele>
        <time>2018-11-12T14:51:15Z</time>
      </trkpt>
      <trkpt lat="45.71768" lon="4.1573">
        <ele>423.587</ele>
        <time>2018-11-12T14:51:21Z</time>
      </trkpt>
      <trkpt lat="45.71768" lon="4.1573">
        <ele>423.477</ele>
        <time>2018-11-12T14:51:27Z</time>
      </trkpt>
      <trkpt lat="45.71768" lon="4.1573">
        <ele>422.939</ele>
        <time>2018-11-12T14:51:32Z</time>
      </trkpt>
      <trkpt lat="45.71769" lon="4.1573">
        <ele>422.71</ele>
        <time>2018-11-12T14:51:37Z</time>
      </trkpt>
      <trkpt lat="45.7177" lon="4.15731">
        <ele>422.421</ele>
        <time>2018-11-12T14:51:42Z</time>
      </trkpt>
      <trkpt lat="45.71771" lon="4.15732">
        <ele>421.655</ele>
        <time>2018-11-12T14:51:48Z</time>
      </trkpt>
      <trkpt lat="45.71769" lon="4.15735">
        <ele>420.673</ele>
        <time>2018-11-12T14:51:54Z</time>
      </trkpt>
      <trkpt lat="45.71769" lon="4.15735">
        <ele>420.508</ele>
        <time>2018-11-12T14:51:59Z</time>
      </trkpt>
      <trkpt lat="45.71772" lon="4.15733">
        <ele>420.15</ele>
        <time>2018-11-12T14:52:05Z</time>
      </trkpt>
      <trkpt lat="45.71781" lon="4.15726">
        <ele>419.476</ele>
        <time>2018-11-12T14:52:10Z</time>
      </trkpt>
      <trkpt lat="45.71787" lon="4.1572">
        <ele>418.563</ele>
        <time>2018-11-12T14:52:16Z</time>
      </trkpt>
      <trkpt lat="45.71793" lon="4.15717">
        <ele>417.651</ele>
        <time>2018-11-12T14:52:21Z</time>
      </trkpt>
      <trkpt lat="45.71801" lon="4.15713">
        <ele>416.766</ele>
        <time>2018-11-12T14:52:27Z</time>
      </trkpt>
      <trkpt lat="45.71806" lon="4.15709">
        <ele>416.204</ele>
        <time>2018-11-12T14:52:32Z</time>
      </trkpt>
      <trkpt lat="45.71812" lon="4.15703">
        <ele>415.863</ele>
        <time>2018-11-12T14:52:38Z</time>
      </trkpt>
      <trkpt lat="45.71817" lon="4.15697">
        <ele>415.249</ele>
        <time>2018-11-12T14:52:44Z</time>
      </trkpt>
      <trkpt lat="45.71829" lon="4.15694">
        <ele>415.099</ele>
        <time>2018-11-12T14:52:50Z</time>
      </trkpt>
      <trkpt lat="45.71836" lon="4.15695">
        <ele>415.119</ele>
        <time>2018-11-12T14:52:55Z</time>
      </trkpt>
      <trkpt lat="45.71843" lon="4.15697">
        <ele>415.188</ele>
        <time>2018-11-12T14:53:00Z</time>
      </trkpt>
      <trkpt lat="45.71847" lon="4.15698">
        <ele>415.335</ele>
        <time>2018-11-12T14:53:05Z</time>
      </trkpt>
      <trkpt lat="45.71855" lon="4.157">
        <ele>415.341</ele>
        <time>2018-11-12T14:53:11Z</time>
      </trkpt>
      <trkpt lat="45.71861" lon="4.15704">
        <ele>415.612</ele>
        <time>2018-11-12T14:53:17Z</time>
      </trkpt>
      <trkpt lat="45.71866" lon="4.1571">
        <ele>415.837</ele>
        <time>2018-11-12T14:53:22Z</time>
      </trkpt>
      <trkpt lat="45.7187" lon="4.15715">
        <ele>415.734</ele>
        <time>2018-11-12T14:53:28Z</time>
      </trkpt>
      <trkpt lat="45.71874" lon="4.15721">
        <ele>415.318</ele>
        <time>2018-11-12T14:53:33Z</time>
      </trkpt>
      <trkpt lat="45.71877" lon="4.15728">
        <ele>415.304</ele>
        <time>2018-11-12T14:53:39Z</time>
      </trkpt>
      <trkpt lat="45.7188" lon="4.15735">
        <ele>416.356</ele>
        <time>2018-11-12T14:53:45Z</time>
      </trkpt>
      <trkpt lat="45.71881" lon="4.15742">
        <ele>417.401</ele>
        <time>2018-11-12T14:53:50Z</time>
      </trkpt>
      <trkpt lat="45.71884" lon="4.1575">
        <ele>418.565</ele>
        <time>2018-11-12T14:53:56Z</time>
      </trkpt>
      <trkpt lat="45.71887" lon="4.15757">
        <ele>419.473</ele>
        <time>2018-11-12T14:54:01Z</time>
      </trkpt>
      <trkpt lat="45.71892" lon="4.15761">
        <ele>419.728</ele>
        <time>2018-11-12T14:54:07Z</time>
      </trkpt>
      <trkpt lat="45.71898" lon="4.15767">
        <ele>419.698</ele>
        <time>2018-11-12T14:54:13Z</time>
      </trkpt>
      <trkpt lat="45.71904" lon="4.15778">
        <ele>419.713</ele>
        <time>2018-11-12T14:54:18Z</time>
      </trkpt>
      <trkpt lat="45.71909" lon="4.15786">
        <ele>420.216</ele>
        <time>2018-11-12T14:54:24Z</time>
      </trkpt>
      <trkpt lat="45.71911" lon="4.15796">
        <ele>421.226</ele>
        <time>2018-11-12T14:54:30Z</time>
      </trkpt>
      <trkpt lat="45.71912" lon="4.15805">
        <ele>421.798</ele>
        <time>2018-11-12T14:54:35Z</time>
      </trkpt>
      <trkpt lat="45.71915" lon="4.15813">
        <ele>422.633</ele>
        <time>2018-11-12T14:54:41Z</time>
      </trkpt>
      <trkpt lat="45.71918" lon="4.15822">
        <ele>423.225</ele>
        <time>2018-11-12T14:54:46Z</time>
      </trkpt>
      <trkpt lat="45.71921" lon="4.15832">
        <ele>423.404</ele>
        <time>2018-11-12T14:54:51Z</time>
      </trkpt>
      <trkpt lat="45.71923" lon="4.15841">
        <ele>423.147</ele>
        <time>2018-11-12T14:54:57Z</time>
      </trkpt>
      <trkpt lat="45.71927" lon="4.15848">
        <ele>422.299</ele>
        <time>2018-11-12T14:55:02Z</time>
      </trkpt>
      <trkpt lat="45.71931" lon="4.15854">
        <ele>421.617</ele>
        <time>2018-11-12T14:55:08Z</time>
      </trkpt>
      <trkpt lat="45.71938" lon="4.15859">
        <ele>421.033</ele>
        <time>2018-11-12T14:55:13Z</time>
      </trkpt>
      <trkpt lat="45.71943" lon="4.15863">
        <ele>420.606</ele>
        <time>2018-11-12T14:55:18Z</time>
      </trkpt>
      <trkpt lat="45.71948" lon="4.15871">
        <ele>420.564</ele>
        <time>2018-11-12T14:55:24Z</time>
      </trkpt>
      <trkpt lat="45.71952" lon="4.15883">
        <ele>420.855</ele>
        <time>2018-11-12T14:55:30Z</time>
      </trkpt>
      <trkpt lat="45.71952" lon="4.15892">
        <ele>421.16</ele>
        <time>2018-11-12T14:55:35Z</time>
      </trkpt>
      <trkpt lat="45.71953" lon="4.15906">
        <ele>421.571</ele>
        <time>2018-11-12T14:55:41Z</time>
      </trkpt>
      <trkpt lat="45.71952" lon="4.15917">
        <ele>421.838</ele>
        <time>2018-11-12T14:55:46Z</time>
      </trkpt>
      <trkpt lat="45.7195" lon="4.15926">
        <ele>421.96</ele>
        <time>2018-11-12T14:55:51Z</time>
      </trkpt>
      <trkpt lat="45.7195" lon="4.15937">
        <ele>422.466</ele>
        <time>2018-11-12T14:55:57Z</time>
      </trkpt>
      <trkpt lat="45.7195" lon="4.15946">
        <ele>422.653</ele>
        <time>2018-11-12T14:56:02Z</time>
      </trkpt>
      <trkpt lat="45.71948" lon="4.15959">
        <ele>423.134</ele>
        <time>2018-11-12T14:56:08Z</time>
      </trkpt>
      <trkpt lat="45.71947" lon="4.15968">
        <ele>423.783</ele>
        <time>2018-11-12T14:56:13Z</time>
      </trkpt>
      <trkpt lat="45.71945" lon="4.15974">
        <ele>424.393</ele>
        <time>2018-11-12T14:56:19Z</time>
      </trkpt>
      <trkpt lat="45.71944" lon="4.15985">
        <ele>425.283</ele>
        <time>2018-11-12T14:56:24Z</time>
      </trkpt>
      <trkpt lat="45.71945" lon="4.15997">
        <ele>426.164</ele>
        <time>2018-11-12T14:56:30Z</time>
      </trkpt>
      <trkpt lat="45.71943" lon="4.16002">
        <ele>426.994</ele>
        <time>2018-11-12T14:56:35Z</time>
      </trkpt>
      <trkpt lat="45.7194" lon="4.16012">
        <ele>427.949</ele>
        <time>2018-11-12T14:56:41Z</time>
      </trkpt>
      <trkpt lat="45.71939" lon="4.16024">
        <ele>428.684</ele>
        <time>2018-11-12T14:56:47Z</time>
      </trkpt>
      <trkpt lat="45.71936" lon="4.16035">
        <ele>429.333</ele>
        <time>2018-11-12T14:56:53Z</time>
      </trkpt>
      <trkpt lat="45.71935" lon="4.16044">
        <ele>429.87</ele>
        <time>2018-11-12T14:56:58Z</time>
      </trkpt>
      <trkpt lat="45.71934" lon="4.16052">
        <ele>430.067</ele>
        <time>2018-11-12T14:57:03Z</time>
      </trkpt>
      <trkpt lat="45.71933" lon="4.16062">
        <ele>430.118</ele>
        <time>2018-11-12T14:57:08Z</time>
      </trkpt>
      <trkpt lat="45.71934" lon="4.16071">
        <ele>430.063</ele>
        <time>2018-11-12T14:57:13Z</time>
      </trkpt>
      <trkpt lat="45.71933" lon="4.1608">
        <ele>429.903</ele>
        <time>2018-11-12T14:57:19Z</time>
      </trkpt>
      <trkpt lat="45.71933" lon="4.16089">
        <ele>429.781</ele>
        <time>2018-11-12T14:57:24Z</time>
      </trkpt>
      <trkpt lat="45.71933" lon="4.161">
        <ele>429.986</ele>
        <time>2018-11-12T14:57:30Z</time>
      </trkpt>
      <trkpt lat="45.71933" lon="4.16109">
        <ele>429.91</ele>
        <time>2018-11-12T14:57:35Z</time>
      </trkpt>
      <trkpt lat="45.71933" lon="4.1612">
        <ele>429.95</ele>
        <time>2018-11-12T14:57:41Z</time>
      </trkpt>
      <trkpt lat="45.71933" lon="4.16129">
        <ele>429.758</ele>
        <time>2018-11-12T14:57:46Z</time>
      </trkpt>
      <trkpt lat="45.71933" lon="4.16137">
        <ele>429.664</ele>
        <time>2018-11-12T14:57:51Z</time>
      </trkpt>
      <trkpt lat="45.71933" lon="4.16148">
        <ele>429.735</ele>
        <time>2018-11-12T14:57:57Z</time>
      </trkpt>
      <trkpt lat="45.71934" lon="4.16158">
        <ele>429.793</ele>
        <time>2018-11-12T14:58:03Z</time>
      </trkpt>
      <trkpt lat="45.71935" lon="4.16165">
        <ele>429.919</ele>
        <time>2018-11-12T14:58:09Z</time>
      </trkpt>
      <trkpt lat="45.71936" lon="4.1617">
        <ele>430.447</ele>
        <time>2018-11-12T14:58:15Z</time>
      </trkpt>
      <trkpt lat="45.71936" lon="4.1617">
        <ele>430.699</ele>
        <time>2018-11-12T14:58:21Z</time>
      </trkpt>
      <trkpt lat="45.71934" lon="4.16172">
        <ele>431.141</ele>
        <time>2018-11-12T14:58:26Z</time>
      </trkpt>
      <trkpt lat="45.71934" lon="4.16172">
        <ele>431.471</ele>
        <time>2018-11-12T14:58:31Z</time>
      </trkpt>
      <trkpt lat="45.71931" lon="4.16172">
        <ele>431.955</ele>
        <time>2018-11-12T14:58:37Z</time>
      </trkpt>
      <trkpt lat="45.7193" lon="4.16175">
        <ele>431.572</ele>
        <time>2018-11-12T14:58:42Z</time>
      </trkpt>
      <trkpt lat="45.71931" lon="4.16184">
        <ele>430.73</ele>
        <time>2018-11-12T14:58:48Z</time>
      </trkpt>
      <trkpt lat="45.71932" lon="4.16194">
        <ele>430.313</ele>
        <time>2018-11-12T14:58:54Z</time>
      </trkpt>
      <trkpt lat="45.71936" lon="4.16203">
        <ele>429.489</ele>
        <time>2018-11-12T14:58:59Z</time>
      </trkpt>
      <trkpt lat="45.71939" lon="4.16216">
        <ele>429.21</ele>
        <time>2018-11-12T14:59:05Z</time>
      </trkpt>
      <trkpt lat="45.7194" lon="4.16228">
        <ele>429.022</ele>
        <time>2018-11-12T14:59:11Z</time>
      </trkpt>
      <trkpt lat="45.71942" lon="4.16239">
        <ele>429.189</ele>
        <time>2018-11-12T14:59:17Z</time>
      </trkpt>
      <trkpt lat="45.71944" lon="4.16248">
        <ele>429.682</ele>
        <time>2018-11-12T14:59:22Z</time>
      </trkpt>
      <trkpt lat="45.71946" lon="4.16258">
        <ele>430.011</ele>
        <time>2018-11-12T14:59:28Z</time>
      </trkpt>
      <trkpt lat="45.71945" lon="4.16271">
        <ele>430.504</ele>
        <time>2018-11-12T14:59:34Z</time>
      </trkpt>
      <trkpt lat="45.71946" lon="4.16278">
        <ele>430.716</ele>
        <time>2018-11-12T14:59:40Z</time>
      </trkpt>
      <trkpt lat="45.71946" lon="4.16286">
        <ele>430.403</ele>
        <time>2018-11-12T14:59:45Z</time>
      </trkpt>
      <trkpt lat="45.71948" lon="4.16298">
        <ele>430.539</ele>
        <time>2018-11-12T14:59:51Z</time>
      </trkpt>
      <trkpt lat="45.71948" lon="4.16308">
        <ele>431.431</ele>
        <time>2018-11-12T14:59:57Z</time>
      </trkpt>
      <trkpt lat="45.71948" lon="4.16315">
        <ele>432.045</ele>
        <time>2018-11-12T15:00:02Z</time>
      </trkpt>
      <trkpt lat="45.71949" lon="4.16323">
        <ele>432.299</ele>
        <time>2018-11-12T15:00:07Z</time>
      </trkpt>
      <trkpt lat="45.71949" lon="4.1633">
        <ele>432.313</ele>
        <time>2018-11-12T15:00:12Z</time>
      </trkpt>
      <trkpt lat="45.71949" lon="4.1634">
        <ele>432.97</ele>
        <time>2018-11-12T15:00:18Z</time>
      </trkpt>
      <trkpt lat="45.71948" lon="4.1635">
        <ele>433.797</ele>
        <time>2018-11-12T15:00:24Z</time>
      </trkpt>
      <trkpt lat="45.71947" lon="4.16355">
        <ele>434.601</ele>
        <time>2018-11-12T15:00:29Z</time>
      </trkpt>
      <trkpt lat="45.71949" lon="4.16369">
        <ele>435.115</ele>
        <time>2018-11-12T15:00:35Z</time>
      </trkpt>
      <trkpt lat="45.71951" lon="4.16382">
        <ele>435.02</ele>
        <time>2018-11-12T15:00:41Z</time>
      </trkpt>
      <trkpt lat="45.71953" lon="4.16392">
        <ele>434.969</ele>
        <time>2018-11-12T15:00:47Z</time>
      </trkpt>
      <trkpt lat="45.71954" lon="4.16404">
        <ele>434.727</ele>
        <time>2018-11-12T15:00:52Z</time>
      </trkpt>
      <trkpt lat="45.71956" lon="4.16414">
        <ele>434.742</ele>
        <time>2018-11-12T15:00:57Z</time>
      </trkpt>
      <trkpt lat="45.71957" lon="4.16424">
        <ele>434.856</ele>
        <time>2018-11-12T15:01:03Z</time>
      </trkpt>
      <trkpt lat="45.71956" lon="4.16435">
        <ele>434.658</ele>
        <time>2018-11-12T15:01:09Z</time>
      </trkpt>
      <trkpt lat="45.71957" lon="4.16443">
        <ele>434.283</ele>
        <time>2018-11-12T15:01:15Z</time>
      </trkpt>
      <trkpt lat="45.71957" lon="4.16456">
        <ele>433.874</ele>
        <time>2018-11-12T15:01:21Z</time>
      </trkpt>
      <trkpt lat="45.71959" lon="4.16467">
        <ele>433.833</ele>
        <time>2018-11-12T15:01:27Z</time>
      </trkpt>
      <trkpt lat="45.7196" lon="4.16474">
        <ele>433.299</ele>
        <time>2018-11-12T15:01:33Z</time>
      </trkpt>
      <trkpt lat="45.71961" lon="4.16486">
        <ele>432.815</ele>
        <time>2018-11-12T15:01:39Z</time>
      </trkpt>
      <trkpt lat="45.71963" lon="4.16493">
        <ele>432.648</ele>
        <time>2018-11-12T15:01:45Z</time>
      </trkpt>
      <trkpt lat="45.71963" lon="4.16505">
        <ele>432.74</ele>
        <time>2018-11-12T15:01:51Z</time>
      </trkpt>
      <trkpt lat="45.71963" lon="4.16516">
        <ele>432.602</ele>
        <time>2018-11-12T15:01:57Z</time>
      </trkpt>
      <trkpt lat="45.71964" lon="4.16524">
        <ele>432.51</ele>
        <time>2018-11-12T15:02:03Z</time>
      </trkpt>
      <trkpt lat="45.71965" lon="4.16534">
        <ele>432.182</ele>
        <time>2018-11-12T15:02:09Z</time>
      </trkpt>
      <trkpt lat="45.71965" lon="4.16545">
        <ele>431.843</ele>
        <time>2018-11-12T15:02:15Z</time>
      </trkpt>
      <trkpt lat="45.71964" lon="4.16556">
        <ele>431.554</ele>
        <time>2018-11-12T15:02:21Z</time>
      </trkpt>
      <trkpt lat="45.71964" lon="4.16564">
        <ele>431.703</ele>
        <time>2018-11-12T15:02:26Z</time>
      </trkpt>
      <trkpt lat="45.71966" lon="4.16573">
        <ele>431.589</ele>
        <time>2018-11-12T15:02:31Z</time>
      </trkpt>
      <trkpt lat="45.71966" lon="4.16582">
        <ele>431.494</ele>
        <time>2018-11-12T15:02:36Z</time>
      </trkpt>
      <trkpt lat="45.71968" lon="4.16592">
        <ele>431.562</ele>
        <time>2018-11-12T15:02:42Z</time>
      </trkpt>
      <trkpt lat="45.71968" lon="4.166">
        <ele>431.379</ele>
        <time>2018-11-12T15:02:48Z</time>
      </trkpt>
      <trkpt lat="45.71968" lon="4.16611">
        <ele>431.186</ele>
        <time>2018-11-12T15:02:54Z</time>
      </trkpt>
      <trkpt lat="45.71967" lon="4.16619">
        <ele>431.394</ele>
        <time>2018-11-12T15:02:59Z</time>
      </trkpt>
      <trkpt lat="45.71967" lon="4.16632">
        <ele>431.709</ele>
        <time>2018-11-12T15:03:05Z</time>
      </trkpt>
      <trkpt lat="45.71969" lon="4.16641">
        <ele>431.558</ele>
        <time>2018-11-12T15:03:10Z</time>
      </trkpt>
      <trkpt lat="45.71971" lon="4.16651">
        <ele>431.603</ele>
        <time>2018-11-12T15:03:15Z</time>
      </trkpt>
      <trkpt lat="45.71973" lon="4.16662">
        <ele>431.386</ele>
        <time>2018-11-12T15:03:21Z</time>
      </trkpt>
      <trkpt lat="45.71976" lon="4.16672">
        <ele>430.744</ele>
        <time>2018-11-12T15:03:27Z</time>
      </trkpt>
      <trkpt lat="45.71977" lon="4.16679">
        <ele>430.07</ele>
        <time>2018-11-12T15:03:33Z</time>
      </trkpt>
      <trkpt lat="45.71978" lon="4.16682">
        <ele>429.182</ele>
        <time>2018-11-12T15:03:39Z</time>
      </trkpt>
      <trkpt lat="45.71986" lon="4.16687">
        <ele>427.942</ele>
        <time>2018-11-12T15:03:45Z</time>
      </trkpt>
      <trkpt lat="45.71994" lon="4.16691">
        <ele>426.826</ele>
        <time>2018-11-12T15:03:51Z</time>
      </trkpt>
      <trkpt lat="45.71999" lon="4.16693">
        <ele>426.002</ele>
        <time>2018-11-12T15:03:56Z</time>
      </trkpt>
      <trkpt lat="45.72005" lon="4.16697">
        <ele>425.223</ele>
        <time>2018-11-12T15:04:01Z</time>
      </trkpt>
      <trkpt lat="45.72013" lon="4.167">
        <ele>423.591</ele>
        <time>2018-11-12T15:04:07Z</time>
      </trkpt>
      <trkpt lat="45.72021" lon="4.16707">
        <ele>422.252</ele>
        <time>2018-11-12T15:04:13Z</time>
      </trkpt>
      <trkpt lat="45.72027" lon="4.16711">
        <ele>421.015</ele>
        <time>2018-11-12T15:04:18Z</time>
      </trkpt>
      <trkpt lat="45.72032" lon="4.16715">
        <ele>419.86</ele>
        <time>2018-11-12T15:04:24Z</time>
      </trkpt>
      <trkpt lat="45.7204" lon="4.1672">
        <ele>418.839</ele>
        <time>2018-11-12T15:04:30Z</time>
      </trkpt>
      <trkpt lat="45.72048" lon="4.16723">
        <ele>417.671</ele>
        <time>2018-11-12T15:04:36Z</time>
      </trkpt>
      <trkpt lat="45.72055" lon="4.16727">
        <ele>417.2</ele>
        <time>2018-11-12T15:04:41Z</time>
      </trkpt>
      <trkpt lat="45.72062" lon="4.16731">
        <ele>416.736</ele>
        <time>2018-11-12T15:04:46Z</time>
      </trkpt>
      <trkpt lat="45.72068" lon="4.16733">
        <ele>416.269</ele>
        <time>2018-11-12T15:04:51Z</time>
      </trkpt>
      <trkpt lat="45.72074" lon="4.16735">
        <ele>415.503</ele>
        <time>2018-11-12T15:04:56Z</time>
      </trkpt>
      <trkpt lat="45.7208" lon="4.16739">
        <ele>415.084</ele>
        <time>2018-11-12T15:05:02Z</time>
      </trkpt>
      <trkpt lat="45.72088" lon="4.16737">
        <ele>414.506</ele>
        <time>2018-11-12T15:05:08Z</time>
      </trkpt>
      <trkpt lat="45.72096" lon="4.16735">
        <ele>414.438</ele>
        <time>2018-11-12T15:05:14Z</time>
      </trkpt>
      <trkpt lat="45.72102" lon="4.1673">
        <ele>414.342</ele>
        <time>2018-11-12T15:05:19Z</time>
      </trkpt>
      <trkpt lat="45.72109" lon="4.16721">
        <ele>414.325</ele>
        <time>2018-11-12T15:05:25Z</time>
      </trkpt>
      <trkpt lat="45.72115" lon="4.16716">
        <ele>414.569</ele>
        <time>2018-11-12T15:05:31Z</time>
      </trkpt>
      <trkpt lat="45.72121" lon="4.16713">
        <ele>415.093</ele>
        <time>2018-11-12T15:05:36Z</time>
      </trkpt>
      <trkpt lat="45.72129" lon="4.16712">
        <ele>415.254</ele>
        <time>2018-11-12T15:05:41Z</time>
      </trkpt>
      <trkpt lat="45.72137" lon="4.1671">
        <ele>415.172</ele>
        <time>2018-11-12T15:05:47Z</time>
      </trkpt>
      <trkpt lat="45.72146" lon="4.16708">
        <ele>414.968</ele>
        <time>2018-11-12T15:05:53Z</time>
      </trkpt>
      <trkpt lat="45.72155" lon="4.16708">
        <ele>414.89</ele>
        <time>2018-11-12T15:05:59Z</time>
      </trkpt>
      <trkpt lat="45.72161" lon="4.16709">
        <ele>415.401</ele>
        <time>2018-11-12T15:06:05Z</time>
      </trkpt>
      <trkpt lat="45.72164" lon="4.16707">
        <ele>415.975</ele>
        <time>2018-11-12T15:06:10Z</time>
      </trkpt>
      <trkpt lat="45.72172" lon="4.16707">
        <ele>416.357</ele>
        <time>2018-11-12T15:06:16Z</time>
      </trkpt>
      <trkpt lat="45.72178" lon="4.16707">
        <ele>417.061</ele>
        <time>2018-11-12T15:06:22Z</time>
      </trkpt>
      <trkpt lat="45.72184" lon="4.16706">
        <ele>417.858</ele>
        <time>2018-11-12T15:06:27Z</time>
      </trkpt>
      <trkpt lat="45.72192" lon="4.16704">
        <ele>418.421</ele>
        <time>2018-11-12T15:06:32Z</time>
      </trkpt>
      <trkpt lat="45.72198" lon="4.16702">
        <ele>418.892</ele>
        <time>2018-11-12T15:06:38Z</time>
      </trkpt>
      <trkpt lat="45.72204" lon="4.16698">
        <ele>418.978</ele>
        <time>2018-11-12T15:06:43Z</time>
      </trkpt>
      <trkpt lat="45.7221" lon="4.16695">
        <ele>419.06</ele>
        <time>2018-11-12T15:06:49Z</time>
      </trkpt>
      <trkpt lat="45.72215" lon="4.16696">
        <ele>418.628</ele>
        <time>2018-11-12T15:06:55Z</time>
      </trkpt>
      <trkpt lat="45.72222" lon="4.16696">
        <ele>418.828</ele>
        <time>2018-11-12T15:07:01Z</time>
      </trkpt>
      <trkpt lat="45.72228" lon="4.16695">
        <ele>418.709</ele>
        <time>2018-11-12T15:07:06Z</time>
      </trkpt>
      <trkpt lat="45.72234" lon="4.16695">
        <ele>418.704</ele>
        <time>2018-11-12T15:07:11Z</time>
      </trkpt>
      <trkpt lat="45.72243" lon="4.16694">
        <ele>418.271</ele>
        <time>2018-11-12T15:07:17Z</time>
      </trkpt>
      <trkpt lat="45.7225" lon="4.16691">
        <ele>417.706</ele>
        <time>2018-11-12T15:07:22Z</time>
      </trkpt>
      <trkpt lat="45.72256" lon="4.16687">
        <ele>417.556</ele>
        <time>2018-11-12T15:07:28Z</time>
      </trkpt>
      <trkpt lat="45.72262" lon="4.16686">
        <ele>418.066</ele>
        <time>2018-11-12T15:07:34Z</time>
      </trkpt>
      <trkpt lat="45.72269" lon="4.16682">
        <ele>418.621</ele>
        <time>2018-11-12T15:07:40Z</time>
      </trkpt>
      <trkpt lat="45.72276" lon="4.1668">
        <ele>419.396</ele>
        <time>2018-11-12T15:07:46Z</time>
      </trkpt>
      <trkpt lat="45.72281" lon="4.16678">
        <ele>420.366</ele>
        <time>2018-11-12T15:07:51Z</time>
      </trkpt>
      <trkpt lat="45.72288" lon="4.16677">
        <ele>421.624</ele>
        <time>2018-11-12T15:07:57Z</time>
      </trkpt>
      <trkpt lat="45.72294" lon="4.16678">
        <ele>421.583</ele>
        <time>2018-11-12T15:08:03Z</time>
      </trkpt>
      <trkpt lat="45.72301" lon="4.16678">
        <ele>420.808</ele>
        <time>2018-11-12T15:08:09Z</time>
      </trkpt>
      <trkpt lat="45.72312" lon="4.16676">
        <ele>419.789</ele>
        <time>2018-11-12T15:08:15Z</time>
      </trkpt>
      <trkpt lat="45.72317" lon="4.16676">
        <ele>418.528</ele>
        <time>2018-11-12T15:08:21Z</time>
      </trkpt>
      <trkpt lat="45.72324" lon="4.16676">
        <ele>417.948</ele>
        <time>2018-11-12T15:08:26Z</time>
      </trkpt>
      <trkpt lat="45.7233" lon="4.16673">
        <ele>417.244</ele>
        <time>2018-11-12T15:08:32Z</time>
      </trkpt>
      <trkpt lat="45.72337" lon="4.16672">
        <ele>417.035</ele>
        <time>2018-11-12T15:08:37Z</time>
      </trkpt>
      <trkpt lat="45.72344" lon="4.16669">
        <ele>417.143</ele>
        <time>2018-11-12T15:08:42Z</time>
      </trkpt>
      <trkpt lat="45.72351" lon="4.16666">
        <ele>416.907</ele>
        <time>2018-11-12T15:08:48Z</time>
      </trkpt>
      <trkpt lat="45.72355" lon="4.16664">
        <ele>416.877</ele>
        <time>2018-11-12T15:08:53Z</time>
      </trkpt>
      <trkpt lat="45.7236" lon="4.16661">
        <ele>416.853</ele>
        <time>2018-11-12T15:08:59Z</time>
      </trkpt>
      <trkpt lat="45.72369" lon="4.16658">
        <ele>416.823</ele>
        <time>2018-11-12T15:09:04Z</time>
      </trkpt>
      <trkpt lat="45.72374" lon="4.16656">
        <ele>416.76</ele>
        <time>2018-11-12T15:09:10Z</time>
      </trkpt>
      <trkpt lat="45.7238" lon="4.16653">
        <ele>416.614</ele>
        <time>2018-11-12T15:09:16Z</time>
      </trkpt>
      <trkpt lat="45.72386" lon="4.16649">
        <ele>415.803</ele>
        <time>2018-11-12T15:09:22Z</time>
      </trkpt>
      <trkpt lat="45.72392" lon="4.16646">
        <ele>415.267</ele>
        <time>2018-11-12T15:09:28Z</time>
      </trkpt>
      <trkpt lat="45.724" lon="4.16642">
        <ele>415.053</ele>
        <time>2018-11-12T15:09:33Z</time>
      </trkpt>
      <trkpt lat="45.72404" lon="4.16641">
        <ele>414.78</ele>
        <time>2018-11-12T15:09:38Z</time>
      </trkpt>
      <trkpt lat="45.7241" lon="4.16637">
        <ele>414.337</ele>
        <time>2018-11-12T15:09:44Z</time>
      </trkpt>
      <trkpt lat="45.72416" lon="4.16634">
        <ele>413.836</ele>
        <time>2018-11-12T15:09:49Z</time>
      </trkpt>
      <trkpt lat="45.72423" lon="4.16628">
        <ele>413.724</ele>
        <time>2018-11-12T15:09:55Z</time>
      </trkpt>
      <trkpt lat="45.72428" lon="4.16625">
        <ele>413.521</ele>
        <time>2018-11-12T15:10:01Z</time>
      </trkpt>
      <trkpt lat="45.72434" lon="4.16622">
        <ele>413.144</ele>
        <time>2018-11-12T15:10:06Z</time>
      </trkpt>
      <trkpt lat="45.72439" lon="4.1662">
        <ele>412.566</ele>
        <time>2018-11-12T15:10:12Z</time>
      </trkpt>
      <trkpt lat="45.72445" lon="4.16619">
        <ele>412.768</ele>
        <time>2018-11-12T15:10:17Z</time>
      </trkpt>
      <trkpt lat="45.72453" lon="4.16612">
        <ele>413.325</ele>
        <time>2018-11-12T15:10:23Z</time>
      </trkpt>
      <trkpt lat="45.7246" lon="4.16609">
        <ele>413.65</ele>
        <time>2018-11-12T15:10:29Z</time>
      </trkpt>
      <trkpt lat="45.72468" lon="4.16605">
        <ele>413.503</ele>
        <time>2018-11-12T15:10:35Z</time>
      </trkpt>
      <trkpt lat="45.72473" lon="4.16604">
        <ele>413.164</ele>
        <time>2018-11-12T15:10:40Z</time>
      </trkpt>
      <trkpt lat="45.72479" lon="4.16603">
        <ele>412.517</ele>
        <time>2018-11-12T15:10:45Z</time>
      </trkpt>
      <trkpt lat="45.72484" lon="4.16601">
        <ele>411.724</ele>
        <time>2018-11-12T15:10:51Z</time>
      </trkpt>
      <trkpt lat="45.72492" lon="4.16598">
        <ele>411.33</ele>
        <time>2018-11-12T15:10:57Z</time>
      </trkpt>
      <trkpt lat="45.72499" lon="4.16597">
        <ele>410.695</ele>
        <time>2018-11-12T15:11:03Z</time>
      </trkpt>
      <trkpt lat="45.72505" lon="4.16596">
        <ele>409.714</ele>
        <time>2018-11-12T15:11:09Z</time>
      </trkpt>
      <trkpt lat="45.7251" lon="4.16591">
        <ele>409.145</ele>
        <time>2018-11-12T15:11:14Z</time>
      </trkpt>
      <trkpt lat="45.72515" lon="4.16586">
        <ele>408.687</ele>
        <time>2018-11-12T15:11:19Z</time>
      </trkpt>
      <trkpt lat="45.72522" lon="4.16582">
        <ele>408.064</ele>
        <time>2018-11-12T15:11:25Z</time>
      </trkpt>
      <trkpt lat="45.72526" lon="4.16576">
        <ele>407.52</ele>
        <time>2018-11-12T15:11:30Z</time>
      </trkpt>
      <trkpt lat="45.72532" lon="4.16571">
        <ele>406.612</ele>
        <time>2018-11-12T15:11:36Z</time>
      </trkpt>
      <trkpt lat="45.72538" lon="4.16566">
        <ele>405.768</ele>
        <time>2018-11-12T15:11:42Z</time>
      </trkpt>
      <trkpt lat="45.72545" lon="4.16561">
        <ele>405.311</ele>
        <time>2018-11-12T15:11:48Z</time>
      </trkpt>
      <trkpt lat="45.72548" lon="4.16557">
        <ele>405.056</ele>
        <time>2018-11-12T15:11:53Z</time>
      </trkpt>
      <trkpt lat="45.72553" lon="4.16552">
        <ele>404.913</ele>
        <time>2018-11-12T15:11:59Z</time>
      </trkpt>
      <trkpt lat="45.7256" lon="4.16549">
        <ele>404.553</ele>
        <time>2018-11-12T15:12:05Z</time>
      </trkpt>
      <trkpt lat="45.72566" lon="4.16544">
        <ele>404.3</ele>
        <time>2018-11-12T15:12:11Z</time>
      </trkpt>
      <trkpt lat="45.7257" lon="4.16541">
        <ele>403.67</ele>
        <time>2018-11-12T15:12:16Z</time>
      </trkpt>
      <trkpt lat="45.72577" lon="4.16537">
        <ele>402.812</ele>
        <time>2018-11-12T15:12:22Z</time>
      </trkpt>
      <trkpt lat="45.72583" lon="4.1653">
        <ele>401.936</ele>
        <time>2018-11-12T15:12:28Z</time>
      </trkpt>
      <trkpt lat="45.7259" lon="4.16525">
        <ele>401.387</ele>
        <time>2018-11-12T15:12:33Z</time>
      </trkpt>
      <trkpt lat="45.72593" lon="4.16521">
        <ele>400.854</ele>
        <time>2018-11-12T15:12:39Z</time>
      </trkpt>
      <trkpt lat="45.726" lon="4.16513">
        <ele>400.32</ele>
        <time>2018-11-12T15:12:44Z</time>
      </trkpt>
      <trkpt lat="45.72606" lon="4.16508">
        <ele>399.624</ele>
        <time>2018-11-12T15:12:50Z</time>
      </trkpt>
      <trkpt lat="45.7261" lon="4.16504">
        <ele>399.06</ele>
        <time>2018-11-12T15:12:55Z</time>
      </trkpt>
      <trkpt lat="45.72615" lon="4.16499">
        <ele>398.645</ele>
        <time>2018-11-12T15:13:00Z</time>
      </trkpt>
      <trkpt lat="45.72619" lon="4.16494">
        <ele>398.505</ele>
        <time>2018-11-12T15:13:06Z</time>
      </trkpt>
      <trkpt lat="45.72622" lon="4.16488">
        <ele>398.035</ele>
        <time>2018-11-12T15:13:11Z</time>
      </trkpt>
      <trkpt lat="45.72625" lon="4.16484">
        <ele>397.66</ele>
        <time>2018-11-12T15:13:16Z</time>
      </trkpt>
      <trkpt lat="45.72631" lon="4.16477">
        <ele>397.301</ele>
        <time>2018-11-12T15:13:22Z</time>
      </trkpt>
      <trkpt lat="45.72635" lon="4.16471">
        <ele>396.939</ele>
        <time>2018-11-12T15:13:28Z</time>
      </trkpt>
      <trkpt lat="45.7264" lon="4.16463">
        <ele>396.285</ele>
        <time>2018-11-12T15:13:34Z</time>
      </trkpt>
      <trkpt lat="45.72647" lon="4.16458">
        <ele>395.914</ele>
        <time>2018-11-12T15:13:40Z</time>
      </trkpt>
      <trkpt lat="45.72652" lon="4.16451">
        <ele>395.888</ele>
        <time>2018-11-12T15:13:46Z</time>
      </trkpt>
      <trkpt lat="45.72655" lon="4.16445">
        <ele>395.771</ele>
        <time>2018-11-12T15:13:52Z</time>
      </trkpt>
      <trkpt lat="45.72657" lon="4.16439">
        <ele>395.588</ele>
        <time>2018-11-12T15:13:57Z</time>
      </trkpt>
      <trkpt lat="45.72663" lon="4.16432">
        <ele>395.204</ele>
        <time>2018-11-12T15:14:03Z</time>
      </trkpt>
      <trkpt lat="45.72667" lon="4.16427">
        <ele>394.851</ele>
        <time>2018-11-12T15:14:08Z</time>
      </trkpt>
      <trkpt lat="45.72673" lon="4.16422">
        <ele>394.198</ele>
        <time>2018-11-12T15:14:14Z</time>
      </trkpt>
      <trkpt lat="45.72677" lon="4.16418">
        <ele>393.806</ele>
        <time>2018-11-12T15:14:19Z</time>
      </trkpt>
      <trkpt lat="45.72682" lon="4.16411">
        <ele>393.55</ele>
        <time>2018-11-12T15:14:25Z</time>
      </trkpt>
      <trkpt lat="45.72685" lon="4.16405">
        <ele>393.22</ele>
        <time>2018-11-12T15:14:31Z</time>
      </trkpt>
      <trkpt lat="45.72689" lon="4.16399">
        <ele>393.059</ele>
        <time>2018-11-12T15:14:36Z</time>
      </trkpt>
      <trkpt lat="45.72694" lon="4.16391">
        <ele>392.694</ele>
        <time>2018-11-12T15:14:42Z</time>
      </trkpt>
      <trkpt lat="45.72696" lon="4.16385">
        <ele>392.35</ele>
        <time>2018-11-12T15:14:47Z</time>
      </trkpt>
      <trkpt lat="45.72699" lon="4.16381">
        <ele>392.143</ele>
        <time>2018-11-12T15:14:53Z</time>
      </trkpt>
      <trkpt lat="45.72706" lon="4.16372">
        <ele>391.576</ele>
        <time>2018-11-12T15:14:59Z</time>
      </trkpt>
      <trkpt lat="45.7271" lon="4.16366">
        <ele>390.77</ele>
        <time>2018-11-12T15:15:05Z</time>
      </trkpt>
      <trkpt lat="45.72714" lon="4.16358">
        <ele>390.031</ele>
        <time>2018-11-12T15:15:11Z</time>
      </trkpt>
      <trkpt lat="45.72716" lon="4.16354">
        <ele>389.524</ele>
        <time>2018-11-12T15:15:16Z</time>
      </trkpt>
      <trkpt lat="45.72719" lon="4.16346">
        <ele>388.914</ele>
        <time>2018-11-12T15:15:22Z</time>
      </trkpt>
      <trkpt lat="45.72723" lon="4.1634">
        <ele>388.227</ele>
        <time>2018-11-12T15:15:28Z</time>
      </trkpt>
      <trkpt lat="45.72724" lon="4.16337">
        <ele>387.796</ele>
        <time>2018-11-12T15:15:33Z</time>
      </trkpt>
      <trkpt lat="45.72724" lon="4.16336">
        <ele>387.07</ele>
        <time>2018-11-12T15:15:39Z</time>
      </trkpt>
      <trkpt lat="45.72724" lon="4.16336">
        <ele>386.934</ele>
        <time>2018-11-12T15:15:44Z</time>
      </trkpt>
      <trkpt lat="45.72725" lon="4.16336">
        <ele>385.779</ele>
        <time>2018-11-12T15:15:49Z</time>
      </trkpt>
      <trkpt lat="45.72725" lon="4.16335">
        <ele>385.305</ele>
        <time>2018-11-12T15:15:54Z</time>
      </trkpt>
      <trkpt lat="45.72725" lon="4.16334">
        <ele>384.775</ele>
        <time>2018-11-12T15:15:59Z</time>
      </trkpt>
      <trkpt lat="45.72724" lon="4.16334">
        <ele>384.128</ele>
        <time>2018-11-12T15:16:05Z</time>
      </trkpt>
      <trkpt lat="45.72726" lon="4.16335">
        <ele>383.22</ele>
        <time>2018-11-12T15:16:11Z</time>
      </trkpt>
      <trkpt lat="45.72728" lon="4.16335">
        <ele>382.394</ele>
        <time>2018-11-12T15:16:17Z</time>
      </trkpt>
      <trkpt lat="45.72731" lon="4.16331">
        <ele>381.604</ele>
        <time>2018-11-12T15:16:23Z</time>
      </trkpt>
      <trkpt lat="45.72736" lon="4.16323">
        <ele>381.11</ele>
        <time>2018-11-12T15:16:29Z</time>
      </trkpt>
      <trkpt lat="45.72741" lon="4.16318">
        <ele>380.55</ele>
        <time>2018-11-12T15:16:34Z</time>
      </trkpt>
      <trkpt lat="45.72743" lon="4.16316">
        <ele>379.693</ele>
        <time>2018-11-12T15:16:39Z</time>
      </trkpt>
      <trkpt lat="45.72746" lon="4.16309">
        <ele>378.922</ele>
        <time>2018-11-12T15:16:44Z</time>
      </trkpt>
      <trkpt lat="45.72751" lon="4.16303">
        <ele>378.175</ele>
        <time>2018-11-12T15:16:50Z</time>
      </trkpt>
      <trkpt lat="45.72753" lon="4.16296">
        <ele>377.873</ele>
        <time>2018-11-12T15:16:55Z</time>
      </trkpt>
      <trkpt lat="45.72756" lon="4.16285">
        <ele>378.591</ele>
        <time>2018-11-12T15:17:01Z</time>
      </trkpt>
      <trkpt lat="45.7276" lon="4.16274">
        <ele>379.78</ele>
        <time>2018-11-12T15:17:07Z</time>
      </trkpt>
      <trkpt lat="45.72765" lon="4.16268">
        <ele>380.913</ele>
        <time>2018-11-12T15:17:13Z</time>
      </trkpt>
      <trkpt lat="45.7277" lon="4.16266">
        <ele>381.776</ele>
        <time>2018-11-12T15:17:19Z</time>
      </trkpt>
      <trkpt lat="45.72775" lon="4.16265">
        <ele>382.075</ele>
        <time>2018-11-12T15:17:24Z</time>
      </trkpt>
      <trkpt lat="45.7278" lon="4.16263">
        <ele>382.234</ele>
        <time>2018-11-12T15:17:29Z</time>
      </trkpt>
      <trkpt lat="45.72789" lon="4.1626">
        <ele>382.407</ele>
        <time>2018-11-12T15:17:35Z</time>
      </trkpt>
      <trkpt lat="45.72795" lon="4.16261">
        <ele>382.705</ele>
        <time>2018-11-12T15:17:40Z</time>
      </trkpt>
      <trkpt lat="45.72798" lon="4.16258">
        <ele>383.239</ele>
        <time>2018-11-12T15:17:45Z</time>
      </trkpt>
      <trkpt lat="45.72805" lon="4.16254">
        <ele>383.111</ele>
        <time>2018-11-12T15:17:50Z</time>
      </trkpt>
      <trkpt lat="45.72811" lon="4.16252">
        <ele>382.819</ele>
        <time>2018-11-12T15:17:56Z</time>
      </trkpt>
      <trkpt lat="45.72815" lon="4.1625">
        <ele>382.287</ele>
        <time>2018-11-12T15:18:01Z</time>
      </trkpt>
      <trkpt lat="45.7282" lon="4.16247">
        <ele>382.645</ele>
        <time>2018-11-12T15:18:06Z</time>
      </trkpt>
      <trkpt lat="45.72827" lon="4.16243">
        <ele>383.624</ele>
        <time>2018-11-12T15:18:12Z</time>
      </trkpt>
      <trkpt lat="45.72833" lon="4.16241">
        <ele>384.656</ele>
        <time>2018-11-12T15:18:17Z</time>
      </trkpt>
      <trkpt lat="45.72838" lon="4.16236">
        <ele>385.427</ele>
        <time>2018-11-12T15:18:23Z</time>
      </trkpt>
      <trkpt lat="45.72834" lon="4.16224">
        <ele>385.455</ele>
        <time>2018-11-12T15:18:29Z</time>
      </trkpt>
      <trkpt lat="45.72831" lon="4.16213">
        <ele>384.769</ele>
        <time>2018-11-12T15:18:35Z</time>
      </trkpt>
      <trkpt lat="45.72827" lon="4.16204">
        <ele>384.163</ele>
        <time>2018-11-12T15:18:40Z</time>
      </trkpt>
      <trkpt lat="45.72825" lon="4.16197">
        <ele>383.764</ele>
        <time>2018-11-12T15:18:45Z</time>
      </trkpt>
      <trkpt lat="45.72824" lon="4.16194">
        <ele>383.567</ele>
        <time>2018-11-12T15:18:51Z</time>
      </trkpt>
      <trkpt lat="45.72822" lon="4.16197">
        <ele>383.783</ele>
        <time>2018-11-12T15:18:57Z</time>
      </trkpt>
      <trkpt lat="45.72821" lon="4.16196">
        <ele>383.817</ele>
        <time>2018-11-12T15:19:03Z</time>
      </trkpt>
      <trkpt lat="45.7282" lon="4.16198">
        <ele>383.732</ele>
        <time>2018-11-12T15:19:08Z</time>
      </trkpt>
      <trkpt lat="45.72819" lon="4.16199">
        <ele>382.946</ele>
        <time>2018-11-12T15:19:14Z</time>
      </trkpt>
      <trkpt lat="45.72816" lon="4.16198">
        <ele>382.985</ele>
        <time>2018-11-12T15:19:20Z</time>
      </trkpt>
      <trkpt lat="45.72815" lon="4.16198">
        <ele>383.275</ele>
        <time>2018-11-12T15:19:25Z</time>
      </trkpt>
      <trkpt lat="45.72816" lon="4.16197">
        <ele>383.356</ele>
        <time>2018-11-12T15:19:31Z</time>
      </trkpt>
      <trkpt lat="45.72816" lon="4.16197">
        <ele>383.45</ele>
        <time>2018-11-12T15:19:36Z</time>
      </trkpt>
      <trkpt lat="45.72816" lon="4.16197">
        <ele>383.669</ele>
        <time>2018-11-12T15:19:42Z</time>
      </trkpt>
      <trkpt lat="45.72816" lon="4.16197">
        <ele>383.797</ele>
        <time>2018-11-12T15:19:47Z</time>
      </trkpt>
      <trkpt lat="45.72816" lon="4.16197">
        <ele>383.899</ele>
        <time>2018-11-12T15:19:53Z</time>
      </trkpt>
      <trkpt lat="45.72816" lon="4.16197">
        <ele>384.061</ele>
        <time>2018-11-12T15:19:59Z</time>
      </trkpt>
      <trkpt lat="45.72816" lon="4.16197">
        <ele>384.272</ele>
        <time>2018-11-12T15:20:05Z</time>
      </trkpt>
      <trkpt lat="45.72816" lon="4.16196">
        <ele>384.389</ele>
        <time>2018-11-12T15:20:11Z</time>
      </trkpt>
      <trkpt lat="45.72816" lon="4.16196">
        <ele>384.788</ele>
        <time>2018-11-12T15:20:17Z</time>
      </trkpt>
      <trkpt lat="45.72816" lon="4.16196">
        <ele>385.223</ele>
        <time>2018-11-12T15:20:23Z</time>
      </trkpt>
      <trkpt lat="45.72816" lon="4.16196">
        <ele>385.369</ele>
        <time>2018-11-12T15:20:28Z</time>
      </trkpt>
      <trkpt lat="45.72817" lon="4.16193">
        <ele>385.485</ele>
        <time>2018-11-12T15:20:33Z</time>
      </trkpt>
      <trkpt lat="45.72817" lon="4.16193">
        <ele>385.587</ele>
        <time>2018-11-12T15:20:39Z</time>
      </trkpt>
      <trkpt lat="45.72817" lon="4.16192">
        <ele>385.767</ele>
        <time>2018-11-12T15:20:44Z</time>
      </trkpt>
      <trkpt lat="45.72817" lon="4.16192">
        <ele>385.795</ele>
        <time>2018-11-12T15:20:49Z</time>
      </trkpt>
      <trkpt lat="45.72817" lon="4.16192">
        <ele>385.888</ele>
        <time>2018-11-12T15:20:54Z</time>
      </trkpt>
      <trkpt lat="45.72817" lon="4.16192">
        <ele>385.976</ele>
        <time>2018-11-12T15:21:00Z</time>
      </trkpt>
      <trkpt lat="45.72817" lon="4.16192">
        <ele>385.965</ele>
        <time>2018-11-12T15:21:05Z</time>
      </trkpt>
      <trkpt lat="45.72818" lon="4.16192">
        <ele>385.997</ele>
        <time>2018-11-12T15:21:11Z</time>
      </trkpt>
      <trkpt lat="45.72818" lon="4.16192">
        <ele>386.262</ele>
        <time>2018-11-12T15:21:17Z</time>
      </trkpt>
      <trkpt lat="45.72819" lon="4.16192">
        <ele>386.392</ele>
        <time>2018-11-12T15:21:23Z</time>
      </trkpt>
      <trkpt lat="45.72819" lon="4.16192">
        <ele>387.017</ele>
        <time>2018-11-12T15:21:29Z</time>
      </trkpt>
      <trkpt lat="45.72819" lon="4.16194">
        <ele>387.093</ele>
        <time>2018-11-12T15:21:35Z</time>
      </trkpt>
      <trkpt lat="45.72823" lon="4.16191">
        <ele>387.168</ele>
        <time>2018-11-12T15:21:41Z</time>
      </trkpt>
      <trkpt lat="45.72824" lon="4.16192">
        <ele>386.918</ele>
        <time>2018-11-12T15:21:47Z</time>
      </trkpt>
      <trkpt lat="45.72824" lon="4.16192">
        <ele>386.82</ele>
        <time>2018-11-12T15:21:53Z</time>
      </trkpt>
      <trkpt lat="45.72824" lon="4.16192">
        <ele>386.757</ele>
        <time>2018-11-12T15:21:59Z</time>
      </trkpt>
    </trkseg>
  </trk>
</gpx>